<?xml version="1.0" encoding="UTF-8" standalone="no" ?>
<gpx xmlns="http://www.topografix.com/GPX/1/1" xmlns:xsi="http://www.w3.org/2001/XMLSchema-instance" xsi:schemaLocation="http://www.topografix.com/GPX/1/1 http://www.topografix.com/GPX/1/1/gpx.xsd" version="1.1" creator="VisuGPX - https://www.visugpx.com">
  <metadata>
    <name>VERS SAUT DU DOUBS</name>
  </metadata>
  <trk>
    <name><![CDATA[Parcours technique saut du Doubs 60km-25049875]]></name>
    <trkseg>
      <trkpt lat="47.2194" lon="6.79899">
        <ele>900</ele>
        <time>2026-08-28T04:43:14Z</time>
      </trkpt>
      <trkpt lat="47.21931" lon="6.79901">
        <ele>901</ele>
        <time>2026-08-28T04:43:16Z</time>
      </trkpt>
      <trkpt lat="47.21922" lon="6.79899">
        <ele>901</ele>
        <time>2026-08-28T04:43:18Z</time>
      </trkpt>
      <trkpt lat="47.2191" lon="6.79897">
        <ele>901</ele>
        <time>2026-08-28T04:43:21Z</time>
      </trkpt>
      <trkpt lat="47.21898" lon="6.79893">
        <ele>900</ele>
        <time>2026-08-28T04:43:24Z</time>
      </trkpt>
      <trkpt lat="47.21879" lon="6.79886">
        <ele>899</ele>
        <time>2026-08-28T04:43:29Z</time>
      </trkpt>
      <trkpt lat="47.21856" lon="6.79878">
        <ele>898</ele>
        <time>2026-08-28T04:43:34Z</time>
      </trkpt>
      <trkpt lat="47.21817" lon="6.79865">
        <ele>896</ele>
        <time>2026-08-28T04:43:43Z</time>
      </trkpt>
      <trkpt lat="47.2178" lon="6.79854">
        <ele>896</ele>
        <time>2026-08-28T04:43:52Z</time>
      </trkpt>
      <trkpt lat="47.21769" lon="6.79849">
        <ele>896</ele>
        <time>2026-08-28T04:43:55Z</time>
      </trkpt>
      <trkpt lat="47.21762" lon="6.79844">
        <ele>896</ele>
        <time>2026-08-28T04:43:57Z</time>
      </trkpt>
      <trkpt lat="47.21755" lon="6.79838">
        <ele>897</ele>
        <time>2026-08-28T04:43:59Z</time>
      </trkpt>
      <trkpt lat="47.21747" lon="6.79827">
        <ele>897</ele>
        <time>2026-08-28T04:44:01Z</time>
      </trkpt>
      <trkpt lat="47.21714" lon="6.79783">
        <ele>895</ele>
        <time>2026-08-28T04:44:12Z</time>
      </trkpt>
      <trkpt lat="47.21696" lon="6.79765">
        <ele>894</ele>
        <time>2026-08-28T04:44:17Z</time>
      </trkpt>
      <trkpt lat="47.2168" lon="6.79751">
        <ele>894</ele>
        <time>2026-08-28T04:44:21Z</time>
      </trkpt>
      <trkpt lat="47.21624" lon="6.79709">
        <ele>892</ele>
        <time>2026-08-28T04:44:36Z</time>
      </trkpt>
      <trkpt lat="47.21602" lon="6.79693">
        <ele>891</ele>
        <time>2026-08-28T04:44:41Z</time>
      </trkpt>
      <trkpt lat="47.21596" lon="6.79686">
        <ele>891</ele>
        <time>2026-08-28T04:44:43Z</time>
      </trkpt>
      <trkpt lat="47.21583" lon="6.7967">
        <ele>890</ele>
        <time>2026-08-28T04:44:47Z</time>
      </trkpt>
      <trkpt lat="47.21532" lon="6.79607">
        <ele>886</ele>
        <time>2026-08-28T04:45:03Z</time>
      </trkpt>
      <trkpt lat="47.21519" lon="6.79592">
        <ele>886</ele>
        <time>2026-08-28T04:45:07Z</time>
      </trkpt>
      <trkpt lat="47.21496" lon="6.79566">
        <ele>884</ele>
        <time>2026-08-28T04:45:13Z</time>
      </trkpt>
      <trkpt lat="47.21447" lon="6.79511">
        <ele>879</ele>
        <time>2026-08-28T04:45:28Z</time>
      </trkpt>
      <trkpt lat="47.21431" lon="6.79498">
        <ele>878</ele>
        <time>2026-08-28T04:45:32Z</time>
      </trkpt>
      <trkpt lat="47.21424" lon="6.79494">
        <ele>878</ele>
        <time>2026-08-28T04:45:34Z</time>
      </trkpt>
      <trkpt lat="47.21416" lon="6.79488">
        <ele>878</ele>
        <time>2026-08-28T04:45:36Z</time>
      </trkpt>
      <trkpt lat="47.2139" lon="6.79478">
        <ele>877</ele>
        <time>2026-08-28T04:45:42Z</time>
      </trkpt>
      <trkpt lat="47.21376" lon="6.79477">
        <ele>876</ele>
        <time>2026-08-28T04:45:45Z</time>
      </trkpt>
      <trkpt lat="47.21364" lon="6.7947">
        <ele>876</ele>
        <time>2026-08-28T04:45:48Z</time>
      </trkpt>
      <trkpt lat="47.21362" lon="6.79465">
        <ele>876</ele>
        <time>2026-08-28T04:45:49Z</time>
      </trkpt>
      <trkpt lat="47.21359" lon="6.79462">
        <ele>875</ele>
        <time>2026-08-28T04:45:50Z</time>
      </trkpt>
      <trkpt lat="47.21356" lon="6.7946">
        <ele>875</ele>
        <time>2026-08-28T04:45:51Z</time>
      </trkpt>
      <trkpt lat="47.21352" lon="6.7946">
        <ele>875</ele>
        <time>2026-08-28T04:45:52Z</time>
      </trkpt>
      <trkpt lat="47.21348" lon="6.79462">
        <ele>875</ele>
        <time>2026-08-28T04:45:53Z</time>
      </trkpt>
      <trkpt lat="47.21346" lon="6.79466">
        <ele>875</ele>
        <time>2026-08-28T04:45:54Z</time>
      </trkpt>
      <trkpt lat="47.21333" lon="6.79472">
        <ele>875</ele>
        <time>2026-08-28T04:45:57Z</time>
      </trkpt>
      <trkpt lat="47.21332" lon="6.79427">
        <ele>874</ele>
        <time>2026-08-28T04:46:04Z</time>
      </trkpt>
      <trkpt lat="47.2133" lon="6.79394">
        <ele>875</ele>
        <time>2026-08-28T04:46:09Z</time>
      </trkpt>
      <trkpt lat="47.21319" lon="6.79332">
        <ele>877</ele>
        <time>2026-08-28T04:46:19Z</time>
      </trkpt>
      <trkpt lat="47.21311" lon="6.79288">
        <ele>877</ele>
        <time>2026-08-28T04:46:27Z</time>
      </trkpt>
      <trkpt lat="47.21301" lon="6.79237">
        <ele>877</ele>
        <time>2026-08-28T04:46:35Z</time>
      </trkpt>
      <trkpt lat="47.21295" lon="6.79222">
        <ele>876</ele>
        <time>2026-08-28T04:46:38Z</time>
      </trkpt>
      <trkpt lat="47.21267" lon="6.79178">
        <ele>876</ele>
        <time>2026-08-28T04:46:47Z</time>
      </trkpt>
      <trkpt lat="47.21202" lon="6.79089">
        <ele>873</ele>
        <time>2026-08-28T04:47:08Z</time>
      </trkpt>
      <trkpt lat="47.21162" lon="6.7903">
        <ele>871</ele>
        <time>2026-08-28T04:47:21Z</time>
      </trkpt>
      <trkpt lat="47.21084" lon="6.78906">
        <ele>870</ele>
        <time>2026-08-28T04:47:48Z</time>
      </trkpt>
      <trkpt lat="47.21068" lon="6.78872">
        <ele>868</ele>
        <time>2026-08-28T04:47:55Z</time>
      </trkpt>
      <trkpt lat="47.21045" lon="6.78779">
        <ele>864</ele>
        <time>2026-08-28T04:48:10Z</time>
      </trkpt>
      <trkpt lat="47.21033" lon="6.78727">
        <ele>862</ele>
        <time>2026-08-28T04:48:19Z</time>
      </trkpt>
      <trkpt lat="47.21027" lon="6.78705">
        <ele>861</ele>
        <time>2026-08-28T04:48:23Z</time>
      </trkpt>
      <trkpt lat="47.21014" lon="6.78655">
        <ele>860</ele>
        <time>2026-08-28T04:48:31Z</time>
      </trkpt>
      <trkpt lat="47.21006" lon="6.78622">
        <ele>860</ele>
        <time>2026-08-28T04:48:37Z</time>
      </trkpt>
      <trkpt lat="47.21004" lon="6.78612">
        <ele>861</ele>
        <time>2026-08-28T04:48:39Z</time>
      </trkpt>
      <trkpt lat="47.21003" lon="6.78591">
        <ele>861</ele>
        <time>2026-08-28T04:48:42Z</time>
      </trkpt>
      <trkpt lat="47.21004" lon="6.78582">
        <ele>861</ele>
        <time>2026-08-28T04:48:43Z</time>
      </trkpt>
      <trkpt lat="47.21002" lon="6.78575">
        <ele>861</ele>
        <time>2026-08-28T04:48:45Z</time>
      </trkpt>
      <trkpt lat="47.21002" lon="6.78565">
        <ele>862</ele>
        <time>2026-08-28T04:48:46Z</time>
      </trkpt>
      <trkpt lat="47.21005" lon="6.78448">
        <ele>868</ele>
        <time>2026-08-28T04:49:05Z</time>
      </trkpt>
      <trkpt lat="47.20998" lon="6.78397">
        <ele>871</ele>
        <time>2026-08-28T04:49:13Z</time>
      </trkpt>
      <trkpt lat="47.20988" lon="6.78387">
        <ele>872</ele>
        <time>2026-08-28T04:49:16Z</time>
      </trkpt>
      <trkpt lat="47.20933" lon="6.78352">
        <ele>872</ele>
        <time>2026-08-28T04:49:30Z</time>
      </trkpt>
      <trkpt lat="47.20893" lon="6.78324">
        <ele>873</ele>
        <time>2026-08-28T04:49:40Z</time>
      </trkpt>
      <trkpt lat="47.20862" lon="6.783">
        <ele>873</ele>
        <time>2026-08-28T04:49:48Z</time>
      </trkpt>
      <trkpt lat="47.20815" lon="6.78182">
        <ele>881</ele>
        <time>2026-08-28T04:50:10Z</time>
      </trkpt>
      <trkpt lat="47.20788" lon="6.7815">
        <ele>881</ele>
        <time>2026-08-28T04:50:18Z</time>
      </trkpt>
      <trkpt lat="47.20769" lon="6.78125">
        <ele>881</ele>
        <time>2026-08-28T04:50:24Z</time>
      </trkpt>
      <trkpt lat="47.20746" lon="6.78087">
        <ele>879</ele>
        <time>2026-08-28T04:50:32Z</time>
      </trkpt>
      <trkpt lat="47.20695" lon="6.78011">
        <ele>880</ele>
        <time>2026-08-28T04:50:49Z</time>
      </trkpt>
      <trkpt lat="47.20675" lon="6.77922">
        <ele>881</ele>
        <time>2026-08-28T04:51:04Z</time>
      </trkpt>
      <trkpt lat="47.20658" lon="6.77872">
        <ele>883</ele>
        <time>2026-08-28T04:51:13Z</time>
      </trkpt>
      <trkpt lat="47.20637" lon="6.7783">
        <ele>885</ele>
        <time>2026-08-28T04:51:21Z</time>
      </trkpt>
      <trkpt lat="47.20613" lon="6.77788">
        <ele>885</ele>
        <time>2026-08-28T04:51:30Z</time>
      </trkpt>
      <trkpt lat="47.20609" lon="6.77772">
        <ele>885</ele>
        <time>2026-08-28T04:51:32Z</time>
      </trkpt>
      <trkpt lat="47.20615" lon="6.77753">
        <ele>884</ele>
        <time>2026-08-28T04:51:36Z</time>
      </trkpt>
      <trkpt lat="47.20638" lon="6.7772">
        <ele>882</ele>
        <time>2026-08-28T04:51:43Z</time>
      </trkpt>
      <trkpt lat="47.20605" lon="6.77711">
        <ele>883</ele>
        <time>2026-08-28T04:51:51Z</time>
      </trkpt>
      <trkpt lat="47.20592" lon="6.77701">
        <ele>883</ele>
        <time>2026-08-28T04:51:55Z</time>
      </trkpt>
      <trkpt lat="47.20553" lon="6.77664">
        <ele>886</ele>
        <time>2026-08-28T04:52:05Z</time>
      </trkpt>
      <trkpt lat="47.20533" lon="6.77654">
        <ele>888</ele>
        <time>2026-08-28T04:52:10Z</time>
      </trkpt>
      <trkpt lat="47.20517" lon="6.77651">
        <ele>890</ele>
        <time>2026-08-28T04:52:14Z</time>
      </trkpt>
      <trkpt lat="47.20459" lon="6.77655">
        <ele>895</ele>
        <time>2026-08-28T04:52:28Z</time>
      </trkpt>
      <trkpt lat="47.2042" lon="6.77657">
        <ele>897</ele>
        <time>2026-08-28T04:52:37Z</time>
      </trkpt>
      <trkpt lat="47.2042" lon="6.77656">
        <ele>897</ele>
        <time>2026-08-28T04:52:37Z</time>
      </trkpt>
      <trkpt lat="47.20413" lon="6.77639">
        <ele>897</ele>
        <time>2026-08-28T04:52:40Z</time>
      </trkpt>
      <trkpt lat="47.20409" lon="6.77624">
        <ele>898</ele>
        <time>2026-08-28T04:52:43Z</time>
      </trkpt>
      <trkpt lat="47.20399" lon="6.77616">
        <ele>898</ele>
        <time>2026-08-28T04:52:45Z</time>
      </trkpt>
      <trkpt lat="47.20397" lon="6.77612">
        <ele>898</ele>
        <time>2026-08-28T04:52:46Z</time>
      </trkpt>
      <trkpt lat="47.20391" lon="6.77531">
        <ele>896</ele>
        <time>2026-08-28T04:52:59Z</time>
      </trkpt>
      <trkpt lat="47.20377" lon="6.77461">
        <ele>894</ele>
        <time>2026-08-28T04:53:11Z</time>
      </trkpt>
      <trkpt lat="47.20362" lon="6.77444">
        <ele>895</ele>
        <time>2026-08-28T04:53:15Z</time>
      </trkpt>
      <trkpt lat="47.20345" lon="6.77411">
        <ele>894</ele>
        <time>2026-08-28T04:53:22Z</time>
      </trkpt>
      <trkpt lat="47.2034" lon="6.77375">
        <ele>894</ele>
        <time>2026-08-28T04:53:27Z</time>
      </trkpt>
      <trkpt lat="47.2034" lon="6.77343">
        <ele>893</ele>
        <time>2026-08-28T04:53:32Z</time>
      </trkpt>
      <trkpt lat="47.20339" lon="6.77308">
        <ele>892</ele>
        <time>2026-08-28T04:53:38Z</time>
      </trkpt>
      <trkpt lat="47.20328" lon="6.77289">
        <ele>892</ele>
        <time>2026-08-28T04:53:42Z</time>
      </trkpt>
      <trkpt lat="47.20275" lon="6.7721">
        <ele>890</ele>
        <time>2026-08-28T04:54:00Z</time>
      </trkpt>
      <trkpt lat="47.20248" lon="6.77156">
        <ele>888</ele>
        <time>2026-08-28T04:54:10Z</time>
      </trkpt>
      <trkpt lat="47.20215" lon="6.77064">
        <ele>889</ele>
        <time>2026-08-28T04:54:27Z</time>
      </trkpt>
      <trkpt lat="47.20196" lon="6.77037">
        <ele>889</ele>
        <time>2026-08-28T04:54:33Z</time>
      </trkpt>
      <trkpt lat="47.20182" lon="6.77021">
        <ele>890</ele>
        <time>2026-08-28T04:54:37Z</time>
      </trkpt>
      <trkpt lat="47.20125" lon="6.76971">
        <ele>889</ele>
        <time>2026-08-28T04:54:53Z</time>
      </trkpt>
      <trkpt lat="47.20052" lon="6.76892">
        <ele>890</ele>
        <time>2026-08-28T04:55:14Z</time>
      </trkpt>
      <trkpt lat="47.20026" lon="6.76818">
        <ele>892</ele>
        <time>2026-08-28T04:55:27Z</time>
      </trkpt>
      <trkpt lat="47.20016" lon="6.76775">
        <ele>894</ele>
        <time>2026-08-28T04:55:34Z</time>
      </trkpt>
      <trkpt lat="47.19998" lon="6.7674">
        <ele>896</ele>
        <time>2026-08-28T04:55:41Z</time>
      </trkpt>
      <trkpt lat="47.19945" lon="6.76706">
        <ele>900</ele>
        <time>2026-08-28T04:55:55Z</time>
      </trkpt>
      <trkpt lat="47.19916" lon="6.7669">
        <ele>902</ele>
        <time>2026-08-28T04:56:02Z</time>
      </trkpt>
      <trkpt lat="47.19857" lon="6.76688">
        <ele>904</ele>
        <time>2026-08-28T04:56:16Z</time>
      </trkpt>
      <trkpt lat="47.19846" lon="6.76656">
        <ele>906</ele>
        <time>2026-08-28T04:56:21Z</time>
      </trkpt>
      <trkpt lat="47.19836" lon="6.76631">
        <ele>907</ele>
        <time>2026-08-28T04:56:26Z</time>
      </trkpt>
      <trkpt lat="47.19825" lon="6.76598">
        <ele>908</ele>
        <time>2026-08-28T04:56:32Z</time>
      </trkpt>
      <trkpt lat="47.19818" lon="6.76571">
        <ele>908</ele>
        <time>2026-08-28T04:56:36Z</time>
      </trkpt>
      <trkpt lat="47.19805" lon="6.76539">
        <ele>908</ele>
        <time>2026-08-28T04:56:42Z</time>
      </trkpt>
      <trkpt lat="47.19799" lon="6.76506">
        <ele>908</ele>
        <time>2026-08-28T04:56:48Z</time>
      </trkpt>
      <trkpt lat="47.1979" lon="6.76484">
        <ele>908</ele>
        <time>2026-08-28T04:56:52Z</time>
      </trkpt>
      <trkpt lat="47.19781" lon="6.76451">
        <ele>910</ele>
        <time>2026-08-28T04:56:57Z</time>
      </trkpt>
      <trkpt lat="47.19787" lon="6.76447">
        <ele>910</ele>
        <time>2026-08-28T04:56:59Z</time>
      </trkpt>
      <trkpt lat="47.19818" lon="6.76401">
        <ele>913</ele>
        <time>2026-08-28T04:57:09Z</time>
      </trkpt>
      <trkpt lat="47.19866" lon="6.76349">
        <ele>911</ele>
        <time>2026-08-28T04:57:23Z</time>
      </trkpt>
      <trkpt lat="47.19879" lon="6.76332">
        <ele>908</ele>
        <time>2026-08-28T04:57:27Z</time>
      </trkpt>
      <trkpt lat="47.19892" lon="6.76296">
        <ele>905</ele>
        <time>2026-08-28T04:57:34Z</time>
      </trkpt>
      <trkpt lat="47.19893" lon="6.76262">
        <ele>904</ele>
        <time>2026-08-28T04:57:39Z</time>
      </trkpt>
      <trkpt lat="47.1989" lon="6.76228">
        <ele>904</ele>
        <time>2026-08-28T04:57:45Z</time>
      </trkpt>
      <trkpt lat="47.19885" lon="6.76203">
        <ele>904</ele>
        <time>2026-08-28T04:57:49Z</time>
      </trkpt>
      <trkpt lat="47.19876" lon="6.76164">
        <ele>905</ele>
        <time>2026-08-28T04:57:55Z</time>
      </trkpt>
      <trkpt lat="47.19868" lon="6.76127">
        <ele>904</ele>
        <time>2026-08-28T04:58:01Z</time>
      </trkpt>
      <trkpt lat="47.19859" lon="6.76096">
        <ele>903</ele>
        <time>2026-08-28T04:58:07Z</time>
      </trkpt>
      <trkpt lat="47.19841" lon="6.76042">
        <ele>900</ele>
        <time>2026-08-28T04:58:16Z</time>
      </trkpt>
      <trkpt lat="47.19814" lon="6.75969">
        <ele>896</ele>
        <time>2026-08-28T04:58:29Z</time>
      </trkpt>
      <trkpt lat="47.1981" lon="6.75947">
        <ele>895</ele>
        <time>2026-08-28T04:58:33Z</time>
      </trkpt>
      <trkpt lat="47.19779" lon="6.75852">
        <ele>891</ele>
        <time>2026-08-28T04:58:50Z</time>
      </trkpt>
      <trkpt lat="47.19761" lon="6.75833">
        <ele>892</ele>
        <time>2026-08-28T04:58:55Z</time>
      </trkpt>
      <trkpt lat="47.19727" lon="6.75805">
        <ele>893</ele>
        <time>2026-08-28T04:59:04Z</time>
      </trkpt>
      <trkpt lat="47.19707" lon="6.75772">
        <ele>892</ele>
        <time>2026-08-28T04:59:11Z</time>
      </trkpt>
      <trkpt lat="47.19691" lon="6.75726">
        <ele>892</ele>
        <time>2026-08-28T04:59:19Z</time>
      </trkpt>
      <trkpt lat="47.19673" lon="6.75662">
        <ele>892</ele>
        <time>2026-08-28T04:59:30Z</time>
      </trkpt>
      <trkpt lat="47.19664" lon="6.75631">
        <ele>892</ele>
        <time>2026-08-28T04:59:36Z</time>
      </trkpt>
      <trkpt lat="47.19644" lon="6.75576">
        <ele>891</ele>
        <time>2026-08-28T04:59:45Z</time>
      </trkpt>
      <trkpt lat="47.19599" lon="6.75476">
        <ele>883</ele>
        <time>2026-08-28T05:00:05Z</time>
      </trkpt>
      <trkpt lat="47.19589" lon="6.75447">
        <ele>882</ele>
        <time>2026-08-28T05:00:10Z</time>
      </trkpt>
      <trkpt lat="47.19525" lon="6.75271">
        <ele>875</ele>
        <time>2026-08-28T05:00:41Z</time>
      </trkpt>
      <trkpt lat="47.19489" lon="6.75168">
        <ele>873</ele>
        <time>2026-08-28T05:01:00Z</time>
      </trkpt>
      <trkpt lat="47.19467" lon="6.75095">
        <ele>871</ele>
        <time>2026-08-28T05:01:12Z</time>
      </trkpt>
      <trkpt lat="47.19452" lon="6.75052">
        <ele>870</ele>
        <time>2026-08-28T05:01:20Z</time>
      </trkpt>
      <trkpt lat="47.19416" lon="6.74947">
        <ele>870</ele>
        <time>2026-08-28T05:01:39Z</time>
      </trkpt>
      <trkpt lat="47.19404" lon="6.74914">
        <ele>871</ele>
        <time>2026-08-28T05:01:45Z</time>
      </trkpt>
      <trkpt lat="47.19402" lon="6.74906">
        <ele>870</ele>
        <time>2026-08-28T05:01:46Z</time>
      </trkpt>
      <trkpt lat="47.19397" lon="6.74897">
        <ele>870</ele>
        <time>2026-08-28T05:01:48Z</time>
      </trkpt>
      <trkpt lat="47.1939" lon="6.74912">
        <ele>871</ele>
        <time>2026-08-28T05:01:51Z</time>
      </trkpt>
      <trkpt lat="47.19384" lon="6.74923">
        <ele>872</ele>
        <time>2026-08-28T05:01:53Z</time>
      </trkpt>
      <trkpt lat="47.1938" lon="6.74918">
        <ele>872</ele>
        <time>2026-08-28T05:01:54Z</time>
      </trkpt>
      <trkpt lat="47.1938" lon="6.74918">
        <ele>872</ele>
        <time>2026-08-28T05:01:54Z</time>
      </trkpt>
      <trkpt lat="47.19338" lon="6.74875">
        <ele>872</ele>
        <time>2026-08-28T05:02:06Z</time>
      </trkpt>
      <trkpt lat="47.19328" lon="6.74887">
        <ele>874</ele>
        <time>2026-08-28T05:02:09Z</time>
      </trkpt>
      <trkpt lat="47.19306" lon="6.7494">
        <ele>877</ele>
        <time>2026-08-28T05:02:19Z</time>
      </trkpt>
      <trkpt lat="47.19292" lon="6.74953">
        <ele>879</ele>
        <time>2026-08-28T05:02:23Z</time>
      </trkpt>
      <trkpt lat="47.19272" lon="6.74983">
        <ele>881</ele>
        <time>2026-08-28T05:02:30Z</time>
      </trkpt>
      <trkpt lat="47.19257" lon="6.75001">
        <ele>882</ele>
        <time>2026-08-28T05:02:34Z</time>
      </trkpt>
      <trkpt lat="47.19236" lon="6.75024">
        <ele>886</ele>
        <time>2026-08-28T05:02:40Z</time>
      </trkpt>
      <trkpt lat="47.19223" lon="6.75031">
        <ele>888</ele>
        <time>2026-08-28T05:02:43Z</time>
      </trkpt>
      <trkpt lat="47.19208" lon="6.75032">
        <ele>891</ele>
        <time>2026-08-28T05:02:47Z</time>
      </trkpt>
      <trkpt lat="47.19188" lon="6.75039">
        <ele>894</ele>
        <time>2026-08-28T05:02:52Z</time>
      </trkpt>
      <trkpt lat="47.19177" lon="6.75035">
        <ele>896</ele>
        <time>2026-08-28T05:02:54Z</time>
      </trkpt>
      <trkpt lat="47.19154" lon="6.74954">
        <ele>900</ele>
        <time>2026-08-28T05:03:08Z</time>
      </trkpt>
      <trkpt lat="47.19092" lon="6.74835">
        <ele>905</ele>
        <time>2026-08-28T05:03:32Z</time>
      </trkpt>
      <trkpt lat="47.19067" lon="6.7478">
        <ele>902</ele>
        <time>2026-08-28T05:03:43Z</time>
      </trkpt>
      <trkpt lat="47.19048" lon="6.74707">
        <ele>898</ele>
        <time>2026-08-28T05:03:55Z</time>
      </trkpt>
      <trkpt lat="47.19021" lon="6.74589">
        <ele>898</ele>
        <time>2026-08-28T05:04:15Z</time>
      </trkpt>
      <trkpt lat="47.19013" lon="6.74543">
        <ele>899</ele>
        <time>2026-08-28T05:04:22Z</time>
      </trkpt>
      <trkpt lat="47.1901" lon="6.74502">
        <ele>901</ele>
        <time>2026-08-28T05:04:29Z</time>
      </trkpt>
      <trkpt lat="47.19009" lon="6.74468">
        <ele>899</ele>
        <time>2026-08-28T05:04:34Z</time>
      </trkpt>
      <trkpt lat="47.19007" lon="6.74457">
        <ele>898</ele>
        <time>2026-08-28T05:04:36Z</time>
      </trkpt>
      <trkpt lat="47.19006" lon="6.74454">
        <ele>898</ele>
        <time>2026-08-28T05:04:37Z</time>
      </trkpt>
      <trkpt lat="47.18993" lon="6.74471">
        <ele>899</ele>
        <time>2026-08-28T05:04:41Z</time>
      </trkpt>
      <trkpt lat="47.18962" lon="6.74521">
        <ele>898</ele>
        <time>2026-08-28T05:04:51Z</time>
      </trkpt>
      <trkpt lat="47.18936" lon="6.74572">
        <ele>894</ele>
        <time>2026-08-28T05:05:02Z</time>
      </trkpt>
      <trkpt lat="47.18892" lon="6.74698">
        <ele>889</ele>
        <time>2026-08-28T05:05:24Z</time>
      </trkpt>
      <trkpt lat="47.18883" lon="6.74702">
        <ele>888</ele>
        <time>2026-08-28T05:05:26Z</time>
      </trkpt>
      <trkpt lat="47.18861" lon="6.74713">
        <ele>888</ele>
        <time>2026-08-28T05:05:32Z</time>
      </trkpt>
      <trkpt lat="47.18842" lon="6.74719">
        <ele>887</ele>
        <time>2026-08-28T05:05:36Z</time>
      </trkpt>
      <trkpt lat="47.18809" lon="6.74721">
        <ele>887</ele>
        <time>2026-08-28T05:05:44Z</time>
      </trkpt>
      <trkpt lat="47.18767" lon="6.74717">
        <ele>887</ele>
        <time>2026-08-28T05:05:54Z</time>
      </trkpt>
      <trkpt lat="47.18717" lon="6.74713">
        <ele>888</ele>
        <time>2026-08-28T05:06:05Z</time>
      </trkpt>
      <trkpt lat="47.18643" lon="6.74704">
        <ele>892</ele>
        <time>2026-08-28T05:06:23Z</time>
      </trkpt>
      <trkpt lat="47.18609" lon="6.74708">
        <ele>893</ele>
        <time>2026-08-28T05:06:31Z</time>
      </trkpt>
      <trkpt lat="47.18573" lon="6.74727">
        <ele>894</ele>
        <time>2026-08-28T05:06:40Z</time>
      </trkpt>
      <trkpt lat="47.1855" lon="6.74729">
        <ele>894</ele>
        <time>2026-08-28T05:06:45Z</time>
      </trkpt>
      <trkpt lat="47.18482" lon="6.7473">
        <ele>893</ele>
        <time>2026-08-28T05:07:01Z</time>
      </trkpt>
      <trkpt lat="47.1844" lon="6.74763">
        <ele>894</ele>
        <time>2026-08-28T05:07:12Z</time>
      </trkpt>
      <trkpt lat="47.18415" lon="6.74787">
        <ele>898</ele>
        <time>2026-08-28T05:07:19Z</time>
      </trkpt>
      <trkpt lat="47.18392" lon="6.748">
        <ele>899</ele>
        <time>2026-08-28T05:07:25Z</time>
      </trkpt>
      <trkpt lat="47.18331" lon="6.74804">
        <ele>899</ele>
        <time>2026-08-28T05:07:39Z</time>
      </trkpt>
      <trkpt lat="47.18288" lon="6.74814">
        <ele>902</ele>
        <time>2026-08-28T05:07:49Z</time>
      </trkpt>
      <trkpt lat="47.18216" lon="6.74823">
        <ele>905</ele>
        <time>2026-08-28T05:08:06Z</time>
      </trkpt>
      <trkpt lat="47.1819" lon="6.74836">
        <ele>907</ele>
        <time>2026-08-28T05:08:12Z</time>
      </trkpt>
      <trkpt lat="47.18163" lon="6.74853">
        <ele>908</ele>
        <time>2026-08-28T05:08:19Z</time>
      </trkpt>
      <trkpt lat="47.18142" lon="6.74875">
        <ele>906</ele>
        <time>2026-08-28T05:08:25Z</time>
      </trkpt>
      <trkpt lat="47.18108" lon="6.74934">
        <ele>904</ele>
        <time>2026-08-28T05:08:38Z</time>
      </trkpt>
      <trkpt lat="47.18099" lon="6.74946">
        <ele>904</ele>
        <time>2026-08-28T05:08:40Z</time>
      </trkpt>
      <trkpt lat="47.18079" lon="6.74934">
        <ele>900</ele>
        <time>2026-08-28T05:08:46Z</time>
      </trkpt>
      <trkpt lat="47.1806" lon="6.74917">
        <ele>895</ele>
        <time>2026-08-28T05:08:51Z</time>
      </trkpt>
      <trkpt lat="47.17999" lon="6.75051">
        <ele>894</ele>
        <time>2026-08-28T05:09:16Z</time>
      </trkpt>
      <trkpt lat="47.17976" lon="6.75105">
        <ele>894</ele>
        <time>2026-08-28T05:09:26Z</time>
      </trkpt>
      <trkpt lat="47.17953" lon="6.75166">
        <ele>893</ele>
        <time>2026-08-28T05:09:37Z</time>
      </trkpt>
      <trkpt lat="47.17938" lon="6.75197">
        <ele>893</ele>
        <time>2026-08-28T05:09:44Z</time>
      </trkpt>
      <trkpt lat="47.17918" lon="6.7523">
        <ele>892</ele>
        <time>2026-08-28T05:09:51Z</time>
      </trkpt>
      <trkpt lat="47.17893" lon="6.75267">
        <ele>894</ele>
        <time>2026-08-28T05:09:59Z</time>
      </trkpt>
      <trkpt lat="47.17873" lon="6.75307">
        <ele>897</ele>
        <time>2026-08-28T05:10:07Z</time>
      </trkpt>
      <trkpt lat="47.17825" lon="6.75428">
        <ele>896</ele>
        <time>2026-08-28T05:10:29Z</time>
      </trkpt>
      <trkpt lat="47.17805" lon="6.75472">
        <ele>896</ele>
        <time>2026-08-28T05:10:37Z</time>
      </trkpt>
      <trkpt lat="47.17776" lon="6.75517">
        <ele>895</ele>
        <time>2026-08-28T05:10:47Z</time>
      </trkpt>
      <trkpt lat="47.17748" lon="6.75574">
        <ele>895</ele>
        <time>2026-08-28T05:10:58Z</time>
      </trkpt>
      <trkpt lat="47.17739" lon="6.75603">
        <ele>895</ele>
        <time>2026-08-28T05:11:03Z</time>
      </trkpt>
      <trkpt lat="47.17733" lon="6.75627">
        <ele>895</ele>
        <time>2026-08-28T05:11:07Z</time>
      </trkpt>
      <trkpt lat="47.17727" lon="6.75622">
        <ele>895</ele>
        <time>2026-08-28T05:11:09Z</time>
      </trkpt>
      <trkpt lat="47.17657" lon="6.75565">
        <ele>891</ele>
        <time>2026-08-28T05:11:28Z</time>
      </trkpt>
      <trkpt lat="47.17382" lon="6.75318">
        <ele>887</ele>
        <time>2026-08-28T05:12:43Z</time>
      </trkpt>
      <trkpt lat="47.17343" lon="6.75285">
        <ele>885</ele>
        <time>2026-08-28T05:12:54Z</time>
      </trkpt>
      <trkpt lat="47.17278" lon="6.752">
        <ele>882</ele>
        <time>2026-08-28T05:13:14Z</time>
      </trkpt>
      <trkpt lat="47.17204" lon="6.75094">
        <ele>879</ele>
        <time>2026-08-28T05:13:38Z</time>
      </trkpt>
      <trkpt lat="47.17153" lon="6.75005">
        <ele>878</ele>
        <time>2026-08-28T05:13:56Z</time>
      </trkpt>
      <trkpt lat="47.17096" lon="6.74972">
        <ele>879</ele>
        <time>2026-08-28T05:14:11Z</time>
      </trkpt>
      <trkpt lat="47.17069" lon="6.7496">
        <ele>880</ele>
        <time>2026-08-28T05:14:17Z</time>
      </trkpt>
      <trkpt lat="47.17032" lon="6.74947">
        <ele>881</ele>
        <time>2026-08-28T05:14:26Z</time>
      </trkpt>
      <trkpt lat="47.16996" lon="6.74952">
        <ele>882</ele>
        <time>2026-08-28T05:14:35Z</time>
      </trkpt>
      <trkpt lat="47.16959" lon="6.74953">
        <ele>882</ele>
        <time>2026-08-28T05:14:43Z</time>
      </trkpt>
      <trkpt lat="47.16912" lon="6.74936">
        <ele>884</ele>
        <time>2026-08-28T05:14:55Z</time>
      </trkpt>
      <trkpt lat="47.16863" lon="6.74908">
        <ele>883</ele>
        <time>2026-08-28T05:15:07Z</time>
      </trkpt>
      <trkpt lat="47.16812" lon="6.74858">
        <ele>884</ele>
        <time>2026-08-28T05:15:21Z</time>
      </trkpt>
      <trkpt lat="47.16782" lon="6.7483">
        <ele>884</ele>
        <time>2026-08-28T05:15:29Z</time>
      </trkpt>
      <trkpt lat="47.16759" lon="6.74804">
        <ele>884</ele>
        <time>2026-08-28T05:15:36Z</time>
      </trkpt>
      <trkpt lat="47.16751" lon="6.74794">
        <ele>884</ele>
        <time>2026-08-28T05:15:39Z</time>
      </trkpt>
      <trkpt lat="47.1675" lon="6.74793">
        <ele>883</ele>
        <time>2026-08-28T05:15:39Z</time>
      </trkpt>
      <trkpt lat="47.16746" lon="6.74792">
        <ele>883</ele>
        <time>2026-08-28T05:15:40Z</time>
      </trkpt>
      <trkpt lat="47.16746" lon="6.74815">
        <ele>883</ele>
        <time>2026-08-28T05:15:44Z</time>
      </trkpt>
      <trkpt lat="47.16744" lon="6.7484">
        <ele>883</ele>
        <time>2026-08-28T05:15:48Z</time>
      </trkpt>
      <trkpt lat="47.16734" lon="6.74898">
        <ele>882</ele>
        <time>2026-08-28T05:15:57Z</time>
      </trkpt>
      <trkpt lat="47.16717" lon="6.74904">
        <ele>882</ele>
        <time>2026-08-28T05:16:01Z</time>
      </trkpt>
      <trkpt lat="47.16705" lon="6.74905">
        <ele>882</ele>
        <time>2026-08-28T05:16:04Z</time>
      </trkpt>
      <trkpt lat="47.16702" lon="6.7491">
        <ele>882</ele>
        <time>2026-08-28T05:16:05Z</time>
      </trkpt>
      <trkpt lat="47.167" lon="6.74922">
        <ele>882</ele>
        <time>2026-08-28T05:16:07Z</time>
      </trkpt>
      <trkpt lat="47.16699" lon="6.74937">
        <ele>882</ele>
        <time>2026-08-28T05:16:09Z</time>
      </trkpt>
      <trkpt lat="47.16706" lon="6.74946">
        <ele>881</ele>
        <time>2026-08-28T05:16:12Z</time>
      </trkpt>
      <trkpt lat="47.16707" lon="6.74955">
        <ele>881</ele>
        <time>2026-08-28T05:16:13Z</time>
      </trkpt>
      <trkpt lat="47.16697" lon="6.7502">
        <ele>879</ele>
        <time>2026-08-28T05:16:24Z</time>
      </trkpt>
      <trkpt lat="47.16697" lon="6.75049">
        <ele>879</ele>
        <time>2026-08-28T05:16:28Z</time>
      </trkpt>
      <trkpt lat="47.16695" lon="6.75077">
        <ele>878</ele>
        <time>2026-08-28T05:16:33Z</time>
      </trkpt>
      <trkpt lat="47.16698" lon="6.75088">
        <ele>878</ele>
        <time>2026-08-28T05:16:35Z</time>
      </trkpt>
      <trkpt lat="47.16698" lon="6.75103">
        <ele>878</ele>
        <time>2026-08-28T05:16:37Z</time>
      </trkpt>
      <trkpt lat="47.16697" lon="6.75162">
        <ele>876</ele>
        <time>2026-08-28T05:16:46Z</time>
      </trkpt>
      <trkpt lat="47.16703" lon="6.75257">
        <ele>874</ele>
        <time>2026-08-28T05:17:01Z</time>
      </trkpt>
      <trkpt lat="47.16709" lon="6.753">
        <ele>874</ele>
        <time>2026-08-28T05:17:08Z</time>
      </trkpt>
      <trkpt lat="47.16702" lon="6.75313">
        <ele>874</ele>
        <time>2026-08-28T05:17:11Z</time>
      </trkpt>
      <trkpt lat="47.16698" lon="6.75325">
        <ele>874</ele>
        <time>2026-08-28T05:17:13Z</time>
      </trkpt>
      <trkpt lat="47.1671" lon="6.75351">
        <ele>874</ele>
        <time>2026-08-28T05:17:18Z</time>
      </trkpt>
      <trkpt lat="47.16724" lon="6.7538">
        <ele>874</ele>
        <time>2026-08-28T05:17:24Z</time>
      </trkpt>
      <trkpt lat="47.16724" lon="6.754">
        <ele>874</ele>
        <time>2026-08-28T05:17:27Z</time>
      </trkpt>
      <trkpt lat="47.16864" lon="6.7561">
        <ele>880</ele>
        <time>2026-08-28T05:18:14Z</time>
      </trkpt>
      <trkpt lat="47.16867" lon="6.75614">
        <ele>880</ele>
        <time>2026-08-28T05:18:15Z</time>
      </trkpt>
      <trkpt lat="47.16849" lon="6.75654">
        <ele>880</ele>
        <time>2026-08-28T05:18:22Z</time>
      </trkpt>
      <trkpt lat="47.16826" lon="6.75695">
        <ele>880</ele>
        <time>2026-08-28T05:18:31Z</time>
      </trkpt>
      <trkpt lat="47.16756" lon="6.7577">
        <ele>882</ele>
        <time>2026-08-28T05:18:51Z</time>
      </trkpt>
      <trkpt lat="47.16719" lon="6.75825">
        <ele>884</ele>
        <time>2026-08-28T05:19:03Z</time>
      </trkpt>
      <trkpt lat="47.16686" lon="6.75863">
        <ele>882</ele>
        <time>2026-08-28T05:19:13Z</time>
      </trkpt>
      <trkpt lat="47.16644" lon="6.75907">
        <ele>879</ele>
        <time>2026-08-28T05:19:25Z</time>
      </trkpt>
      <trkpt lat="47.1663" lon="6.75947">
        <ele>879</ele>
        <time>2026-08-28T05:19:32Z</time>
      </trkpt>
      <trkpt lat="47.16629" lon="6.76001">
        <ele>879</ele>
        <time>2026-08-28T05:19:41Z</time>
      </trkpt>
      <trkpt lat="47.16619" lon="6.76051">
        <ele>878</ele>
        <time>2026-08-28T05:19:49Z</time>
      </trkpt>
      <trkpt lat="47.16604" lon="6.76099">
        <ele>878</ele>
        <time>2026-08-28T05:19:57Z</time>
      </trkpt>
      <trkpt lat="47.16581" lon="6.76134">
        <ele>880</ele>
        <time>2026-08-28T05:20:05Z</time>
      </trkpt>
      <trkpt lat="47.16554" lon="6.76159">
        <ele>886</ele>
        <time>2026-08-28T05:20:13Z</time>
      </trkpt>
      <trkpt lat="47.1652" lon="6.7619">
        <ele>891</ele>
        <time>2026-08-28T05:20:22Z</time>
      </trkpt>
      <trkpt lat="47.16476" lon="6.76232">
        <ele>892</ele>
        <time>2026-08-28T05:20:34Z</time>
      </trkpt>
      <trkpt lat="47.16395" lon="6.7632">
        <ele>891</ele>
        <time>2026-08-28T05:20:58Z</time>
      </trkpt>
      <trkpt lat="47.16362" lon="6.76394">
        <ele>891</ele>
        <time>2026-08-28T05:21:12Z</time>
      </trkpt>
      <trkpt lat="47.16361" lon="6.76393">
        <ele>891</ele>
        <time>2026-08-28T05:21:12Z</time>
      </trkpt>
      <trkpt lat="47.16322" lon="6.76371">
        <ele>891</ele>
        <time>2026-08-28T05:21:22Z</time>
      </trkpt>
      <trkpt lat="47.16269" lon="6.76357">
        <ele>893</ele>
        <time>2026-08-28T05:21:34Z</time>
      </trkpt>
      <trkpt lat="47.16226" lon="6.76351">
        <ele>894</ele>
        <time>2026-08-28T05:21:44Z</time>
      </trkpt>
      <trkpt lat="47.16194" lon="6.76337">
        <ele>894</ele>
        <time>2026-08-28T05:21:52Z</time>
      </trkpt>
      <trkpt lat="47.16174" lon="6.76329">
        <ele>895</ele>
        <time>2026-08-28T05:21:57Z</time>
      </trkpt>
      <trkpt lat="47.16134" lon="6.76303">
        <ele>895</ele>
        <time>2026-08-28T05:22:07Z</time>
      </trkpt>
      <trkpt lat="47.161" lon="6.76216">
        <ele>892</ele>
        <time>2026-08-28T05:22:23Z</time>
      </trkpt>
      <trkpt lat="47.16093" lon="6.76199">
        <ele>891</ele>
        <time>2026-08-28T05:22:26Z</time>
      </trkpt>
      <trkpt lat="47.16073" lon="6.76148">
        <ele>889</ele>
        <time>2026-08-28T05:22:36Z</time>
      </trkpt>
      <trkpt lat="47.16053" lon="6.76163">
        <ele>892</ele>
        <time>2026-08-28T05:22:41Z</time>
      </trkpt>
      <trkpt lat="47.16035" lon="6.7616">
        <ele>893</ele>
        <time>2026-08-28T05:22:45Z</time>
      </trkpt>
      <trkpt lat="47.15949" lon="6.76082">
        <ele>901</ele>
        <time>2026-08-28T05:23:09Z</time>
      </trkpt>
      <trkpt lat="47.15899" lon="6.76038">
        <ele>905</ele>
        <time>2026-08-28T05:23:22Z</time>
      </trkpt>
      <trkpt lat="47.1587" lon="6.76035">
        <ele>908</ele>
        <time>2026-08-28T05:23:29Z</time>
      </trkpt>
      <trkpt lat="47.15827" lon="6.76036">
        <ele>911</ele>
        <time>2026-08-28T05:23:39Z</time>
      </trkpt>
      <trkpt lat="47.15814" lon="6.76054">
        <ele>911</ele>
        <time>2026-08-28T05:23:43Z</time>
      </trkpt>
      <trkpt lat="47.158" lon="6.76049">
        <ele>911</ele>
        <time>2026-08-28T05:23:47Z</time>
      </trkpt>
      <trkpt lat="47.15786" lon="6.7603">
        <ele>911</ele>
        <time>2026-08-28T05:23:51Z</time>
      </trkpt>
      <trkpt lat="47.15777" lon="6.76005">
        <ele>911</ele>
        <time>2026-08-28T05:23:56Z</time>
      </trkpt>
      <trkpt lat="47.15774" lon="6.75982">
        <ele>911</ele>
        <time>2026-08-28T05:23:59Z</time>
      </trkpt>
      <trkpt lat="47.15743" lon="6.75962">
        <ele>911</ele>
        <time>2026-08-28T05:24:07Z</time>
      </trkpt>
      <trkpt lat="47.15744" lon="6.7596">
        <ele>911</ele>
        <time>2026-08-28T05:24:08Z</time>
      </trkpt>
      <trkpt lat="47.15743" lon="6.75962">
        <ele>911</ele>
        <time>2026-08-28T05:24:08Z</time>
      </trkpt>
      <trkpt lat="47.15725" lon="6.76081">
        <ele>912</ele>
        <time>2026-08-28T05:24:27Z</time>
      </trkpt>
      <trkpt lat="47.15721" lon="6.76107">
        <ele>911</ele>
        <time>2026-08-28T05:24:32Z</time>
      </trkpt>
      <trkpt lat="47.15693" lon="6.76318">
        <ele>913</ele>
        <time>2026-08-28T05:25:06Z</time>
      </trkpt>
      <trkpt lat="47.15671" lon="6.76546">
        <ele>921</ele>
        <time>2026-08-28T05:25:42Z</time>
      </trkpt>
      <trkpt lat="47.15674" lon="6.76654">
        <ele>921</ele>
        <time>2026-08-28T05:26:00Z</time>
      </trkpt>
      <trkpt lat="47.15674" lon="6.76682">
        <ele>921</ele>
        <time>2026-08-28T05:26:04Z</time>
      </trkpt>
      <trkpt lat="47.15671" lon="6.76694">
        <ele>922</ele>
        <time>2026-08-28T05:26:06Z</time>
      </trkpt>
      <trkpt lat="47.15666" lon="6.76703">
        <ele>923</ele>
        <time>2026-08-28T05:26:08Z</time>
      </trkpt>
      <trkpt lat="47.1568" lon="6.76812">
        <ele>928</ele>
        <time>2026-08-28T05:26:26Z</time>
      </trkpt>
      <trkpt lat="47.1568" lon="6.76848">
        <ele>931</ele>
        <time>2026-08-28T05:26:31Z</time>
      </trkpt>
      <trkpt lat="47.15694" lon="6.76895">
        <ele>932</ele>
        <time>2026-08-28T05:26:39Z</time>
      </trkpt>
      <trkpt lat="47.15693" lon="6.76957">
        <ele>936</ele>
        <time>2026-08-28T05:26:49Z</time>
      </trkpt>
      <trkpt lat="47.15695" lon="6.76971">
        <ele>936</ele>
        <time>2026-08-28T05:26:52Z</time>
      </trkpt>
      <trkpt lat="47.15696" lon="6.76988">
        <ele>937</ele>
        <time>2026-08-28T05:26:54Z</time>
      </trkpt>
      <trkpt lat="47.15695" lon="6.76999">
        <ele>937</ele>
        <time>2026-08-28T05:26:56Z</time>
      </trkpt>
      <trkpt lat="47.15691" lon="6.77003">
        <ele>938</ele>
        <time>2026-08-28T05:26:57Z</time>
      </trkpt>
      <trkpt lat="47.15685" lon="6.77004">
        <ele>938</ele>
        <time>2026-08-28T05:26:59Z</time>
      </trkpt>
      <trkpt lat="47.15667" lon="6.76996">
        <ele>939</ele>
        <time>2026-08-28T05:27:03Z</time>
      </trkpt>
      <trkpt lat="47.15591" lon="6.76956">
        <ele>943</ele>
        <time>2026-08-28T05:27:22Z</time>
      </trkpt>
      <trkpt lat="47.15586" lon="6.76955">
        <ele>944</ele>
        <time>2026-08-28T05:27:23Z</time>
      </trkpt>
      <trkpt lat="47.15582" lon="6.76957">
        <ele>944</ele>
        <time>2026-08-28T05:27:24Z</time>
      </trkpt>
      <trkpt lat="47.15579" lon="6.76961">
        <ele>945</ele>
        <time>2026-08-28T05:27:25Z</time>
      </trkpt>
      <trkpt lat="47.15578" lon="6.76966">
        <ele>945</ele>
        <time>2026-08-28T05:27:26Z</time>
      </trkpt>
      <trkpt lat="47.15578" lon="6.76971">
        <ele>945</ele>
        <time>2026-08-28T05:27:27Z</time>
      </trkpt>
      <trkpt lat="47.1558" lon="6.76977">
        <ele>946</ele>
        <time>2026-08-28T05:27:28Z</time>
      </trkpt>
      <trkpt lat="47.1561" lon="6.77009">
        <ele>945</ele>
        <time>2026-08-28T05:27:36Z</time>
      </trkpt>
      <trkpt lat="47.15614" lon="6.77016">
        <ele>945</ele>
        <time>2026-08-28T05:27:38Z</time>
      </trkpt>
      <trkpt lat="47.15617" lon="6.77025">
        <ele>945</ele>
        <time>2026-08-28T05:27:39Z</time>
      </trkpt>
      <trkpt lat="47.15618" lon="6.77034">
        <ele>946</ele>
        <time>2026-08-28T05:27:41Z</time>
      </trkpt>
      <trkpt lat="47.15621" lon="6.77101">
        <ele>950</ele>
        <time>2026-08-28T05:27:51Z</time>
      </trkpt>
      <trkpt lat="47.15626" lon="6.77165">
        <ele>954</ele>
        <time>2026-08-28T05:28:02Z</time>
      </trkpt>
      <trkpt lat="47.15627" lon="6.77217">
        <ele>957</ele>
        <time>2026-08-28T05:28:10Z</time>
      </trkpt>
      <trkpt lat="47.15626" lon="6.77271">
        <ele>959</ele>
        <time>2026-08-28T05:28:18Z</time>
      </trkpt>
      <trkpt lat="47.15616" lon="6.77312">
        <ele>959</ele>
        <time>2026-08-28T05:28:25Z</time>
      </trkpt>
      <trkpt lat="47.15596" lon="6.77355">
        <ele>960</ele>
        <time>2026-08-28T05:28:34Z</time>
      </trkpt>
      <trkpt lat="47.15557" lon="6.77412">
        <ele>964</ele>
        <time>2026-08-28T05:28:46Z</time>
      </trkpt>
      <trkpt lat="47.15511" lon="6.7752">
        <ele>969</ele>
        <time>2026-08-28T05:29:07Z</time>
      </trkpt>
      <trkpt lat="47.15461" lon="6.77583">
        <ele>969</ele>
        <time>2026-08-28T05:29:22Z</time>
      </trkpt>
      <trkpt lat="47.15437" lon="6.7765">
        <ele>969</ele>
        <time>2026-08-28T05:29:34Z</time>
      </trkpt>
      <trkpt lat="47.15422" lon="6.77682">
        <ele>969</ele>
        <time>2026-08-28T05:29:40Z</time>
      </trkpt>
      <trkpt lat="47.15411" lon="6.77698">
        <ele>969</ele>
        <time>2026-08-28T05:29:44Z</time>
      </trkpt>
      <trkpt lat="47.15397" lon="6.77709">
        <ele>969</ele>
        <time>2026-08-28T05:29:48Z</time>
      </trkpt>
      <trkpt lat="47.15381" lon="6.77722">
        <ele>968</ele>
        <time>2026-08-28T05:29:52Z</time>
      </trkpt>
      <trkpt lat="47.15187" lon="6.77962">
        <ele>963</ele>
        <time>2026-08-28T05:30:51Z</time>
      </trkpt>
      <trkpt lat="47.15019" lon="6.7814">
        <ele>968</ele>
        <time>2026-08-28T05:31:39Z</time>
      </trkpt>
      <trkpt lat="47.14999" lon="6.78169">
        <ele>968</ele>
        <time>2026-08-28T05:31:46Z</time>
      </trkpt>
      <trkpt lat="47.14936" lon="6.78226">
        <ele>960</ele>
        <time>2026-08-28T05:32:03Z</time>
      </trkpt>
      <trkpt lat="47.14897" lon="6.78271">
        <ele>953</ele>
        <time>2026-08-28T05:32:15Z</time>
      </trkpt>
      <trkpt lat="47.14894" lon="6.78268">
        <ele>953</ele>
        <time>2026-08-28T05:32:16Z</time>
      </trkpt>
      <trkpt lat="47.14877" lon="6.7825">
        <ele>953</ele>
        <time>2026-08-28T05:32:21Z</time>
      </trkpt>
      <trkpt lat="47.1487" lon="6.7822">
        <ele>954</ele>
        <time>2026-08-28T05:32:26Z</time>
      </trkpt>
      <trkpt lat="47.14853" lon="6.78168">
        <ele>955</ele>
        <time>2026-08-28T05:32:35Z</time>
      </trkpt>
      <trkpt lat="47.14831" lon="6.7811">
        <ele>954</ele>
        <time>2026-08-28T05:32:45Z</time>
      </trkpt>
      <trkpt lat="47.1474" lon="6.77962">
        <ele>945</ele>
        <time>2026-08-28T05:33:17Z</time>
      </trkpt>
      <trkpt lat="47.14724" lon="6.77928">
        <ele>945</ele>
        <time>2026-08-28T05:33:24Z</time>
      </trkpt>
      <trkpt lat="47.14564" lon="6.77649">
        <ele>940</ele>
        <time>2026-08-28T05:34:22Z</time>
      </trkpt>
      <trkpt lat="47.14506" lon="6.77422">
        <ele>939</ele>
        <time>2026-08-28T05:35:00Z</time>
      </trkpt>
      <trkpt lat="47.14442" lon="6.77243">
        <ele>941</ele>
        <time>2026-08-28T05:35:32Z</time>
      </trkpt>
      <trkpt lat="47.14317" lon="6.76911">
        <ele>947</ele>
        <time>2026-08-28T05:36:32Z</time>
      </trkpt>
      <trkpt lat="47.14082" lon="6.7655">
        <ele>956</ele>
        <time>2026-08-28T05:37:52Z</time>
      </trkpt>
      <trkpt lat="47.14038" lon="6.76373">
        <ele>961</ele>
        <time>2026-08-28T05:38:22Z</time>
      </trkpt>
      <trkpt lat="47.13973" lon="6.76177">
        <ele>960</ele>
        <time>2026-08-28T05:38:56Z</time>
      </trkpt>
      <trkpt lat="47.13956" lon="6.75993">
        <ele>962</ele>
        <time>2026-08-28T05:39:26Z</time>
      </trkpt>
      <trkpt lat="47.13954" lon="6.75971">
        <ele>962</ele>
        <time>2026-08-28T05:39:29Z</time>
      </trkpt>
      <trkpt lat="47.13945" lon="6.75929">
        <ele>961</ele>
        <time>2026-08-28T05:39:36Z</time>
      </trkpt>
      <trkpt lat="47.13939" lon="6.75916">
        <ele>961</ele>
        <time>2026-08-28T05:39:39Z</time>
      </trkpt>
      <trkpt lat="47.13922" lon="6.7588">
        <ele>961</ele>
        <time>2026-08-28T05:39:46Z</time>
      </trkpt>
      <trkpt lat="47.13804" lon="6.75733">
        <ele>961</ele>
        <time>2026-08-28T05:40:22Z</time>
      </trkpt>
      <trkpt lat="47.13759" lon="6.75686">
        <ele>962</ele>
        <time>2026-08-28T05:40:35Z</time>
      </trkpt>
      <trkpt lat="47.13694" lon="6.75607">
        <ele>962</ele>
        <time>2026-08-28T05:40:55Z</time>
      </trkpt>
      <trkpt lat="47.13642" lon="6.75526">
        <ele>966</ele>
        <time>2026-08-28T05:41:12Z</time>
      </trkpt>
      <trkpt lat="47.13603" lon="6.75484">
        <ele>971</ele>
        <time>2026-08-28T05:41:24Z</time>
      </trkpt>
      <trkpt lat="47.13558" lon="6.7533">
        <ele>966</ele>
        <time>2026-08-28T05:41:50Z</time>
      </trkpt>
      <trkpt lat="47.13526" lon="6.75204">
        <ele>964</ele>
        <time>2026-08-28T05:42:12Z</time>
      </trkpt>
      <trkpt lat="47.13458" lon="6.75081">
        <ele>964</ele>
        <time>2026-08-28T05:42:37Z</time>
      </trkpt>
      <trkpt lat="47.13402" lon="6.74914">
        <ele>960</ele>
        <time>2026-08-28T05:43:06Z</time>
      </trkpt>
      <trkpt lat="47.13329" lon="6.74524">
        <ele>953</ele>
        <time>2026-08-28T05:44:11Z</time>
      </trkpt>
      <trkpt lat="47.13323" lon="6.74475">
        <ele>953</ele>
        <time>2026-08-28T05:44:19Z</time>
      </trkpt>
      <trkpt lat="47.13333" lon="6.74444">
        <ele>952</ele>
        <time>2026-08-28T05:44:24Z</time>
      </trkpt>
      <trkpt lat="47.13348" lon="6.74415">
        <ele>951</ele>
        <time>2026-08-28T05:44:30Z</time>
      </trkpt>
      <trkpt lat="47.13358" lon="6.74387">
        <ele>952</ele>
        <time>2026-08-28T05:44:35Z</time>
      </trkpt>
      <trkpt lat="47.13351" lon="6.74341">
        <ele>953</ele>
        <time>2026-08-28T05:44:42Z</time>
      </trkpt>
      <trkpt lat="47.13284" lon="6.74015">
        <ele>957</ele>
        <time>2026-08-28T05:45:36Z</time>
      </trkpt>
      <trkpt lat="47.13282" lon="6.73946">
        <ele>962</ele>
        <time>2026-08-28T05:45:47Z</time>
      </trkpt>
      <trkpt lat="47.13263" lon="6.73923">
        <ele>962</ele>
        <time>2026-08-28T05:45:53Z</time>
      </trkpt>
      <trkpt lat="47.13243" lon="6.73882">
        <ele>965</ele>
        <time>2026-08-28T05:46:01Z</time>
      </trkpt>
      <trkpt lat="47.13221" lon="6.73841">
        <ele>968</ele>
        <time>2026-08-28T05:46:09Z</time>
      </trkpt>
      <trkpt lat="47.13208" lon="6.73833">
        <ele>969</ele>
        <time>2026-08-28T05:46:13Z</time>
      </trkpt>
      <trkpt lat="47.13126" lon="6.73828">
        <ele>968</ele>
        <time>2026-08-28T05:46:32Z</time>
      </trkpt>
      <trkpt lat="47.1309" lon="6.73784">
        <ele>972</ele>
        <time>2026-08-28T05:46:43Z</time>
      </trkpt>
      <trkpt lat="47.12932" lon="6.73453">
        <ele>968</ele>
        <time>2026-08-28T05:47:47Z</time>
      </trkpt>
      <trkpt lat="47.12898" lon="6.73409">
        <ele>966</ele>
        <time>2026-08-28T05:47:58Z</time>
      </trkpt>
      <trkpt lat="47.12776" lon="6.73189">
        <ele>961</ele>
        <time>2026-08-28T05:48:43Z</time>
      </trkpt>
      <trkpt lat="47.12768" lon="6.73168">
        <ele>961</ele>
        <time>2026-08-28T05:48:47Z</time>
      </trkpt>
      <trkpt lat="47.12736" lon="6.73127">
        <ele>960</ele>
        <time>2026-08-28T05:48:56Z</time>
      </trkpt>
      <trkpt lat="47.12685" lon="6.72983">
        <ele>956</ele>
        <time>2026-08-28T05:49:22Z</time>
      </trkpt>
      <trkpt lat="47.12631" lon="6.72819">
        <ele>955</ele>
        <time>2026-08-28T05:49:51Z</time>
      </trkpt>
      <trkpt lat="47.12583" lon="6.72732">
        <ele>954</ele>
        <time>2026-08-28T05:50:09Z</time>
      </trkpt>
      <trkpt lat="47.12562" lon="6.72681">
        <ele>953</ele>
        <time>2026-08-28T05:50:18Z</time>
      </trkpt>
      <trkpt lat="47.12524" lon="6.72584">
        <ele>953</ele>
        <time>2026-08-28T05:50:36Z</time>
      </trkpt>
      <trkpt lat="47.12513" lon="6.72551">
        <ele>951</ele>
        <time>2026-08-28T05:50:42Z</time>
      </trkpt>
      <trkpt lat="47.12468" lon="6.72429">
        <ele>951</ele>
        <time>2026-08-28T05:51:04Z</time>
      </trkpt>
      <trkpt lat="47.12439" lon="6.72362">
        <ele>952</ele>
        <time>2026-08-28T05:51:17Z</time>
      </trkpt>
      <trkpt lat="47.12416" lon="6.72316">
        <ele>952</ele>
        <time>2026-08-28T05:51:26Z</time>
      </trkpt>
      <trkpt lat="47.1237" lon="6.72246">
        <ele>950</ele>
        <time>2026-08-28T05:51:41Z</time>
      </trkpt>
      <trkpt lat="47.12337" lon="6.72213">
        <ele>949</ele>
        <time>2026-08-28T05:51:51Z</time>
      </trkpt>
      <trkpt lat="47.12273" lon="6.72143">
        <ele>945</ele>
        <time>2026-08-28T05:52:09Z</time>
      </trkpt>
      <trkpt lat="47.12264" lon="6.72138">
        <ele>944</ele>
        <time>2026-08-28T05:52:11Z</time>
      </trkpt>
      <trkpt lat="47.12261" lon="6.72155">
        <ele>944</ele>
        <time>2026-08-28T05:52:14Z</time>
      </trkpt>
      <trkpt lat="47.12224" lon="6.72227">
        <ele>941</ele>
        <time>2026-08-28T05:52:29Z</time>
      </trkpt>
      <trkpt lat="47.12191" lon="6.72285">
        <ele>939</ele>
        <time>2026-08-28T05:52:41Z</time>
      </trkpt>
      <trkpt lat="47.12178" lon="6.72301">
        <ele>938</ele>
        <time>2026-08-28T05:52:45Z</time>
      </trkpt>
      <trkpt lat="47.12139" lon="6.72338">
        <ele>938</ele>
        <time>2026-08-28T05:52:55Z</time>
      </trkpt>
      <trkpt lat="47.12127" lon="6.72354">
        <ele>939</ele>
        <time>2026-08-28T05:52:59Z</time>
      </trkpt>
      <trkpt lat="47.12118" lon="6.72369">
        <ele>940</ele>
        <time>2026-08-28T05:53:02Z</time>
      </trkpt>
      <trkpt lat="47.1211" lon="6.72389">
        <ele>941</ele>
        <time>2026-08-28T05:53:06Z</time>
      </trkpt>
      <trkpt lat="47.12093" lon="6.72489">
        <ele>945</ele>
        <time>2026-08-28T05:53:22Z</time>
      </trkpt>
      <trkpt lat="47.12092" lon="6.72509">
        <ele>946</ele>
        <time>2026-08-28T05:53:26Z</time>
      </trkpt>
      <trkpt lat="47.12093" lon="6.72523">
        <ele>947</ele>
        <time>2026-08-28T05:53:28Z</time>
      </trkpt>
      <trkpt lat="47.12095" lon="6.72541">
        <ele>948</ele>
        <time>2026-08-28T05:53:31Z</time>
      </trkpt>
      <trkpt lat="47.12114" lon="6.726">
        <ele>950</ele>
        <time>2026-08-28T05:53:41Z</time>
      </trkpt>
      <trkpt lat="47.12119" lon="6.72624">
        <ele>952</ele>
        <time>2026-08-28T05:53:45Z</time>
      </trkpt>
      <trkpt lat="47.12123" lon="6.72653">
        <ele>955</ele>
        <time>2026-08-28T05:53:50Z</time>
      </trkpt>
      <trkpt lat="47.12125" lon="6.72694">
        <ele>957</ele>
        <time>2026-08-28T05:53:56Z</time>
      </trkpt>
      <trkpt lat="47.12123" lon="6.72703">
        <ele>958</ele>
        <time>2026-08-28T05:53:58Z</time>
      </trkpt>
      <trkpt lat="47.12121" lon="6.7272">
        <ele>960</ele>
        <time>2026-08-28T05:54:01Z</time>
      </trkpt>
      <trkpt lat="47.1212" lon="6.72729">
        <ele>961</ele>
        <time>2026-08-28T05:54:02Z</time>
      </trkpt>
      <trkpt lat="47.12111" lon="6.72761">
        <ele>963</ele>
        <time>2026-08-28T05:54:08Z</time>
      </trkpt>
      <trkpt lat="47.12098" lon="6.72787">
        <ele>965</ele>
        <time>2026-08-28T05:54:13Z</time>
      </trkpt>
      <trkpt lat="47.12094" lon="6.72803">
        <ele>965</ele>
        <time>2026-08-28T05:54:15Z</time>
      </trkpt>
      <trkpt lat="47.1209" lon="6.72855">
        <ele>966</ele>
        <time>2026-08-28T05:54:24Z</time>
      </trkpt>
      <trkpt lat="47.12088" lon="6.72901">
        <ele>968</ele>
        <time>2026-08-28T05:54:31Z</time>
      </trkpt>
      <trkpt lat="47.12087" lon="6.72937">
        <ele>971</ele>
        <time>2026-08-28T05:54:37Z</time>
      </trkpt>
      <trkpt lat="47.12089" lon="6.72983">
        <ele>976</ele>
        <time>2026-08-28T05:54:44Z</time>
      </trkpt>
      <trkpt lat="47.12093" lon="6.73009">
        <ele>979</ele>
        <time>2026-08-28T05:54:48Z</time>
      </trkpt>
      <trkpt lat="47.12104" lon="6.73053">
        <ele>985</ele>
        <time>2026-08-28T05:54:56Z</time>
      </trkpt>
      <trkpt lat="47.12105" lon="6.73075">
        <ele>988</ele>
        <time>2026-08-28T05:54:59Z</time>
      </trkpt>
      <trkpt lat="47.12104" lon="6.73087">
        <ele>990</ele>
        <time>2026-08-28T05:55:01Z</time>
      </trkpt>
      <trkpt lat="47.12092" lon="6.73113">
        <ele>991</ele>
        <time>2026-08-28T05:55:06Z</time>
      </trkpt>
      <trkpt lat="47.12079" lon="6.73131">
        <ele>992</ele>
        <time>2026-08-28T05:55:10Z</time>
      </trkpt>
      <trkpt lat="47.12059" lon="6.73153">
        <ele>994</ele>
        <time>2026-08-28T05:55:16Z</time>
      </trkpt>
      <trkpt lat="47.12045" lon="6.73175">
        <ele>996</ele>
        <time>2026-08-28T05:55:21Z</time>
      </trkpt>
      <trkpt lat="47.12043" lon="6.73184">
        <ele>996</ele>
        <time>2026-08-28T05:55:22Z</time>
      </trkpt>
      <trkpt lat="47.12042" lon="6.73194">
        <ele>997</ele>
        <time>2026-08-28T05:55:24Z</time>
      </trkpt>
      <trkpt lat="47.12043" lon="6.73202">
        <ele>998</ele>
        <time>2026-08-28T05:55:25Z</time>
      </trkpt>
      <trkpt lat="47.12049" lon="6.73217">
        <ele>998</ele>
        <time>2026-08-28T05:55:28Z</time>
      </trkpt>
      <trkpt lat="47.12067" lon="6.73262">
        <ele>1001</ele>
        <time>2026-08-28T05:55:36Z</time>
      </trkpt>
      <trkpt lat="47.12079" lon="6.73283">
        <ele>1002</ele>
        <time>2026-08-28T05:55:41Z</time>
      </trkpt>
      <trkpt lat="47.12093" lon="6.73318">
        <ele>1005</ele>
        <time>2026-08-28T05:55:47Z</time>
      </trkpt>
      <trkpt lat="47.121" lon="6.73333">
        <ele>1005</ele>
        <time>2026-08-28T05:55:50Z</time>
      </trkpt>
      <trkpt lat="47.12103" lon="6.73342">
        <ele>1006</ele>
        <time>2026-08-28T05:55:52Z</time>
      </trkpt>
      <trkpt lat="47.12106" lon="6.73359">
        <ele>1007</ele>
        <time>2026-08-28T05:55:55Z</time>
      </trkpt>
      <trkpt lat="47.12105" lon="6.73372">
        <ele>1008</ele>
        <time>2026-08-28T05:55:57Z</time>
      </trkpt>
      <trkpt lat="47.12102" lon="6.73386">
        <ele>1010</ele>
        <time>2026-08-28T05:55:59Z</time>
      </trkpt>
      <trkpt lat="47.12094" lon="6.73402">
        <ele>1011</ele>
        <time>2026-08-28T05:56:02Z</time>
      </trkpt>
      <trkpt lat="47.12068" lon="6.73482">
        <ele>1018</ele>
        <time>2026-08-28T05:56:16Z</time>
      </trkpt>
      <trkpt lat="47.1206" lon="6.73499">
        <ele>1019</ele>
        <time>2026-08-28T05:56:19Z</time>
      </trkpt>
      <trkpt lat="47.12055" lon="6.73526">
        <ele>1021</ele>
        <time>2026-08-28T05:56:24Z</time>
      </trkpt>
      <trkpt lat="47.12039" lon="6.73589">
        <ele>1025</ele>
        <time>2026-08-28T05:56:35Z</time>
      </trkpt>
      <trkpt lat="47.12034" lon="6.73607">
        <ele>1026</ele>
        <time>2026-08-28T05:56:38Z</time>
      </trkpt>
      <trkpt lat="47.12027" lon="6.73622">
        <ele>1027</ele>
        <time>2026-08-28T05:56:41Z</time>
      </trkpt>
      <trkpt lat="47.12025" lon="6.73634">
        <ele>1028</ele>
        <time>2026-08-28T05:56:43Z</time>
      </trkpt>
      <trkpt lat="47.1203" lon="6.73649">
        <ele>1028</ele>
        <time>2026-08-28T05:56:45Z</time>
      </trkpt>
      <trkpt lat="47.12052" lon="6.73685">
        <ele>1029</ele>
        <time>2026-08-28T05:56:53Z</time>
      </trkpt>
      <trkpt lat="47.12065" lon="6.73701">
        <ele>1030</ele>
        <time>2026-08-28T05:56:57Z</time>
      </trkpt>
      <trkpt lat="47.12074" lon="6.73718">
        <ele>1031</ele>
        <time>2026-08-28T05:57:00Z</time>
      </trkpt>
      <trkpt lat="47.12078" lon="6.73738">
        <ele>1031</ele>
        <time>2026-08-28T05:57:04Z</time>
      </trkpt>
      <trkpt lat="47.12079" lon="6.73757">
        <ele>1032</ele>
        <time>2026-08-28T05:57:07Z</time>
      </trkpt>
      <trkpt lat="47.12075" lon="6.73812">
        <ele>1034</ele>
        <time>2026-08-28T05:57:15Z</time>
      </trkpt>
      <trkpt lat="47.12077" lon="6.73831">
        <ele>1035</ele>
        <time>2026-08-28T05:57:18Z</time>
      </trkpt>
      <trkpt lat="47.12083" lon="6.73854">
        <ele>1035</ele>
        <time>2026-08-28T05:57:22Z</time>
      </trkpt>
      <trkpt lat="47.12099" lon="6.73896">
        <ele>1034</ele>
        <time>2026-08-28T05:57:30Z</time>
      </trkpt>
      <trkpt lat="47.12119" lon="6.73939">
        <ele>1034</ele>
        <time>2026-08-28T05:57:38Z</time>
      </trkpt>
      <trkpt lat="47.12115" lon="6.73991">
        <ele>1034</ele>
        <time>2026-08-28T05:57:47Z</time>
      </trkpt>
      <trkpt lat="47.12103" lon="6.74039">
        <ele>1032</ele>
        <time>2026-08-28T05:57:55Z</time>
      </trkpt>
      <trkpt lat="47.12102" lon="6.74123">
        <ele>1031</ele>
        <time>2026-08-28T05:58:08Z</time>
      </trkpt>
      <trkpt lat="47.12112" lon="6.74237">
        <ele>1033</ele>
        <time>2026-08-28T05:58:26Z</time>
      </trkpt>
      <trkpt lat="47.12114" lon="6.74297">
        <ele>1034</ele>
        <time>2026-08-28T05:58:36Z</time>
      </trkpt>
      <trkpt lat="47.12111" lon="6.74384">
        <ele>1031</ele>
        <time>2026-08-28T05:58:50Z</time>
      </trkpt>
      <trkpt lat="47.12113" lon="6.74468">
        <ele>1026</ele>
        <time>2026-08-28T05:59:03Z</time>
      </trkpt>
      <trkpt lat="47.12124" lon="6.74564">
        <ele>1023</ele>
        <time>2026-08-28T05:59:19Z</time>
      </trkpt>
      <trkpt lat="47.12131" lon="6.74633">
        <ele>1022</ele>
        <time>2026-08-28T05:59:30Z</time>
      </trkpt>
      <trkpt lat="47.12129" lon="6.74671">
        <ele>1021</ele>
        <time>2026-08-28T05:59:36Z</time>
      </trkpt>
      <trkpt lat="47.12117" lon="6.74735">
        <ele>1018</ele>
        <time>2026-08-28T05:59:46Z</time>
      </trkpt>
      <trkpt lat="47.12119" lon="6.7479">
        <ele>1017</ele>
        <time>2026-08-28T05:59:55Z</time>
      </trkpt>
      <trkpt lat="47.12112" lon="6.74861">
        <ele>1016</ele>
        <time>2026-08-28T06:00:06Z</time>
      </trkpt>
      <trkpt lat="47.12103" lon="6.7492">
        <ele>1015</ele>
        <time>2026-08-28T06:00:16Z</time>
      </trkpt>
      <trkpt lat="47.1209" lon="6.74956">
        <ele>1012</ele>
        <time>2026-08-28T06:00:22Z</time>
      </trkpt>
      <trkpt lat="47.12087" lon="6.75003">
        <ele>1012</ele>
        <time>2026-08-28T06:00:30Z</time>
      </trkpt>
      <trkpt lat="47.12094" lon="6.75043">
        <ele>1010</ele>
        <time>2026-08-28T06:00:37Z</time>
      </trkpt>
      <trkpt lat="47.12097" lon="6.75113">
        <ele>1006</ele>
        <time>2026-08-28T06:00:48Z</time>
      </trkpt>
      <trkpt lat="47.12096" lon="6.75132">
        <ele>1006</ele>
        <time>2026-08-28T06:00:51Z</time>
      </trkpt>
      <trkpt lat="47.12094" lon="6.75138">
        <ele>1005</ele>
        <time>2026-08-28T06:00:52Z</time>
      </trkpt>
      <trkpt lat="47.1209" lon="6.75136">
        <ele>1004</ele>
        <time>2026-08-28T06:00:53Z</time>
      </trkpt>
      <trkpt lat="47.12078" lon="6.75107">
        <ele>1002</ele>
        <time>2026-08-28T06:00:58Z</time>
      </trkpt>
      <trkpt lat="47.1207" lon="6.75094">
        <ele>1000</ele>
        <time>2026-08-28T06:01:01Z</time>
      </trkpt>
      <trkpt lat="47.12032" lon="6.75044">
        <ele>992</ele>
        <time>2026-08-28T06:01:13Z</time>
      </trkpt>
      <trkpt lat="47.12026" lon="6.7503">
        <ele>992</ele>
        <time>2026-08-28T06:01:15Z</time>
      </trkpt>
      <trkpt lat="47.11998" lon="6.74957">
        <ele>990</ele>
        <time>2026-08-28T06:01:29Z</time>
      </trkpt>
      <trkpt lat="47.11947" lon="6.74844">
        <ele>986</ele>
        <time>2026-08-28T06:01:50Z</time>
      </trkpt>
      <trkpt lat="47.1192" lon="6.74773">
        <ele>985</ele>
        <time>2026-08-28T06:02:03Z</time>
      </trkpt>
      <trkpt lat="47.11911" lon="6.74757">
        <ele>984</ele>
        <time>2026-08-28T06:02:07Z</time>
      </trkpt>
      <trkpt lat="47.11864" lon="6.74706">
        <ele>977</ele>
        <time>2026-08-28T06:02:20Z</time>
      </trkpt>
      <trkpt lat="47.11852" lon="6.74695">
        <ele>976</ele>
        <time>2026-08-28T06:02:24Z</time>
      </trkpt>
      <trkpt lat="47.11804" lon="6.74658">
        <ele>969</ele>
        <time>2026-08-28T06:02:36Z</time>
      </trkpt>
      <trkpt lat="47.11786" lon="6.74637">
        <ele>966</ele>
        <time>2026-08-28T06:02:42Z</time>
      </trkpt>
      <trkpt lat="47.11709" lon="6.74562">
        <ele>956</ele>
        <time>2026-08-28T06:03:03Z</time>
      </trkpt>
      <trkpt lat="47.11684" lon="6.74541">
        <ele>953</ele>
        <time>2026-08-28T06:03:10Z</time>
      </trkpt>
      <trkpt lat="47.11649" lon="6.74517">
        <ele>948</ele>
        <time>2026-08-28T06:03:19Z</time>
      </trkpt>
      <trkpt lat="47.11597" lon="6.7447">
        <ele>942</ele>
        <time>2026-08-28T06:03:33Z</time>
      </trkpt>
      <trkpt lat="47.11584" lon="6.74465">
        <ele>939</ele>
        <time>2026-08-28T06:03:36Z</time>
      </trkpt>
      <trkpt lat="47.11576" lon="6.74465">
        <ele>938</ele>
        <time>2026-08-28T06:03:38Z</time>
      </trkpt>
      <trkpt lat="47.11569" lon="6.7447">
        <ele>937</ele>
        <time>2026-08-28T06:03:40Z</time>
      </trkpt>
      <trkpt lat="47.11555" lon="6.74494">
        <ele>934</ele>
        <time>2026-08-28T06:03:45Z</time>
      </trkpt>
      <trkpt lat="47.11537" lon="6.74513">
        <ele>931</ele>
        <time>2026-08-28T06:03:50Z</time>
      </trkpt>
      <trkpt lat="47.11524" lon="6.74517">
        <ele>929</ele>
        <time>2026-08-28T06:03:53Z</time>
      </trkpt>
      <trkpt lat="47.11517" lon="6.74515">
        <ele>929</ele>
        <time>2026-08-28T06:03:55Z</time>
      </trkpt>
      <trkpt lat="47.11505" lon="6.74508">
        <ele>929</ele>
        <time>2026-08-28T06:03:58Z</time>
      </trkpt>
      <trkpt lat="47.11487" lon="6.74503">
        <ele>928</ele>
        <time>2026-08-28T06:04:02Z</time>
      </trkpt>
      <trkpt lat="47.11429" lon="6.74467">
        <ele>925</ele>
        <time>2026-08-28T06:04:17Z</time>
      </trkpt>
      <trkpt lat="47.11418" lon="6.74459">
        <ele>924</ele>
        <time>2026-08-28T06:04:20Z</time>
      </trkpt>
      <trkpt lat="47.11406" lon="6.74446">
        <ele>920</ele>
        <time>2026-08-28T06:04:23Z</time>
      </trkpt>
      <trkpt lat="47.11397" lon="6.74432">
        <ele>917</ele>
        <time>2026-08-28T06:04:26Z</time>
      </trkpt>
      <trkpt lat="47.11368" lon="6.74385">
        <ele>905</ele>
        <time>2026-08-28T06:04:36Z</time>
      </trkpt>
      <trkpt lat="47.11347" lon="6.74339">
        <ele>895</ele>
        <time>2026-08-28T06:04:45Z</time>
      </trkpt>
      <trkpt lat="47.11345" lon="6.74322">
        <ele>893</ele>
        <time>2026-08-28T06:04:48Z</time>
      </trkpt>
      <trkpt lat="47.11345" lon="6.74296">
        <ele>891</ele>
        <time>2026-08-28T06:04:52Z</time>
      </trkpt>
      <trkpt lat="47.11343" lon="6.74271">
        <ele>889</ele>
        <time>2026-08-28T06:04:56Z</time>
      </trkpt>
      <trkpt lat="47.11339" lon="6.7425">
        <ele>886</ele>
        <time>2026-08-28T06:05:00Z</time>
      </trkpt>
      <trkpt lat="47.11329" lon="6.74215">
        <ele>881</ele>
        <time>2026-08-28T06:05:06Z</time>
      </trkpt>
      <trkpt lat="47.11317" lon="6.74155">
        <ele>873</ele>
        <time>2026-08-28T06:05:16Z</time>
      </trkpt>
      <trkpt lat="47.11315" lon="6.74119">
        <ele>869</ele>
        <time>2026-08-28T06:05:21Z</time>
      </trkpt>
      <trkpt lat="47.11319" lon="6.74024">
        <ele>865</ele>
        <time>2026-08-28T06:05:36Z</time>
      </trkpt>
      <trkpt lat="47.11317" lon="6.7401">
        <ele>864</ele>
        <time>2026-08-28T06:05:39Z</time>
      </trkpt>
      <trkpt lat="47.11311" lon="6.73991">
        <ele>862</ele>
        <time>2026-08-28T06:05:42Z</time>
      </trkpt>
      <trkpt lat="47.11301" lon="6.73977">
        <ele>861</ele>
        <time>2026-08-28T06:05:45Z</time>
      </trkpt>
      <trkpt lat="47.11269" lon="6.73938">
        <ele>853</ele>
        <time>2026-08-28T06:05:55Z</time>
      </trkpt>
      <trkpt lat="47.11242" lon="6.73902">
        <ele>849</ele>
        <time>2026-08-28T06:06:03Z</time>
      </trkpt>
      <trkpt lat="47.11235" lon="6.73894">
        <ele>848</ele>
        <time>2026-08-28T06:06:06Z</time>
      </trkpt>
      <trkpt lat="47.11224" lon="6.73885">
        <ele>847</ele>
        <time>2026-08-28T06:06:08Z</time>
      </trkpt>
      <trkpt lat="47.11207" lon="6.73878">
        <ele>843</ele>
        <time>2026-08-28T06:06:13Z</time>
      </trkpt>
      <trkpt lat="47.11194" lon="6.73869">
        <ele>841</ele>
        <time>2026-08-28T06:06:16Z</time>
      </trkpt>
      <trkpt lat="47.11179" lon="6.73854">
        <ele>839</ele>
        <time>2026-08-28T06:06:20Z</time>
      </trkpt>
      <trkpt lat="47.11171" lon="6.73842">
        <ele>839</ele>
        <time>2026-08-28T06:06:23Z</time>
      </trkpt>
      <trkpt lat="47.11142" lon="6.73787">
        <ele>841</ele>
        <time>2026-08-28T06:06:34Z</time>
      </trkpt>
      <trkpt lat="47.11121" lon="6.73758">
        <ele>842</ele>
        <time>2026-08-28T06:06:41Z</time>
      </trkpt>
      <trkpt lat="47.1109" lon="6.73701">
        <ele>844</ele>
        <time>2026-08-28T06:06:52Z</time>
      </trkpt>
      <trkpt lat="47.11062" lon="6.73675">
        <ele>846</ele>
        <time>2026-08-28T06:07:00Z</time>
      </trkpt>
      <trkpt lat="47.11038" lon="6.73658">
        <ele>848</ele>
        <time>2026-08-28T06:07:06Z</time>
      </trkpt>
      <trkpt lat="47.10992" lon="6.73632">
        <ele>847</ele>
        <time>2026-08-28T06:07:18Z</time>
      </trkpt>
      <trkpt lat="47.10986" lon="6.73631">
        <ele>848</ele>
        <time>2026-08-28T06:07:19Z</time>
      </trkpt>
      <trkpt lat="47.10979" lon="6.73636">
        <ele>848</ele>
        <time>2026-08-28T06:07:21Z</time>
      </trkpt>
      <trkpt lat="47.10964" lon="6.73655">
        <ele>847</ele>
        <time>2026-08-28T06:07:26Z</time>
      </trkpt>
      <trkpt lat="47.10952" lon="6.73662">
        <ele>848</ele>
        <time>2026-08-28T06:07:29Z</time>
      </trkpt>
      <trkpt lat="47.10941" lon="6.73666">
        <ele>848</ele>
        <time>2026-08-28T06:07:31Z</time>
      </trkpt>
      <trkpt lat="47.10919" lon="6.73658">
        <ele>849</ele>
        <time>2026-08-28T06:07:37Z</time>
      </trkpt>
      <trkpt lat="47.10882" lon="6.73634">
        <ele>849</ele>
        <time>2026-08-28T06:07:46Z</time>
      </trkpt>
      <trkpt lat="47.10869" lon="6.73628">
        <ele>850</ele>
        <time>2026-08-28T06:07:49Z</time>
      </trkpt>
      <trkpt lat="47.10848" lon="6.73621">
        <ele>850</ele>
        <time>2026-08-28T06:07:54Z</time>
      </trkpt>
      <trkpt lat="47.10818" lon="6.73618">
        <ele>849</ele>
        <time>2026-08-28T06:08:01Z</time>
      </trkpt>
      <trkpt lat="47.10807" lon="6.73615">
        <ele>847</ele>
        <time>2026-08-28T06:08:04Z</time>
      </trkpt>
      <trkpt lat="47.10795" lon="6.73611">
        <ele>846</ele>
        <time>2026-08-28T06:08:07Z</time>
      </trkpt>
      <trkpt lat="47.10766" lon="6.73592">
        <ele>846</ele>
        <time>2026-08-28T06:08:14Z</time>
      </trkpt>
      <trkpt lat="47.10744" lon="6.73573">
        <ele>845</ele>
        <time>2026-08-28T06:08:20Z</time>
      </trkpt>
      <trkpt lat="47.10722" lon="6.73559">
        <ele>843</ele>
        <time>2026-08-28T06:08:26Z</time>
      </trkpt>
      <trkpt lat="47.10683" lon="6.73528">
        <ele>839</ele>
        <time>2026-08-28T06:08:36Z</time>
      </trkpt>
      <trkpt lat="47.1067" lon="6.73523">
        <ele>837</ele>
        <time>2026-08-28T06:08:39Z</time>
      </trkpt>
      <trkpt lat="47.10635" lon="6.73514">
        <ele>837</ele>
        <time>2026-08-28T06:08:47Z</time>
      </trkpt>
      <trkpt lat="47.10595" lon="6.7349">
        <ele>840</ele>
        <time>2026-08-28T06:08:58Z</time>
      </trkpt>
      <trkpt lat="47.10565" lon="6.73462">
        <ele>842</ele>
        <time>2026-08-28T06:09:06Z</time>
      </trkpt>
      <trkpt lat="47.10542" lon="6.7343">
        <ele>845</ele>
        <time>2026-08-28T06:09:13Z</time>
      </trkpt>
      <trkpt lat="47.10521" lon="6.7341">
        <ele>847</ele>
        <time>2026-08-28T06:09:19Z</time>
      </trkpt>
      <trkpt lat="47.10512" lon="6.73403">
        <ele>848</ele>
        <time>2026-08-28T06:09:21Z</time>
      </trkpt>
      <trkpt lat="47.10502" lon="6.73399">
        <ele>848</ele>
        <time>2026-08-28T06:09:24Z</time>
      </trkpt>
      <trkpt lat="47.10482" lon="6.73395">
        <ele>849</ele>
        <time>2026-08-28T06:09:29Z</time>
      </trkpt>
      <trkpt lat="47.10424" lon="6.73382">
        <ele>851</ele>
        <time>2026-08-28T06:09:42Z</time>
      </trkpt>
      <trkpt lat="47.104" lon="6.73373">
        <ele>852</ele>
        <time>2026-08-28T06:09:48Z</time>
      </trkpt>
      <trkpt lat="47.10388" lon="6.73369">
        <ele>853</ele>
        <time>2026-08-28T06:09:51Z</time>
      </trkpt>
      <trkpt lat="47.10373" lon="6.73361">
        <ele>854</ele>
        <time>2026-08-28T06:09:55Z</time>
      </trkpt>
      <trkpt lat="47.10349" lon="6.73347">
        <ele>855</ele>
        <time>2026-08-28T06:10:01Z</time>
      </trkpt>
      <trkpt lat="47.1032" lon="6.73334">
        <ele>857</ele>
        <time>2026-08-28T06:10:08Z</time>
      </trkpt>
      <trkpt lat="47.10275" lon="6.7331">
        <ele>859</ele>
        <time>2026-08-28T06:10:19Z</time>
      </trkpt>
      <trkpt lat="47.10268" lon="6.73302">
        <ele>860</ele>
        <time>2026-08-28T06:10:21Z</time>
      </trkpt>
      <trkpt lat="47.10261" lon="6.73306">
        <ele>859</ele>
        <time>2026-08-28T06:10:23Z</time>
      </trkpt>
      <trkpt lat="47.1025" lon="6.73308">
        <ele>859</ele>
        <time>2026-08-28T06:10:25Z</time>
      </trkpt>
      <trkpt lat="47.10238" lon="6.73304">
        <ele>858</ele>
        <time>2026-08-28T06:10:28Z</time>
      </trkpt>
      <trkpt lat="47.10225" lon="6.73295">
        <ele>858</ele>
        <time>2026-08-28T06:10:32Z</time>
      </trkpt>
      <trkpt lat="47.10219" lon="6.73288">
        <ele>858</ele>
        <time>2026-08-28T06:10:33Z</time>
      </trkpt>
      <trkpt lat="47.10208" lon="6.7327">
        <ele>860</ele>
        <time>2026-08-28T06:10:37Z</time>
      </trkpt>
      <trkpt lat="47.10191" lon="6.73241">
        <ele>862</ele>
        <time>2026-08-28T06:10:43Z</time>
      </trkpt>
      <trkpt lat="47.10184" lon="6.73228">
        <ele>862</ele>
        <time>2026-08-28T06:10:46Z</time>
      </trkpt>
      <trkpt lat="47.10158" lon="6.73184">
        <ele>864</ele>
        <time>2026-08-28T06:10:55Z</time>
      </trkpt>
      <trkpt lat="47.10151" lon="6.7317">
        <ele>865</ele>
        <time>2026-08-28T06:10:58Z</time>
      </trkpt>
      <trkpt lat="47.10145" lon="6.73157">
        <ele>865</ele>
        <time>2026-08-28T06:11:00Z</time>
      </trkpt>
      <trkpt lat="47.10073" lon="6.72942">
        <ele>865</ele>
        <time>2026-08-28T06:11:39Z</time>
      </trkpt>
      <trkpt lat="47.10068" lon="6.72927">
        <ele>865</ele>
        <time>2026-08-28T06:11:41Z</time>
      </trkpt>
      <trkpt lat="47.10065" lon="6.72912">
        <ele>864</ele>
        <time>2026-08-28T06:11:44Z</time>
      </trkpt>
      <trkpt lat="47.10063" lon="6.72894">
        <ele>864</ele>
        <time>2026-08-28T06:11:47Z</time>
      </trkpt>
      <trkpt lat="47.10063" lon="6.72878">
        <ele>864</ele>
        <time>2026-08-28T06:11:49Z</time>
      </trkpt>
      <trkpt lat="47.10063" lon="6.72862">
        <ele>864</ele>
        <time>2026-08-28T06:11:52Z</time>
      </trkpt>
      <trkpt lat="47.1007" lon="6.72811">
        <ele>866</ele>
        <time>2026-08-28T06:12:00Z</time>
      </trkpt>
      <trkpt lat="47.1007" lon="6.72787">
        <ele>866</ele>
        <time>2026-08-28T06:12:04Z</time>
      </trkpt>
      <trkpt lat="47.10065" lon="6.72754">
        <ele>867</ele>
        <time>2026-08-28T06:12:09Z</time>
      </trkpt>
      <trkpt lat="47.10057" lon="6.72718">
        <ele>869</ele>
        <time>2026-08-28T06:12:15Z</time>
      </trkpt>
      <trkpt lat="47.10051" lon="6.727">
        <ele>871</ele>
        <time>2026-08-28T06:12:18Z</time>
      </trkpt>
      <trkpt lat="47.10045" lon="6.72684">
        <ele>872</ele>
        <time>2026-08-28T06:12:21Z</time>
      </trkpt>
      <trkpt lat="47.10025" lon="6.72645">
        <ele>874</ele>
        <time>2026-08-28T06:12:29Z</time>
      </trkpt>
      <trkpt lat="47.1" lon="6.72603">
        <ele>875</ele>
        <time>2026-08-28T06:12:38Z</time>
      </trkpt>
      <trkpt lat="47.09985" lon="6.72581">
        <ele>876</ele>
        <time>2026-08-28T06:12:43Z</time>
      </trkpt>
      <trkpt lat="47.09965" lon="6.72556">
        <ele>879</ele>
        <time>2026-08-28T06:12:49Z</time>
      </trkpt>
      <trkpt lat="47.09945" lon="6.72534">
        <ele>880</ele>
        <time>2026-08-28T06:12:55Z</time>
      </trkpt>
      <trkpt lat="47.09799" lon="6.72387">
        <ele>886</ele>
        <time>2026-08-28T06:13:36Z</time>
      </trkpt>
      <trkpt lat="47.09791" lon="6.724">
        <ele>885</ele>
        <time>2026-08-28T06:13:39Z</time>
      </trkpt>
      <trkpt lat="47.09775" lon="6.72416">
        <ele>884</ele>
        <time>2026-08-28T06:13:43Z</time>
      </trkpt>
      <trkpt lat="47.09731" lon="6.72451">
        <ele>885</ele>
        <time>2026-08-28T06:13:55Z</time>
      </trkpt>
      <trkpt lat="47.09709" lon="6.72462">
        <ele>885</ele>
        <time>2026-08-28T06:14:01Z</time>
      </trkpt>
      <trkpt lat="47.09699" lon="6.72462">
        <ele>886</ele>
        <time>2026-08-28T06:14:03Z</time>
      </trkpt>
      <trkpt lat="47.09695" lon="6.72469">
        <ele>886</ele>
        <time>2026-08-28T06:14:04Z</time>
      </trkpt>
      <trkpt lat="47.09688" lon="6.72487">
        <ele>885</ele>
        <time>2026-08-28T06:14:08Z</time>
      </trkpt>
      <trkpt lat="47.09684" lon="6.72502">
        <ele>885</ele>
        <time>2026-08-28T06:14:10Z</time>
      </trkpt>
      <trkpt lat="47.09682" lon="6.7252">
        <ele>884</ele>
        <time>2026-08-28T06:14:13Z</time>
      </trkpt>
      <trkpt lat="47.09682" lon="6.72548">
        <ele>883</ele>
        <time>2026-08-28T06:14:18Z</time>
      </trkpt>
      <trkpt lat="47.0968" lon="6.72561">
        <ele>883</ele>
        <time>2026-08-28T06:14:20Z</time>
      </trkpt>
      <trkpt lat="47.09659" lon="6.72606">
        <ele>882</ele>
        <time>2026-08-28T06:14:28Z</time>
      </trkpt>
      <trkpt lat="47.0965" lon="6.7263">
        <ele>882</ele>
        <time>2026-08-28T06:14:33Z</time>
      </trkpt>
      <trkpt lat="47.09647" lon="6.72649">
        <ele>881</ele>
        <time>2026-08-28T06:14:36Z</time>
      </trkpt>
      <trkpt lat="47.09648" lon="6.72664">
        <ele>881</ele>
        <time>2026-08-28T06:14:38Z</time>
      </trkpt>
      <trkpt lat="47.09654" lon="6.72687">
        <ele>879</ele>
        <time>2026-08-28T06:14:42Z</time>
      </trkpt>
      <trkpt lat="47.09668" lon="6.72734">
        <ele>875</ele>
        <time>2026-08-28T06:14:50Z</time>
      </trkpt>
      <trkpt lat="47.09676" lon="6.72766">
        <ele>874</ele>
        <time>2026-08-28T06:14:56Z</time>
      </trkpt>
      <trkpt lat="47.09678" lon="6.72781">
        <ele>874</ele>
        <time>2026-08-28T06:14:58Z</time>
      </trkpt>
      <trkpt lat="47.09674" lon="6.72795">
        <ele>875</ele>
        <time>2026-08-28T06:15:01Z</time>
      </trkpt>
      <trkpt lat="47.09668" lon="6.72805">
        <ele>876</ele>
        <time>2026-08-28T06:15:03Z</time>
      </trkpt>
      <trkpt lat="47.09657" lon="6.72814">
        <ele>879</ele>
        <time>2026-08-28T06:15:06Z</time>
      </trkpt>
      <trkpt lat="47.09572" lon="6.72891">
        <ele>904</ele>
        <time>2026-08-28T06:15:29Z</time>
      </trkpt>
      <trkpt lat="47.09566" lon="6.72895">
        <ele>906</ele>
        <time>2026-08-28T06:15:30Z</time>
      </trkpt>
      <trkpt lat="47.09559" lon="6.72903">
        <ele>910</ele>
        <time>2026-08-28T06:15:33Z</time>
      </trkpt>
      <trkpt lat="47.09551" lon="6.72927">
        <ele>916</ele>
        <time>2026-08-28T06:15:37Z</time>
      </trkpt>
      <trkpt lat="47.0955" lon="6.72947">
        <ele>920</ele>
        <time>2026-08-28T06:15:40Z</time>
      </trkpt>
      <trkpt lat="47.09552" lon="6.72962">
        <ele>922</ele>
        <time>2026-08-28T06:15:42Z</time>
      </trkpt>
      <trkpt lat="47.09516" lon="6.72877">
        <ele>921</ele>
        <time>2026-08-28T06:15:58Z</time>
      </trkpt>
      <trkpt lat="47.09416" lon="6.72622">
        <ele>898</ele>
        <time>2026-08-28T06:16:45Z</time>
      </trkpt>
      <trkpt lat="47.09413" lon="6.72612">
        <ele>894</ele>
        <time>2026-08-28T06:16:47Z</time>
      </trkpt>
      <trkpt lat="47.09409" lon="6.72605">
        <ele>890</ele>
        <time>2026-08-28T06:16:48Z</time>
      </trkpt>
      <trkpt lat="47.09404" lon="6.72594">
        <ele>886</ele>
        <time>2026-08-28T06:16:50Z</time>
      </trkpt>
      <trkpt lat="47.094" lon="6.72576">
        <ele>882</ele>
        <time>2026-08-28T06:16:53Z</time>
      </trkpt>
      <trkpt lat="47.0939" lon="6.72566">
        <ele>877</ele>
        <time>2026-08-28T06:16:56Z</time>
      </trkpt>
      <trkpt lat="47.09381" lon="6.72567">
        <ele>873</ele>
        <time>2026-08-28T06:16:58Z</time>
      </trkpt>
      <trkpt lat="47.09378" lon="6.72554">
        <ele>872</ele>
        <time>2026-08-28T06:17:01Z</time>
      </trkpt>
      <trkpt lat="47.0938" lon="6.72533">
        <ele>872</ele>
        <time>2026-08-28T06:17:04Z</time>
      </trkpt>
      <trkpt lat="47.0938" lon="6.72507">
        <ele>872</ele>
        <time>2026-08-28T06:17:08Z</time>
      </trkpt>
      <trkpt lat="47.09374" lon="6.72476">
        <ele>872</ele>
        <time>2026-08-28T06:17:13Z</time>
      </trkpt>
      <trkpt lat="47.09363" lon="6.72451">
        <ele>871</ele>
        <time>2026-08-28T06:17:18Z</time>
      </trkpt>
      <trkpt lat="47.09358" lon="6.72436">
        <ele>871</ele>
        <time>2026-08-28T06:17:21Z</time>
      </trkpt>
      <trkpt lat="47.09349" lon="6.72402">
        <ele>873</ele>
        <time>2026-08-28T06:17:26Z</time>
      </trkpt>
      <trkpt lat="47.09334" lon="6.72358">
        <ele>875</ele>
        <time>2026-08-28T06:17:34Z</time>
      </trkpt>
      <trkpt lat="47.0931" lon="6.72312">
        <ele>873</ele>
        <time>2026-08-28T06:17:43Z</time>
      </trkpt>
      <trkpt lat="47.09303" lon="6.72294">
        <ele>874</ele>
        <time>2026-08-28T06:17:47Z</time>
      </trkpt>
      <trkpt lat="47.09294" lon="6.72282">
        <ele>873</ele>
        <time>2026-08-28T06:17:50Z</time>
      </trkpt>
      <trkpt lat="47.0928" lon="6.72249">
        <ele>877</ele>
        <time>2026-08-28T06:17:56Z</time>
      </trkpt>
      <trkpt lat="47.09263" lon="6.7222">
        <ele>877</ele>
        <time>2026-08-28T06:18:02Z</time>
      </trkpt>
      <trkpt lat="47.0925" lon="6.72202">
        <ele>877</ele>
        <time>2026-08-28T06:18:06Z</time>
      </trkpt>
      <trkpt lat="47.09173" lon="6.72055">
        <ele>881</ele>
        <time>2026-08-28T06:18:35Z</time>
      </trkpt>
      <trkpt lat="47.09162" lon="6.72035">
        <ele>880</ele>
        <time>2026-08-28T06:18:40Z</time>
      </trkpt>
      <trkpt lat="47.09145" lon="6.72003">
        <ele>875</ele>
        <time>2026-08-28T06:18:46Z</time>
      </trkpt>
      <trkpt lat="47.09142" lon="6.7199">
        <ele>873</ele>
        <time>2026-08-28T06:18:48Z</time>
      </trkpt>
      <trkpt lat="47.09135" lon="6.71972">
        <ele>869</ele>
        <time>2026-08-28T06:18:51Z</time>
      </trkpt>
      <trkpt lat="47.09128" lon="6.71959">
        <ele>865</ele>
        <time>2026-08-28T06:18:54Z</time>
      </trkpt>
      <trkpt lat="47.09124" lon="6.71919">
        <ele>862</ele>
        <time>2026-08-28T06:19:01Z</time>
      </trkpt>
      <trkpt lat="47.09106" lon="6.71841">
        <ele>857</ele>
        <time>2026-08-28T06:19:14Z</time>
      </trkpt>
      <trkpt lat="47.09088" lon="6.71785">
        <ele>853</ele>
        <time>2026-08-28T06:19:23Z</time>
      </trkpt>
      <trkpt lat="47.09067" lon="6.71705">
        <ele>846</ele>
        <time>2026-08-28T06:19:37Z</time>
      </trkpt>
      <trkpt lat="47.09037" lon="6.71649">
        <ele>830</ele>
        <time>2026-08-28T06:19:48Z</time>
      </trkpt>
      <trkpt lat="47.09035" lon="6.71633">
        <ele>832</ele>
        <time>2026-08-28T06:19:51Z</time>
      </trkpt>
      <trkpt lat="47.09038" lon="6.716">
        <ele>840</ele>
        <time>2026-08-28T06:19:56Z</time>
      </trkpt>
      <trkpt lat="47.09038" lon="6.71584">
        <ele>842</ele>
        <time>2026-08-28T06:19:59Z</time>
      </trkpt>
      <trkpt lat="47.09031" lon="6.71574">
        <ele>839</ele>
        <time>2026-08-28T06:20:01Z</time>
      </trkpt>
      <trkpt lat="47.09012" lon="6.71563">
        <ele>828</ele>
        <time>2026-08-28T06:20:06Z</time>
      </trkpt>
      <trkpt lat="47.09" lon="6.71554">
        <ele>822</ele>
        <time>2026-08-28T06:20:09Z</time>
      </trkpt>
      <trkpt lat="47.08996" lon="6.7154">
        <ele>821</ele>
        <time>2026-08-28T06:20:11Z</time>
      </trkpt>
      <trkpt lat="47.08992" lon="6.71488">
        <ele>825</ele>
        <time>2026-08-28T06:20:20Z</time>
      </trkpt>
      <trkpt lat="47.08997" lon="6.71454">
        <ele>826</ele>
        <time>2026-08-28T06:20:25Z</time>
      </trkpt>
      <trkpt lat="47.09003" lon="6.71431">
        <ele>828</ele>
        <time>2026-08-28T06:20:29Z</time>
      </trkpt>
      <trkpt lat="47.09006" lon="6.71354">
        <ele>826</ele>
        <time>2026-08-28T06:20:41Z</time>
      </trkpt>
      <trkpt lat="47.09" lon="6.71283">
        <ele>823</ele>
        <time>2026-08-28T06:20:53Z</time>
      </trkpt>
      <trkpt lat="47.09" lon="6.71241">
        <ele>825</ele>
        <time>2026-08-28T06:21:00Z</time>
      </trkpt>
      <trkpt lat="47.09006" lon="6.71207">
        <ele>828</ele>
        <time>2026-08-28T06:21:05Z</time>
      </trkpt>
      <trkpt lat="47.09006" lon="6.71191">
        <ele>828</ele>
        <time>2026-08-28T06:21:08Z</time>
      </trkpt>
      <trkpt lat="47.09005" lon="6.71108">
        <ele>828</ele>
        <time>2026-08-28T06:21:21Z</time>
      </trkpt>
      <trkpt lat="47.09007" lon="6.71071">
        <ele>831</ele>
        <time>2026-08-28T06:21:27Z</time>
      </trkpt>
      <trkpt lat="47.09005" lon="6.71056">
        <ele>831</ele>
        <time>2026-08-28T06:21:29Z</time>
      </trkpt>
      <trkpt lat="47.08999" lon="6.71075">
        <ele>827</ele>
        <time>2026-08-28T06:21:33Z</time>
      </trkpt>
      <trkpt lat="47.08991" lon="6.71078">
        <ele>827</ele>
        <time>2026-08-28T06:21:34Z</time>
      </trkpt>
      <trkpt lat="47.08964" lon="6.71124">
        <ele>825</ele>
        <time>2026-08-28T06:21:44Z</time>
      </trkpt>
      <trkpt lat="47.0892" lon="6.71215">
        <ele>805</ele>
        <time>2026-08-28T06:22:02Z</time>
      </trkpt>
      <trkpt lat="47.0891" lon="6.7123">
        <ele>801</ele>
        <time>2026-08-28T06:22:05Z</time>
      </trkpt>
      <trkpt lat="47.08902" lon="6.71238">
        <ele>799</ele>
        <time>2026-08-28T06:22:07Z</time>
      </trkpt>
      <trkpt lat="47.08865" lon="6.71261">
        <ele>794</ele>
        <time>2026-08-28T06:22:17Z</time>
      </trkpt>
      <trkpt lat="47.08774" lon="6.71263">
        <ele>786</ele>
        <time>2026-08-28T06:22:38Z</time>
      </trkpt>
      <trkpt lat="47.0875" lon="6.71264">
        <ele>782</ele>
        <time>2026-08-28T06:22:44Z</time>
      </trkpt>
      <trkpt lat="47.08728" lon="6.71264">
        <ele>778</ele>
        <time>2026-08-28T06:22:49Z</time>
      </trkpt>
      <trkpt lat="47.0872" lon="6.71257">
        <ele>778</ele>
        <time>2026-08-28T06:22:51Z</time>
      </trkpt>
      <trkpt lat="47.08706" lon="6.71237">
        <ele>780</ele>
        <time>2026-08-28T06:22:56Z</time>
      </trkpt>
      <trkpt lat="47.08694" lon="6.71225">
        <ele>780</ele>
        <time>2026-08-28T06:22:59Z</time>
      </trkpt>
      <trkpt lat="47.08686" lon="6.71212">
        <ele>780</ele>
        <time>2026-08-28T06:23:02Z</time>
      </trkpt>
      <trkpt lat="47.08674" lon="6.71198">
        <ele>779</ele>
        <time>2026-08-28T06:23:05Z</time>
      </trkpt>
      <trkpt lat="47.08667" lon="6.71184">
        <ele>779</ele>
        <time>2026-08-28T06:23:08Z</time>
      </trkpt>
      <trkpt lat="47.08663" lon="6.7117">
        <ele>781</ele>
        <time>2026-08-28T06:23:11Z</time>
      </trkpt>
      <trkpt lat="47.08658" lon="6.71148">
        <ele>783</ele>
        <time>2026-08-28T06:23:14Z</time>
      </trkpt>
      <trkpt lat="47.08655" lon="6.71142">
        <ele>783</ele>
        <time>2026-08-28T06:23:15Z</time>
      </trkpt>
      <trkpt lat="47.08646" lon="6.71135">
        <ele>782</ele>
        <time>2026-08-28T06:23:18Z</time>
      </trkpt>
      <trkpt lat="47.08638" lon="6.71131">
        <ele>781</ele>
        <time>2026-08-28T06:23:20Z</time>
      </trkpt>
      <trkpt lat="47.0863" lon="6.71129">
        <ele>779</ele>
        <time>2026-08-28T06:23:22Z</time>
      </trkpt>
      <trkpt lat="47.08607" lon="6.71134">
        <ele>774</ele>
        <time>2026-08-28T06:23:27Z</time>
      </trkpt>
      <trkpt lat="47.0859" lon="6.7114">
        <ele>769</ele>
        <time>2026-08-28T06:23:31Z</time>
      </trkpt>
      <trkpt lat="47.08584" lon="6.7114">
        <ele>768</ele>
        <time>2026-08-28T06:23:33Z</time>
      </trkpt>
      <trkpt lat="47.08579" lon="6.71136">
        <ele>768</ele>
        <time>2026-08-28T06:23:34Z</time>
      </trkpt>
      <trkpt lat="47.08563" lon="6.71117">
        <ele>769</ele>
        <time>2026-08-28T06:23:39Z</time>
      </trkpt>
      <trkpt lat="47.08541" lon="6.711">
        <ele>768</ele>
        <time>2026-08-28T06:23:44Z</time>
      </trkpt>
      <trkpt lat="47.0853" lon="6.7109">
        <ele>767</ele>
        <time>2026-08-28T06:23:47Z</time>
      </trkpt>
      <trkpt lat="47.08524" lon="6.71073">
        <ele>767</ele>
        <time>2026-08-28T06:23:51Z</time>
      </trkpt>
      <trkpt lat="47.08523" lon="6.71056">
        <ele>766</ele>
        <time>2026-08-28T06:23:53Z</time>
      </trkpt>
      <trkpt lat="47.08523" lon="6.7105">
        <ele>766</ele>
        <time>2026-08-28T06:23:54Z</time>
      </trkpt>
      <trkpt lat="47.08535" lon="6.71008">
        <ele>770</ele>
        <time>2026-08-28T06:24:01Z</time>
      </trkpt>
      <trkpt lat="47.08536" lon="6.70998">
        <ele>771</ele>
        <time>2026-08-28T06:24:03Z</time>
      </trkpt>
      <trkpt lat="47.08535" lon="6.70986">
        <ele>772</ele>
        <time>2026-08-28T06:24:05Z</time>
      </trkpt>
      <trkpt lat="47.08529" lon="6.70961">
        <ele>773</ele>
        <time>2026-08-28T06:24:09Z</time>
      </trkpt>
      <trkpt lat="47.08519" lon="6.70944">
        <ele>771</ele>
        <time>2026-08-28T06:24:13Z</time>
      </trkpt>
      <trkpt lat="47.08517" lon="6.70938">
        <ele>770</ele>
        <time>2026-08-28T06:24:14Z</time>
      </trkpt>
      <trkpt lat="47.08513" lon="6.70936">
        <ele>769</ele>
        <time>2026-08-28T06:24:15Z</time>
      </trkpt>
      <trkpt lat="47.08511" lon="6.70932">
        <ele>768</ele>
        <time>2026-08-28T06:24:16Z</time>
      </trkpt>
      <trkpt lat="47.0849" lon="6.70953">
        <ele>762</ele>
        <time>2026-08-28T06:24:22Z</time>
      </trkpt>
      <trkpt lat="47.0849" lon="6.70953">
        <ele>762</ele>
        <time>2026-08-28T06:24:22Z</time>
      </trkpt>
      <trkpt lat="47.0847" lon="6.7098">
        <ele>762</ele>
        <time>2026-08-28T06:24:28Z</time>
      </trkpt>
      <trkpt lat="47.08465" lon="6.7099">
        <ele>762</ele>
        <time>2026-08-28T06:24:30Z</time>
      </trkpt>
      <trkpt lat="47.08456" lon="6.71014">
        <ele>765</ele>
        <time>2026-08-28T06:24:34Z</time>
      </trkpt>
      <trkpt lat="47.0845" lon="6.71022">
        <ele>767</ele>
        <time>2026-08-28T06:24:36Z</time>
      </trkpt>
      <trkpt lat="47.08429" lon="6.71042">
        <ele>772</ele>
        <time>2026-08-28T06:24:42Z</time>
      </trkpt>
      <trkpt lat="47.08425" lon="6.71036">
        <ele>772</ele>
        <time>2026-08-28T06:24:43Z</time>
      </trkpt>
      <trkpt lat="47.08424" lon="6.71037">
        <ele>772</ele>
        <time>2026-08-28T06:24:44Z</time>
      </trkpt>
      <trkpt lat="47.08426" lon="6.71045">
        <ele>773</ele>
        <time>2026-08-28T06:24:45Z</time>
      </trkpt>
      <trkpt lat="47.08429" lon="6.71051">
        <ele>774</ele>
        <time>2026-08-28T06:24:46Z</time>
      </trkpt>
      <trkpt lat="47.08434" lon="6.71065">
        <ele>775</ele>
        <time>2026-08-28T06:24:49Z</time>
      </trkpt>
      <trkpt lat="47.08437" lon="6.71069">
        <ele>775</ele>
        <time>2026-08-28T06:24:50Z</time>
      </trkpt>
      <trkpt lat="47.08459" lon="6.71093">
        <ele>773</ele>
        <time>2026-08-28T06:24:56Z</time>
      </trkpt>
      <trkpt lat="47.0849" lon="6.71128">
        <ele>770</ele>
        <time>2026-08-28T06:25:05Z</time>
      </trkpt>
      <trkpt lat="47.08509" lon="6.71158">
        <ele>771</ele>
        <time>2026-08-28T06:25:12Z</time>
      </trkpt>
      <trkpt lat="47.08518" lon="6.71169">
        <ele>771</ele>
        <time>2026-08-28T06:25:14Z</time>
      </trkpt>
      <trkpt lat="47.08555" lon="6.71217">
        <ele>768</ele>
        <time>2026-08-28T06:25:26Z</time>
      </trkpt>
      <trkpt lat="47.08558" lon="6.71222">
        <ele>767</ele>
        <time>2026-08-28T06:25:27Z</time>
      </trkpt>
      <trkpt lat="47.0856" lon="6.71228">
        <ele>767</ele>
        <time>2026-08-28T06:25:28Z</time>
      </trkpt>
      <trkpt lat="47.08571" lon="6.7127">
        <ele>766</ele>
        <time>2026-08-28T06:25:35Z</time>
      </trkpt>
      <trkpt lat="47.08573" lon="6.71284">
        <ele>766</ele>
        <time>2026-08-28T06:25:37Z</time>
      </trkpt>
      <trkpt lat="47.08575" lon="6.71302">
        <ele>765</ele>
        <time>2026-08-28T06:25:40Z</time>
      </trkpt>
      <trkpt lat="47.08576" lon="6.71322">
        <ele>765</ele>
        <time>2026-08-28T06:25:44Z</time>
      </trkpt>
      <trkpt lat="47.08577" lon="6.71333">
        <ele>765</ele>
        <time>2026-08-28T06:25:45Z</time>
      </trkpt>
      <trkpt lat="47.0858" lon="6.71344">
        <ele>766</ele>
        <time>2026-08-28T06:25:47Z</time>
      </trkpt>
      <trkpt lat="47.08597" lon="6.71393">
        <ele>768</ele>
        <time>2026-08-28T06:25:56Z</time>
      </trkpt>
      <trkpt lat="47.08604" lon="6.71407">
        <ele>769</ele>
        <time>2026-08-28T06:25:59Z</time>
      </trkpt>
      <trkpt lat="47.08612" lon="6.71418">
        <ele>768</ele>
        <time>2026-08-28T06:26:01Z</time>
      </trkpt>
      <trkpt lat="47.08633" lon="6.71443">
        <ele>770</ele>
        <time>2026-08-28T06:26:08Z</time>
      </trkpt>
      <trkpt lat="47.08666" lon="6.71477">
        <ele>769</ele>
        <time>2026-08-28T06:26:17Z</time>
      </trkpt>
      <trkpt lat="47.0868" lon="6.71493">
        <ele>771</ele>
        <time>2026-08-28T06:26:21Z</time>
      </trkpt>
      <trkpt lat="47.0869" lon="6.71505">
        <ele>772</ele>
        <time>2026-08-28T06:26:24Z</time>
      </trkpt>
      <trkpt lat="47.08704" lon="6.71524">
        <ele>774</ele>
        <time>2026-08-28T06:26:29Z</time>
      </trkpt>
      <trkpt lat="47.08711" lon="6.71536">
        <ele>775</ele>
        <time>2026-08-28T06:26:31Z</time>
      </trkpt>
      <trkpt lat="47.08717" lon="6.71553">
        <ele>777</ele>
        <time>2026-08-28T06:26:34Z</time>
      </trkpt>
      <trkpt lat="47.08719" lon="6.71566">
        <ele>779</ele>
        <time>2026-08-28T06:26:36Z</time>
      </trkpt>
      <trkpt lat="47.08724" lon="6.71578">
        <ele>781</ele>
        <time>2026-08-28T06:26:38Z</time>
      </trkpt>
      <trkpt lat="47.08726" lon="6.71586">
        <ele>781</ele>
        <time>2026-08-28T06:26:40Z</time>
      </trkpt>
      <trkpt lat="47.08736" lon="6.71647">
        <ele>782</ele>
        <time>2026-08-28T06:26:50Z</time>
      </trkpt>
      <trkpt lat="47.08752" lon="6.71703">
        <ele>780</ele>
        <time>2026-08-28T06:26:59Z</time>
      </trkpt>
      <trkpt lat="47.08762" lon="6.7175">
        <ele>781</ele>
        <time>2026-08-28T06:27:07Z</time>
      </trkpt>
      <trkpt lat="47.08784" lon="6.71806">
        <ele>776</ele>
        <time>2026-08-28T06:27:18Z</time>
      </trkpt>
      <trkpt lat="47.08798" lon="6.71849">
        <ele>772</ele>
        <time>2026-08-28T06:27:25Z</time>
      </trkpt>
      <trkpt lat="47.08803" lon="6.71867">
        <ele>772</ele>
        <time>2026-08-28T06:27:28Z</time>
      </trkpt>
      <trkpt lat="47.08806" lon="6.71886">
        <ele>772</ele>
        <time>2026-08-28T06:27:31Z</time>
      </trkpt>
      <trkpt lat="47.08813" lon="6.71911">
        <ele>771</ele>
        <time>2026-08-28T06:27:36Z</time>
      </trkpt>
      <trkpt lat="47.08827" lon="6.71947">
        <ele>765</ele>
        <time>2026-08-28T06:27:42Z</time>
      </trkpt>
      <trkpt lat="47.08829" lon="6.71955">
        <ele>765</ele>
        <time>2026-08-28T06:27:44Z</time>
      </trkpt>
      <trkpt lat="47.08836" lon="6.72013">
        <ele>766</ele>
        <time>2026-08-28T06:27:53Z</time>
      </trkpt>
      <trkpt lat="47.0884" lon="6.72034">
        <ele>766</ele>
        <time>2026-08-28T06:27:56Z</time>
      </trkpt>
      <trkpt lat="47.08849" lon="6.72058">
        <ele>764</ele>
        <time>2026-08-28T06:28:01Z</time>
      </trkpt>
      <trkpt lat="47.08853" lon="6.72085">
        <ele>764</ele>
        <time>2026-08-28T06:28:05Z</time>
      </trkpt>
      <trkpt lat="47.08847" lon="6.72198">
        <ele>771</ele>
        <time>2026-08-28T06:28:23Z</time>
      </trkpt>
      <trkpt lat="47.08847" lon="6.72216">
        <ele>773</ele>
        <time>2026-08-28T06:28:26Z</time>
      </trkpt>
      <trkpt lat="47.08853" lon="6.72236">
        <ele>772</ele>
        <time>2026-08-28T06:28:30Z</time>
      </trkpt>
      <trkpt lat="47.08861" lon="6.72253">
        <ele>769</ele>
        <time>2026-08-28T06:28:33Z</time>
      </trkpt>
      <trkpt lat="47.08892" lon="6.7232">
        <ele>763</ele>
        <time>2026-08-28T06:28:46Z</time>
      </trkpt>
      <trkpt lat="47.0892" lon="6.72374">
        <ele>757</ele>
        <time>2026-08-28T06:28:57Z</time>
      </trkpt>
      <trkpt lat="47.08937" lon="6.72419">
        <ele>758</ele>
        <time>2026-08-28T06:29:05Z</time>
      </trkpt>
      <trkpt lat="47.08948" lon="6.72444">
        <ele>761</ele>
        <time>2026-08-28T06:29:09Z</time>
      </trkpt>
      <trkpt lat="47.0897" lon="6.72476">
        <ele>760</ele>
        <time>2026-08-28T06:29:17Z</time>
      </trkpt>
      <trkpt lat="47.08977" lon="6.72485">
        <ele>759</ele>
        <time>2026-08-28T06:29:19Z</time>
      </trkpt>
      <trkpt lat="47.0898" lon="6.72487">
        <ele>758</ele>
        <time>2026-08-28T06:29:20Z</time>
      </trkpt>
      <trkpt lat="47.08993" lon="6.72493">
        <ele>752</ele>
        <time>2026-08-28T06:29:23Z</time>
      </trkpt>
      <trkpt lat="47.09013" lon="6.72501">
        <ele>747</ele>
        <time>2026-08-28T06:29:28Z</time>
      </trkpt>
      <trkpt lat="47.09035" lon="6.72526">
        <ele>747</ele>
        <time>2026-08-28T06:29:34Z</time>
      </trkpt>
      <trkpt lat="47.09048" lon="6.72533">
        <ele>745</ele>
        <time>2026-08-28T06:29:37Z</time>
      </trkpt>
      <trkpt lat="47.09055" lon="6.72536">
        <ele>744</ele>
        <time>2026-08-28T06:29:39Z</time>
      </trkpt>
      <trkpt lat="47.09063" lon="6.72542">
        <ele>742</ele>
        <time>2026-08-28T06:29:41Z</time>
      </trkpt>
      <trkpt lat="47.09078" lon="6.72556">
        <ele>740</ele>
        <time>2026-08-28T06:29:45Z</time>
      </trkpt>
      <trkpt lat="47.09083" lon="6.72562">
        <ele>739</ele>
        <time>2026-08-28T06:29:47Z</time>
      </trkpt>
      <trkpt lat="47.09092" lon="6.72582">
        <ele>740</ele>
        <time>2026-08-28T06:29:51Z</time>
      </trkpt>
      <trkpt lat="47.09093" lon="6.7259">
        <ele>739</ele>
        <time>2026-08-28T06:29:52Z</time>
      </trkpt>
      <trkpt lat="47.0909" lon="6.72604">
        <ele>739</ele>
        <time>2026-08-28T06:29:54Z</time>
      </trkpt>
      <trkpt lat="47.09082" lon="6.72621">
        <ele>738</ele>
        <time>2026-08-28T06:29:58Z</time>
      </trkpt>
      <trkpt lat="47.09077" lon="6.72626">
        <ele>739</ele>
        <time>2026-08-28T06:29:59Z</time>
      </trkpt>
      <trkpt lat="47.09068" lon="6.72633">
        <ele>742</ele>
        <time>2026-08-28T06:30:01Z</time>
      </trkpt>
      <trkpt lat="47.09062" lon="6.7264">
        <ele>743</ele>
        <time>2026-08-28T06:30:03Z</time>
      </trkpt>
      <trkpt lat="47.09056" lon="6.72651">
        <ele>744</ele>
        <time>2026-08-28T06:30:05Z</time>
      </trkpt>
      <trkpt lat="47.09052" lon="6.72663">
        <ele>744</ele>
        <time>2026-08-28T06:30:07Z</time>
      </trkpt>
      <trkpt lat="47.09046" lon="6.7267">
        <ele>745</ele>
        <time>2026-08-28T06:30:09Z</time>
      </trkpt>
      <trkpt lat="47.09041" lon="6.72675">
        <ele>745</ele>
        <time>2026-08-28T06:30:11Z</time>
      </trkpt>
      <trkpt lat="47.09016" lon="6.72686">
        <ele>751</ele>
        <time>2026-08-28T06:30:17Z</time>
      </trkpt>
      <trkpt lat="47.09004" lon="6.72693">
        <ele>753</ele>
        <time>2026-08-28T06:30:20Z</time>
      </trkpt>
      <trkpt lat="47.08998" lon="6.72704">
        <ele>753</ele>
        <time>2026-08-28T06:30:22Z</time>
      </trkpt>
      <trkpt lat="47.08996" lon="6.72714">
        <ele>751</ele>
        <time>2026-08-28T06:30:24Z</time>
      </trkpt>
      <trkpt lat="47.08995" lon="6.7273">
        <ele>748</ele>
        <time>2026-08-28T06:30:26Z</time>
      </trkpt>
      <trkpt lat="47.08996" lon="6.72743">
        <ele>745</ele>
        <time>2026-08-28T06:30:28Z</time>
      </trkpt>
      <trkpt lat="47.08992" lon="6.72749">
        <ele>746</ele>
        <time>2026-08-28T06:30:30Z</time>
      </trkpt>
      <trkpt lat="47.08985" lon="6.72753">
        <ele>750</ele>
        <time>2026-08-28T06:30:31Z</time>
      </trkpt>
      <trkpt lat="47.08983" lon="6.72758">
        <ele>750</ele>
        <time>2026-08-28T06:30:32Z</time>
      </trkpt>
      <trkpt lat="47.08982" lon="6.72764">
        <ele>750</ele>
        <time>2026-08-28T06:30:33Z</time>
      </trkpt>
      <trkpt lat="47.08985" lon="6.72774">
        <ele>746</ele>
        <time>2026-08-28T06:30:35Z</time>
      </trkpt>
      <trkpt lat="47.08986" lon="6.72781">
        <ele>745</ele>
        <time>2026-08-28T06:30:36Z</time>
      </trkpt>
      <trkpt lat="47.08985" lon="6.7279">
        <ele>744</ele>
        <time>2026-08-28T06:30:38Z</time>
      </trkpt>
      <trkpt lat="47.08975" lon="6.72823">
        <ele>744</ele>
        <time>2026-08-28T06:30:43Z</time>
      </trkpt>
      <trkpt lat="47.08972" lon="6.72828">
        <ele>745</ele>
        <time>2026-08-28T06:30:44Z</time>
      </trkpt>
      <trkpt lat="47.08955" lon="6.72837">
        <ele>753</ele>
        <time>2026-08-28T06:30:49Z</time>
      </trkpt>
      <trkpt lat="47.08915" lon="6.7287">
        <ele>768</ele>
        <time>2026-08-28T06:30:59Z</time>
      </trkpt>
      <trkpt lat="47.0891" lon="6.72879">
        <ele>769</ele>
        <time>2026-08-28T06:31:01Z</time>
      </trkpt>
      <trkpt lat="47.08902" lon="6.72895">
        <ele>771</ele>
        <time>2026-08-28T06:31:04Z</time>
      </trkpt>
      <trkpt lat="47.08899" lon="6.72915">
        <ele>768</ele>
        <time>2026-08-28T06:31:08Z</time>
      </trkpt>
      <trkpt lat="47.08897" lon="6.72919">
        <ele>769</ele>
        <time>2026-08-28T06:31:08Z</time>
      </trkpt>
      <trkpt lat="47.08887" lon="6.72936">
        <ele>772</ele>
        <time>2026-08-28T06:31:12Z</time>
      </trkpt>
      <trkpt lat="47.08877" lon="6.72958">
        <ele>776</ele>
        <time>2026-08-28T06:31:16Z</time>
      </trkpt>
      <trkpt lat="47.08866" lon="6.72968">
        <ele>781</ele>
        <time>2026-08-28T06:31:19Z</time>
      </trkpt>
      <trkpt lat="47.08863" lon="6.72974">
        <ele>782</ele>
        <time>2026-08-28T06:31:20Z</time>
      </trkpt>
      <trkpt lat="47.08863" lon="6.72979">
        <ele>781</ele>
        <time>2026-08-28T06:31:21Z</time>
      </trkpt>
      <trkpt lat="47.08866" lon="6.72991">
        <ele>778</ele>
        <time>2026-08-28T06:31:23Z</time>
      </trkpt>
      <trkpt lat="47.08866" lon="6.72997">
        <ele>778</ele>
        <time>2026-08-28T06:31:24Z</time>
      </trkpt>
      <trkpt lat="47.08865" lon="6.73004">
        <ele>777</ele>
        <time>2026-08-28T06:31:25Z</time>
      </trkpt>
      <trkpt lat="47.08867" lon="6.7302">
        <ele>774</ele>
        <time>2026-08-28T06:31:28Z</time>
      </trkpt>
      <trkpt lat="47.08864" lon="6.73043">
        <ele>773</ele>
        <time>2026-08-28T06:31:32Z</time>
      </trkpt>
      <trkpt lat="47.08861" lon="6.7305">
        <ele>774</ele>
        <time>2026-08-28T06:31:33Z</time>
      </trkpt>
      <trkpt lat="47.0886" lon="6.73069">
        <ele>773</ele>
        <time>2026-08-28T06:31:36Z</time>
      </trkpt>
      <trkpt lat="47.0886" lon="6.73088">
        <ele>771</ele>
        <time>2026-08-28T06:31:39Z</time>
      </trkpt>
      <trkpt lat="47.08858" lon="6.73094">
        <ele>772</ele>
        <time>2026-08-28T06:31:40Z</time>
      </trkpt>
      <trkpt lat="47.08851" lon="6.73102">
        <ele>777</ele>
        <time>2026-08-28T06:31:42Z</time>
      </trkpt>
      <trkpt lat="47.08848" lon="6.73109">
        <ele>779</ele>
        <time>2026-08-28T06:31:43Z</time>
      </trkpt>
      <trkpt lat="47.08848" lon="6.73126">
        <ele>777</ele>
        <time>2026-08-28T06:31:46Z</time>
      </trkpt>
      <trkpt lat="47.08846" lon="6.73133">
        <ele>778</ele>
        <time>2026-08-28T06:31:47Z</time>
      </trkpt>
      <trkpt lat="47.08847" lon="6.73141">
        <ele>776</ele>
        <time>2026-08-28T06:31:49Z</time>
      </trkpt>
      <trkpt lat="47.0885" lon="6.73145">
        <ele>774</ele>
        <time>2026-08-28T06:31:50Z</time>
      </trkpt>
      <trkpt lat="47.08858" lon="6.73152">
        <ele>767</ele>
        <time>2026-08-28T06:31:52Z</time>
      </trkpt>
      <trkpt lat="47.08859" lon="6.73154">
        <ele>766</ele>
        <time>2026-08-28T06:31:52Z</time>
      </trkpt>
      <trkpt lat="47.08857" lon="6.73157">
        <ele>767</ele>
        <time>2026-08-28T06:31:53Z</time>
      </trkpt>
      <trkpt lat="47.08854" lon="6.7316">
        <ele>769</ele>
        <time>2026-08-28T06:31:54Z</time>
      </trkpt>
      <trkpt lat="47.08854" lon="6.73164">
        <ele>769</ele>
        <time>2026-08-28T06:31:54Z</time>
      </trkpt>
      <trkpt lat="47.08855" lon="6.73178">
        <ele>769</ele>
        <time>2026-08-28T06:31:57Z</time>
      </trkpt>
      <trkpt lat="47.08857" lon="6.73186">
        <ele>768</ele>
        <time>2026-08-28T06:31:58Z</time>
      </trkpt>
      <trkpt lat="47.08858" lon="6.73193">
        <ele>767</ele>
        <time>2026-08-28T06:31:59Z</time>
      </trkpt>
      <trkpt lat="47.08856" lon="6.73223">
        <ele>771</ele>
        <time>2026-08-28T06:32:04Z</time>
      </trkpt>
      <trkpt lat="47.08857" lon="6.73241">
        <ele>771</ele>
        <time>2026-08-28T06:32:07Z</time>
      </trkpt>
      <trkpt lat="47.08855" lon="6.7325">
        <ele>773</ele>
        <time>2026-08-28T06:32:08Z</time>
      </trkpt>
      <trkpt lat="47.08856" lon="6.73256">
        <ele>772</ele>
        <time>2026-08-28T06:32:09Z</time>
      </trkpt>
      <trkpt lat="47.08862" lon="6.73288">
        <ele>766</ele>
        <time>2026-08-28T06:32:14Z</time>
      </trkpt>
      <trkpt lat="47.08867" lon="6.73314">
        <ele>762</ele>
        <time>2026-08-28T06:32:19Z</time>
      </trkpt>
      <trkpt lat="47.08868" lon="6.7333">
        <ele>761</ele>
        <time>2026-08-28T06:32:21Z</time>
      </trkpt>
      <trkpt lat="47.08869" lon="6.73365">
        <ele>760</ele>
        <time>2026-08-28T06:32:27Z</time>
      </trkpt>
      <trkpt lat="47.08866" lon="6.73418">
        <ele>764</ele>
        <time>2026-08-28T06:32:35Z</time>
      </trkpt>
      <trkpt lat="47.08867" lon="6.73454">
        <ele>764</ele>
        <time>2026-08-28T06:32:41Z</time>
      </trkpt>
      <trkpt lat="47.0887" lon="6.73488">
        <ele>763</ele>
        <time>2026-08-28T06:32:47Z</time>
      </trkpt>
      <trkpt lat="47.08871" lon="6.73515">
        <ele>765</ele>
        <time>2026-08-28T06:32:51Z</time>
      </trkpt>
      <trkpt lat="47.08873" lon="6.73538">
        <ele>766</ele>
        <time>2026-08-28T06:32:55Z</time>
      </trkpt>
      <trkpt lat="47.08881" lon="6.73586">
        <ele>766</ele>
        <time>2026-08-28T06:33:02Z</time>
      </trkpt>
      <trkpt lat="47.08898" lon="6.73652">
        <ele>756</ele>
        <time>2026-08-28T06:33:14Z</time>
      </trkpt>
      <trkpt lat="47.08909" lon="6.73673">
        <ele>749</ele>
        <time>2026-08-28T06:33:18Z</time>
      </trkpt>
      <trkpt lat="47.08917" lon="6.73693">
        <ele>744</ele>
        <time>2026-08-28T06:33:21Z</time>
      </trkpt>
      <trkpt lat="47.08918" lon="6.737">
        <ele>744</ele>
        <time>2026-08-28T06:33:23Z</time>
      </trkpt>
      <trkpt lat="47.08918" lon="6.73708">
        <ele>745</ele>
        <time>2026-08-28T06:33:24Z</time>
      </trkpt>
      <trkpt lat="47.08916" lon="6.73724">
        <ele>746</ele>
        <time>2026-08-28T06:33:26Z</time>
      </trkpt>
      <trkpt lat="47.08923" lon="6.73753">
        <ele>745</ele>
        <time>2026-08-28T06:33:31Z</time>
      </trkpt>
      <trkpt lat="47.08928" lon="6.73793">
        <ele>746</ele>
        <time>2026-08-28T06:33:38Z</time>
      </trkpt>
      <trkpt lat="47.08929" lon="6.7381">
        <ele>746</ele>
        <time>2026-08-28T06:33:41Z</time>
      </trkpt>
      <trkpt lat="47.08929" lon="6.73824">
        <ele>747</ele>
        <time>2026-08-28T06:33:43Z</time>
      </trkpt>
      <trkpt lat="47.08927" lon="6.73856">
        <ele>749</ele>
        <time>2026-08-28T06:33:48Z</time>
      </trkpt>
      <trkpt lat="47.08927" lon="6.73884">
        <ele>749</ele>
        <time>2026-08-28T06:33:52Z</time>
      </trkpt>
      <trkpt lat="47.08932" lon="6.73946">
        <ele>753</ele>
        <time>2026-08-28T06:34:02Z</time>
      </trkpt>
      <trkpt lat="47.08937" lon="6.73975">
        <ele>755</ele>
        <time>2026-08-28T06:34:07Z</time>
      </trkpt>
      <trkpt lat="47.08936" lon="6.73993">
        <ele>758</ele>
        <time>2026-08-28T06:34:10Z</time>
      </trkpt>
      <trkpt lat="47.08939" lon="6.74016">
        <ele>760</ele>
        <time>2026-08-28T06:34:14Z</time>
      </trkpt>
      <trkpt lat="47.08945" lon="6.74037">
        <ele>761</ele>
        <time>2026-08-28T06:34:17Z</time>
      </trkpt>
      <trkpt lat="47.0895" lon="6.74048">
        <ele>760</ele>
        <time>2026-08-28T06:34:19Z</time>
      </trkpt>
      <trkpt lat="47.08951" lon="6.74056">
        <ele>761</ele>
        <time>2026-08-28T06:34:21Z</time>
      </trkpt>
      <trkpt lat="47.08955" lon="6.74064">
        <ele>760</ele>
        <time>2026-08-28T06:34:22Z</time>
      </trkpt>
      <trkpt lat="47.08963" lon="6.74089">
        <ele>759</ele>
        <time>2026-08-28T06:34:27Z</time>
      </trkpt>
      <trkpt lat="47.08972" lon="6.74101">
        <ele>757</ele>
        <time>2026-08-28T06:34:29Z</time>
      </trkpt>
      <trkpt lat="47.08976" lon="6.74113">
        <ele>757</ele>
        <time>2026-08-28T06:34:32Z</time>
      </trkpt>
      <trkpt lat="47.08987" lon="6.74132">
        <ele>754</ele>
        <time>2026-08-28T06:34:36Z</time>
      </trkpt>
      <trkpt lat="47.09001" lon="6.74165">
        <ele>753</ele>
        <time>2026-08-28T06:34:42Z</time>
      </trkpt>
      <trkpt lat="47.09003" lon="6.74179">
        <ele>756</ele>
        <time>2026-08-28T06:34:44Z</time>
      </trkpt>
      <trkpt lat="47.09009" lon="6.74184">
        <ele>754</ele>
        <time>2026-08-28T06:34:46Z</time>
      </trkpt>
      <trkpt lat="47.09015" lon="6.74194">
        <ele>754</ele>
        <time>2026-08-28T06:34:48Z</time>
      </trkpt>
      <trkpt lat="47.09022" lon="6.74211">
        <ele>754</ele>
        <time>2026-08-28T06:34:51Z</time>
      </trkpt>
      <trkpt lat="47.09041" lon="6.7424">
        <ele>749</ele>
        <time>2026-08-28T06:34:57Z</time>
      </trkpt>
      <trkpt lat="47.09044" lon="6.74249">
        <ele>748</ele>
        <time>2026-08-28T06:34:59Z</time>
      </trkpt>
      <trkpt lat="47.09046" lon="6.7426">
        <ele>749</ele>
        <time>2026-08-28T06:35:01Z</time>
      </trkpt>
      <trkpt lat="47.0905" lon="6.74267">
        <ele>748</ele>
        <time>2026-08-28T06:35:02Z</time>
      </trkpt>
      <trkpt lat="47.09056" lon="6.74297">
        <ele>751</ele>
        <time>2026-08-28T06:35:07Z</time>
      </trkpt>
      <trkpt lat="47.09052" lon="6.7432">
        <ele>758</ele>
        <time>2026-08-28T06:35:11Z</time>
      </trkpt>
      <trkpt lat="47.09053" lon="6.74331">
        <ele>760</ele>
        <time>2026-08-28T06:35:13Z</time>
      </trkpt>
      <trkpt lat="47.09057" lon="6.7434">
        <ele>760</ele>
        <time>2026-08-28T06:35:14Z</time>
      </trkpt>
      <trkpt lat="47.09059" lon="6.74356">
        <ele>763</ele>
        <time>2026-08-28T06:35:17Z</time>
      </trkpt>
      <trkpt lat="47.09061" lon="6.74359">
        <ele>763</ele>
        <time>2026-08-28T06:35:18Z</time>
      </trkpt>
      <trkpt lat="47.0908" lon="6.74351">
        <ele>750</ele>
        <time>2026-08-28T06:35:22Z</time>
      </trkpt>
      <trkpt lat="47.09085" lon="6.74351">
        <ele>747</ele>
        <time>2026-08-28T06:35:23Z</time>
      </trkpt>
      <trkpt lat="47.0909" lon="6.74363">
        <ele>749</ele>
        <time>2026-08-28T06:35:26Z</time>
      </trkpt>
      <trkpt lat="47.09096" lon="6.74371">
        <ele>749</ele>
        <time>2026-08-28T06:35:28Z</time>
      </trkpt>
      <trkpt lat="47.091" lon="6.74379">
        <ele>750</ele>
        <time>2026-08-28T06:35:29Z</time>
      </trkpt>
      <trkpt lat="47.09099" lon="6.74388">
        <ele>753</ele>
        <time>2026-08-28T06:35:31Z</time>
      </trkpt>
      <trkpt lat="47.09102" lon="6.74424">
        <ele>762</ele>
        <time>2026-08-28T06:35:36Z</time>
      </trkpt>
      <trkpt lat="47.09105" lon="6.74434">
        <ele>763</ele>
        <time>2026-08-28T06:35:38Z</time>
      </trkpt>
      <trkpt lat="47.09106" lon="6.74443">
        <ele>766</ele>
        <time>2026-08-28T06:35:40Z</time>
      </trkpt>
      <trkpt lat="47.0912" lon="6.74457">
        <ele>763</ele>
        <time>2026-08-28T06:35:43Z</time>
      </trkpt>
      <trkpt lat="47.09123" lon="6.74459">
        <ele>762</ele>
        <time>2026-08-28T06:35:44Z</time>
      </trkpt>
      <trkpt lat="47.09137" lon="6.74457">
        <ele>755</ele>
        <time>2026-08-28T06:35:48Z</time>
      </trkpt>
      <trkpt lat="47.0914" lon="6.74458">
        <ele>754</ele>
        <time>2026-08-28T06:35:48Z</time>
      </trkpt>
      <trkpt lat="47.09145" lon="6.74467">
        <ele>754</ele>
        <time>2026-08-28T06:35:50Z</time>
      </trkpt>
      <trkpt lat="47.09148" lon="6.74477">
        <ele>755</ele>
        <time>2026-08-28T06:35:52Z</time>
      </trkpt>
      <trkpt lat="47.09148" lon="6.74483">
        <ele>757</ele>
        <time>2026-08-28T06:35:53Z</time>
      </trkpt>
      <trkpt lat="47.0915" lon="6.74486">
        <ele>757</ele>
        <time>2026-08-28T06:35:53Z</time>
      </trkpt>
      <trkpt lat="47.09157" lon="6.74489">
        <ele>754</ele>
        <time>2026-08-28T06:35:55Z</time>
      </trkpt>
      <trkpt lat="47.09168" lon="6.74484">
        <ele>747</ele>
        <time>2026-08-28T06:35:58Z</time>
      </trkpt>
      <trkpt lat="47.09174" lon="6.74486">
        <ele>746</ele>
        <time>2026-08-28T06:35:59Z</time>
      </trkpt>
      <trkpt lat="47.09182" lon="6.74493">
        <ele>745</ele>
        <time>2026-08-28T06:36:01Z</time>
      </trkpt>
      <trkpt lat="47.09193" lon="6.74513">
        <ele>748</ele>
        <time>2026-08-28T06:36:06Z</time>
      </trkpt>
      <trkpt lat="47.0921" lon="6.74533">
        <ele>749</ele>
        <time>2026-08-28T06:36:11Z</time>
      </trkpt>
      <trkpt lat="47.09224" lon="6.7455">
        <ele>750</ele>
        <time>2026-08-28T06:36:15Z</time>
      </trkpt>
      <trkpt lat="47.09241" lon="6.74572">
        <ele>750</ele>
        <time>2026-08-28T06:36:20Z</time>
      </trkpt>
      <trkpt lat="47.09249" lon="6.74579">
        <ele>749</ele>
        <time>2026-08-28T06:36:22Z</time>
      </trkpt>
      <trkpt lat="47.09265" lon="6.74588">
        <ele>748</ele>
        <time>2026-08-28T06:36:26Z</time>
      </trkpt>
      <trkpt lat="47.0928" lon="6.746">
        <ele>748</ele>
        <time>2026-08-28T06:36:30Z</time>
      </trkpt>
      <trkpt lat="47.09292" lon="6.74611">
        <ele>749</ele>
        <time>2026-08-28T06:36:34Z</time>
      </trkpt>
      <trkpt lat="47.09315" lon="6.74626">
        <ele>747</ele>
        <time>2026-08-28T06:36:40Z</time>
      </trkpt>
      <trkpt lat="47.09324" lon="6.74634">
        <ele>747</ele>
        <time>2026-08-28T06:36:42Z</time>
      </trkpt>
      <trkpt lat="47.09332" lon="6.74644">
        <ele>747</ele>
        <time>2026-08-28T06:36:44Z</time>
      </trkpt>
      <trkpt lat="47.09342" lon="6.74651">
        <ele>748</ele>
        <time>2026-08-28T06:36:47Z</time>
      </trkpt>
      <trkpt lat="47.09349" lon="6.74654">
        <ele>749</ele>
        <time>2026-08-28T06:36:49Z</time>
      </trkpt>
      <trkpt lat="47.09369" lon="6.74653">
        <ele>748</ele>
        <time>2026-08-28T06:36:53Z</time>
      </trkpt>
      <trkpt lat="47.09387" lon="6.7465">
        <ele>746</ele>
        <time>2026-08-28T06:36:58Z</time>
      </trkpt>
      <trkpt lat="47.09396" lon="6.7465">
        <ele>746</ele>
        <time>2026-08-28T06:37:00Z</time>
      </trkpt>
      <trkpt lat="47.09411" lon="6.74656">
        <ele>747</ele>
        <time>2026-08-28T06:37:03Z</time>
      </trkpt>
      <trkpt lat="47.09447" lon="6.74678">
        <ele>752</ele>
        <time>2026-08-28T06:37:12Z</time>
      </trkpt>
      <trkpt lat="47.09474" lon="6.74698">
        <ele>759</ele>
        <time>2026-08-28T06:37:20Z</time>
      </trkpt>
      <trkpt lat="47.09502" lon="6.74726">
        <ele>767</ele>
        <time>2026-08-28T06:37:27Z</time>
      </trkpt>
      <trkpt lat="47.09515" lon="6.74747">
        <ele>772</ele>
        <time>2026-08-28T06:37:32Z</time>
      </trkpt>
      <trkpt lat="47.09519" lon="6.74756">
        <ele>774</ele>
        <time>2026-08-28T06:37:34Z</time>
      </trkpt>
      <trkpt lat="47.09534" lon="6.74786">
        <ele>782</ele>
        <time>2026-08-28T06:37:40Z</time>
      </trkpt>
      <trkpt lat="47.09544" lon="6.74801">
        <ele>785</ele>
        <time>2026-08-28T06:37:43Z</time>
      </trkpt>
      <trkpt lat="47.0956" lon="6.74803">
        <ele>781</ele>
        <time>2026-08-28T06:37:47Z</time>
      </trkpt>
      <trkpt lat="47.09576" lon="6.74807">
        <ele>777</ele>
        <time>2026-08-28T06:37:50Z</time>
      </trkpt>
      <trkpt lat="47.09609" lon="6.74824">
        <ele>773</ele>
        <time>2026-08-28T06:37:59Z</time>
      </trkpt>
      <trkpt lat="47.0963" lon="6.74834">
        <ele>771</ele>
        <time>2026-08-28T06:38:04Z</time>
      </trkpt>
      <trkpt lat="47.09666" lon="6.74846">
        <ele>765</ele>
        <time>2026-08-28T06:38:12Z</time>
      </trkpt>
      <trkpt lat="47.09673" lon="6.7485">
        <ele>766</ele>
        <time>2026-08-28T06:38:14Z</time>
      </trkpt>
      <trkpt lat="47.09681" lon="6.74857">
        <ele>769</ele>
        <time>2026-08-28T06:38:16Z</time>
      </trkpt>
      <trkpt lat="47.09686" lon="6.7486">
        <ele>770</ele>
        <time>2026-08-28T06:38:18Z</time>
      </trkpt>
      <trkpt lat="47.09693" lon="6.7486">
        <ele>770</ele>
        <time>2026-08-28T06:38:19Z</time>
      </trkpt>
      <trkpt lat="47.09716" lon="6.74859">
        <ele>766</ele>
        <time>2026-08-28T06:38:25Z</time>
      </trkpt>
      <trkpt lat="47.09732" lon="6.74859">
        <ele>765</ele>
        <time>2026-08-28T06:38:28Z</time>
      </trkpt>
      <trkpt lat="47.09753" lon="6.74865">
        <ele>766</ele>
        <time>2026-08-28T06:38:33Z</time>
      </trkpt>
      <trkpt lat="47.09783" lon="6.74864">
        <ele>763</ele>
        <time>2026-08-28T06:38:40Z</time>
      </trkpt>
      <trkpt lat="47.09861" lon="6.74856">
        <ele>758</ele>
        <time>2026-08-28T06:38:59Z</time>
      </trkpt>
      <trkpt lat="47.09901" lon="6.7484">
        <ele>752</ele>
        <time>2026-08-28T06:39:08Z</time>
      </trkpt>
      <trkpt lat="47.09941" lon="6.74826">
        <ele>755</ele>
        <time>2026-08-28T06:39:18Z</time>
      </trkpt>
      <trkpt lat="47.09948" lon="6.74823">
        <ele>755</ele>
        <time>2026-08-28T06:39:20Z</time>
      </trkpt>
      <trkpt lat="47.09962" lon="6.74814">
        <ele>756</ele>
        <time>2026-08-28T06:39:23Z</time>
      </trkpt>
      <trkpt lat="47.09974" lon="6.74804">
        <ele>754</ele>
        <time>2026-08-28T06:39:26Z</time>
      </trkpt>
      <trkpt lat="47.10008" lon="6.74772">
        <ele>748</ele>
        <time>2026-08-28T06:39:36Z</time>
      </trkpt>
      <trkpt lat="47.10041" lon="6.7472">
        <ele>741</ele>
        <time>2026-08-28T06:39:47Z</time>
      </trkpt>
      <trkpt lat="47.10098" lon="6.74702">
        <ele>751</ele>
        <time>2026-08-28T06:40:01Z</time>
      </trkpt>
      <trkpt lat="47.10125" lon="6.74665">
        <ele>747</ele>
        <time>2026-08-28T06:40:09Z</time>
      </trkpt>
      <trkpt lat="47.10139" lon="6.74632">
        <ele>745</ele>
        <time>2026-08-28T06:40:16Z</time>
      </trkpt>
      <trkpt lat="47.10168" lon="6.74601">
        <ele>745</ele>
        <time>2026-08-28T06:40:24Z</time>
      </trkpt>
      <trkpt lat="47.10199" lon="6.74529">
        <ele>745</ele>
        <time>2026-08-28T06:40:37Z</time>
      </trkpt>
      <trkpt lat="47.1022" lon="6.74506">
        <ele>751</ele>
        <time>2026-08-28T06:40:44Z</time>
      </trkpt>
      <trkpt lat="47.10224" lon="6.74483">
        <ele>741</ele>
        <time>2026-08-28T06:40:47Z</time>
      </trkpt>
      <trkpt lat="47.10241" lon="6.74464">
        <ele>736</ele>
        <time>2026-08-28T06:40:52Z</time>
      </trkpt>
      <trkpt lat="47.10266" lon="6.74426">
        <ele>724</ele>
        <time>2026-08-28T06:41:01Z</time>
      </trkpt>
      <trkpt lat="47.10241" lon="6.74453">
        <ele>728</ele>
        <time>2026-08-28T06:41:08Z</time>
      </trkpt>
      <trkpt lat="47.10221" lon="6.74461">
        <ele>726</ele>
        <time>2026-08-28T06:41:13Z</time>
      </trkpt>
      <trkpt lat="47.10257" lon="6.74405">
        <ele>705</ele>
        <time>2026-08-28T06:41:25Z</time>
      </trkpt>
      <trkpt lat="47.10275" lon="6.74382">
        <ele>709</ele>
        <time>2026-08-28T06:41:31Z</time>
      </trkpt>
      <trkpt lat="47.10282" lon="6.7436">
        <ele>703</ele>
        <time>2026-08-28T06:41:34Z</time>
      </trkpt>
      <trkpt lat="47.10294" lon="6.74329">
        <ele>695</ele>
        <time>2026-08-28T06:41:40Z</time>
      </trkpt>
      <trkpt lat="47.10312" lon="6.743">
        <ele>697</ele>
        <time>2026-08-28T06:41:46Z</time>
      </trkpt>
      <trkpt lat="47.10338" lon="6.74258">
        <ele>686</ele>
        <time>2026-08-28T06:41:55Z</time>
      </trkpt>
      <trkpt lat="47.10382" lon="6.74214">
        <ele>697</ele>
        <time>2026-08-28T06:42:08Z</time>
      </trkpt>
      <trkpt lat="47.10402" lon="6.74209">
        <ele>698</ele>
        <time>2026-08-28T06:42:13Z</time>
      </trkpt>
      <trkpt lat="47.10421" lon="6.74197">
        <ele>695</ele>
        <time>2026-08-28T06:42:17Z</time>
      </trkpt>
      <trkpt lat="47.10431" lon="6.74196">
        <ele>697</ele>
        <time>2026-08-28T06:42:20Z</time>
      </trkpt>
      <trkpt lat="47.10461" lon="6.74181">
        <ele>697</ele>
        <time>2026-08-28T06:42:27Z</time>
      </trkpt>
      <trkpt lat="47.10497" lon="6.7415">
        <ele>693</ele>
        <time>2026-08-28T06:42:37Z</time>
      </trkpt>
      <trkpt lat="47.10506" lon="6.74147">
        <ele>695</ele>
        <time>2026-08-28T06:42:39Z</time>
      </trkpt>
      <trkpt lat="47.10561" lon="6.74141">
        <ele>709</ele>
        <time>2026-08-28T06:42:52Z</time>
      </trkpt>
      <trkpt lat="47.10605" lon="6.74139">
        <ele>718</ele>
        <time>2026-08-28T06:43:02Z</time>
      </trkpt>
      <trkpt lat="47.10621" lon="6.74135">
        <ele>720</ele>
        <time>2026-08-28T06:43:06Z</time>
      </trkpt>
      <trkpt lat="47.10653" lon="6.74119">
        <ele>718</ele>
        <time>2026-08-28T06:43:14Z</time>
      </trkpt>
      <trkpt lat="47.10703" lon="6.74099">
        <ele>714</ele>
        <time>2026-08-28T06:43:26Z</time>
      </trkpt>
      <trkpt lat="47.10763" lon="6.74066">
        <ele>706</ele>
        <time>2026-08-28T06:43:41Z</time>
      </trkpt>
      <trkpt lat="47.1081" lon="6.74045">
        <ele>702</ele>
        <time>2026-08-28T06:43:52Z</time>
      </trkpt>
      <trkpt lat="47.10834" lon="6.74037">
        <ele>702</ele>
        <time>2026-08-28T06:43:58Z</time>
      </trkpt>
      <trkpt lat="47.10851" lon="6.74039">
        <ele>701</ele>
        <time>2026-08-28T06:44:02Z</time>
      </trkpt>
      <trkpt lat="47.10899" lon="6.7405">
        <ele>699</ele>
        <time>2026-08-28T06:44:13Z</time>
      </trkpt>
      <trkpt lat="47.1093" lon="6.74065">
        <ele>697</ele>
        <time>2026-08-28T06:44:21Z</time>
      </trkpt>
      <trkpt lat="47.10941" lon="6.74077">
        <ele>696</ele>
        <time>2026-08-28T06:44:24Z</time>
      </trkpt>
      <trkpt lat="47.1096" lon="6.74148">
        <ele>704</ele>
        <time>2026-08-28T06:44:36Z</time>
      </trkpt>
      <trkpt lat="47.10962" lon="6.74209">
        <ele>709</ele>
        <time>2026-08-28T06:44:46Z</time>
      </trkpt>
      <trkpt lat="47.10929" lon="6.74366">
        <ele>721</ele>
        <time>2026-08-28T06:45:12Z</time>
      </trkpt>
      <trkpt lat="47.10928" lon="6.74471">
        <ele>719</ele>
        <time>2026-08-28T06:45:29Z</time>
      </trkpt>
      <trkpt lat="47.10938" lon="6.74531">
        <ele>720</ele>
        <time>2026-08-28T06:45:39Z</time>
      </trkpt>
      <trkpt lat="47.10941" lon="6.74572">
        <ele>721</ele>
        <time>2026-08-28T06:45:45Z</time>
      </trkpt>
      <trkpt lat="47.10944" lon="6.74602">
        <ele>720</ele>
        <time>2026-08-28T06:45:50Z</time>
      </trkpt>
      <trkpt lat="47.10938" lon="6.74634">
        <ele>722</ele>
        <time>2026-08-28T06:45:55Z</time>
      </trkpt>
      <trkpt lat="47.10951" lon="6.74689">
        <ele>716</ele>
        <time>2026-08-28T06:46:05Z</time>
      </trkpt>
      <trkpt lat="47.10973" lon="6.7472">
        <ele>705</ele>
        <time>2026-08-28T06:46:12Z</time>
      </trkpt>
      <trkpt lat="47.1098" lon="6.74737">
        <ele>701</ele>
        <time>2026-08-28T06:46:15Z</time>
      </trkpt>
      <trkpt lat="47.10996" lon="6.74752">
        <ele>691</ele>
        <time>2026-08-28T06:46:19Z</time>
      </trkpt>
      <trkpt lat="47.11015" lon="6.74783">
        <ele>698</ele>
        <time>2026-08-28T06:46:26Z</time>
      </trkpt>
      <trkpt lat="47.11062" lon="6.74816">
        <ele>688</ele>
        <time>2026-08-28T06:46:38Z</time>
      </trkpt>
      <trkpt lat="47.11087" lon="6.74859">
        <ele>687</ele>
        <time>2026-08-28T06:46:47Z</time>
      </trkpt>
      <trkpt lat="47.1115" lon="6.74938">
        <ele>684</ele>
        <time>2026-08-28T06:47:07Z</time>
      </trkpt>
      <trkpt lat="47.11205" lon="6.74997">
        <ele>688</ele>
        <time>2026-08-28T06:47:22Z</time>
      </trkpt>
      <trkpt lat="47.11219" lon="6.75016">
        <ele>690</ele>
        <time>2026-08-28T06:47:27Z</time>
      </trkpt>
      <trkpt lat="47.11231" lon="6.75034">
        <ele>692</ele>
        <time>2026-08-28T06:47:31Z</time>
      </trkpt>
      <trkpt lat="47.11238" lon="6.7504">
        <ele>691</ele>
        <time>2026-08-28T06:47:33Z</time>
      </trkpt>
      <trkpt lat="47.11266" lon="6.75062">
        <ele>689</ele>
        <time>2026-08-28T06:47:40Z</time>
      </trkpt>
      <trkpt lat="47.11311" lon="6.75096">
        <ele>688</ele>
        <time>2026-08-28T06:47:52Z</time>
      </trkpt>
      <trkpt lat="47.11344" lon="6.75128">
        <ele>692</ele>
        <time>2026-08-28T06:48:01Z</time>
      </trkpt>
      <trkpt lat="47.11441" lon="6.75213">
        <ele>696</ele>
        <time>2026-08-28T06:48:28Z</time>
      </trkpt>
      <trkpt lat="47.11464" lon="6.75292">
        <ele>701</ele>
        <time>2026-08-28T06:48:41Z</time>
      </trkpt>
      <trkpt lat="47.11474" lon="6.75355">
        <ele>702</ele>
        <time>2026-08-28T06:48:52Z</time>
      </trkpt>
      <trkpt lat="47.11496" lon="6.75411">
        <ele>696</ele>
        <time>2026-08-28T06:49:02Z</time>
      </trkpt>
      <trkpt lat="47.11526" lon="6.75466">
        <ele>701</ele>
        <time>2026-08-28T06:49:13Z</time>
      </trkpt>
      <trkpt lat="47.11553" lon="6.7551">
        <ele>693</ele>
        <time>2026-08-28T06:49:22Z</time>
      </trkpt>
      <trkpt lat="47.11568" lon="6.75556">
        <ele>691</ele>
        <time>2026-08-28T06:49:31Z</time>
      </trkpt>
      <trkpt lat="47.11583" lon="6.75562">
        <ele>682</ele>
        <time>2026-08-28T06:49:34Z</time>
      </trkpt>
      <trkpt lat="47.11588" lon="6.75572">
        <ele>683</ele>
        <time>2026-08-28T06:49:36Z</time>
      </trkpt>
      <trkpt lat="47.1162" lon="6.75601">
        <ele>688</ele>
        <time>2026-08-28T06:49:45Z</time>
      </trkpt>
      <trkpt lat="47.11647" lon="6.75642">
        <ele>691</ele>
        <time>2026-08-28T06:49:54Z</time>
      </trkpt>
      <trkpt lat="47.11667" lon="6.75672">
        <ele>687</ele>
        <time>2026-08-28T06:50:01Z</time>
      </trkpt>
      <trkpt lat="47.11679" lon="6.75684">
        <ele>693</ele>
        <time>2026-08-28T06:50:04Z</time>
      </trkpt>
      <trkpt lat="47.11709" lon="6.7575">
        <ele>697</ele>
        <time>2026-08-28T06:50:17Z</time>
      </trkpt>
      <trkpt lat="47.11721" lon="6.75818">
        <ele>698</ele>
        <time>2026-08-28T06:50:28Z</time>
      </trkpt>
      <trkpt lat="47.11736" lon="6.75864">
        <ele>696</ele>
        <time>2026-08-28T06:50:36Z</time>
      </trkpt>
      <trkpt lat="47.11731" lon="6.75898">
        <ele>709</ele>
        <time>2026-08-28T06:50:41Z</time>
      </trkpt>
      <trkpt lat="47.11777" lon="6.75973">
        <ele>704</ele>
        <time>2026-08-28T06:50:58Z</time>
      </trkpt>
      <trkpt lat="47.11815" lon="6.76016">
        <ele>683</ele>
        <time>2026-08-28T06:51:09Z</time>
      </trkpt>
      <trkpt lat="47.11836" lon="6.76051">
        <ele>672</ele>
        <time>2026-08-28T06:51:16Z</time>
      </trkpt>
      <trkpt lat="47.11894" lon="6.76213">
        <ele>693</ele>
        <time>2026-08-28T06:51:45Z</time>
      </trkpt>
      <trkpt lat="47.11944" lon="6.7633">
        <ele>686</ele>
        <time>2026-08-28T06:52:07Z</time>
      </trkpt>
      <trkpt lat="47.11982" lon="6.76426">
        <ele>670</ele>
        <time>2026-08-28T06:52:25Z</time>
      </trkpt>
      <trkpt lat="47.12006" lon="6.76487">
        <ele>678</ele>
        <time>2026-08-28T06:52:36Z</time>
      </trkpt>
      <trkpt lat="47.12016" lon="6.76518">
        <ele>685</ele>
        <time>2026-08-28T06:52:41Z</time>
      </trkpt>
      <trkpt lat="47.12058" lon="6.76651">
        <ele>688</ele>
        <time>2026-08-28T06:53:05Z</time>
      </trkpt>
      <trkpt lat="47.12081" lon="6.7677">
        <ele>667</ele>
        <time>2026-08-28T06:53:24Z</time>
      </trkpt>
      <trkpt lat="47.12128" lon="6.77087">
        <ele>679</ele>
        <time>2026-08-28T06:54:16Z</time>
      </trkpt>
      <trkpt lat="47.1213" lon="6.77112">
        <ele>676</ele>
        <time>2026-08-28T06:54:20Z</time>
      </trkpt>
      <trkpt lat="47.12132" lon="6.77135">
        <ele>674</ele>
        <time>2026-08-28T06:54:24Z</time>
      </trkpt>
      <trkpt lat="47.12133" lon="6.77176">
        <ele>671</ele>
        <time>2026-08-28T06:54:30Z</time>
      </trkpt>
      <trkpt lat="47.1213" lon="6.77216">
        <ele>666</ele>
        <time>2026-08-28T06:54:37Z</time>
      </trkpt>
      <trkpt lat="47.12131" lon="6.77228">
        <ele>665</ele>
        <time>2026-08-28T06:54:39Z</time>
      </trkpt>
      <trkpt lat="47.12132" lon="6.77259">
        <ele>663</ele>
        <time>2026-08-28T06:54:43Z</time>
      </trkpt>
      <trkpt lat="47.12132" lon="6.77277">
        <ele>665</ele>
        <time>2026-08-28T06:54:46Z</time>
      </trkpt>
      <trkpt lat="47.12123" lon="6.77304">
        <ele>669</ele>
        <time>2026-08-28T06:54:51Z</time>
      </trkpt>
      <trkpt lat="47.12115" lon="6.77334">
        <ele>671</ele>
        <time>2026-08-28T06:54:56Z</time>
      </trkpt>
      <trkpt lat="47.12111" lon="6.77338">
        <ele>670</ele>
        <time>2026-08-28T06:54:57Z</time>
      </trkpt>
      <trkpt lat="47.12098" lon="6.77334">
        <ele>668</ele>
        <time>2026-08-28T06:55:00Z</time>
      </trkpt>
      <trkpt lat="47.12093" lon="6.77402">
        <ele>666</ele>
        <time>2026-08-28T06:55:11Z</time>
      </trkpt>
      <trkpt lat="47.12082" lon="6.77402">
        <ele>664</ele>
        <time>2026-08-28T06:55:14Z</time>
      </trkpt>
      <trkpt lat="47.12085" lon="6.77441">
        <ele>666</ele>
        <time>2026-08-28T06:55:20Z</time>
      </trkpt>
      <trkpt lat="47.12061" lon="6.77501">
        <ele>690</ele>
        <time>2026-08-28T06:55:31Z</time>
      </trkpt>
      <trkpt lat="47.12074" lon="6.77626">
        <ele>690</ele>
        <time>2026-08-28T06:55:51Z</time>
      </trkpt>
      <trkpt lat="47.12099" lon="6.77682">
        <ele>681</ele>
        <time>2026-08-28T06:56:02Z</time>
      </trkpt>
      <trkpt lat="47.1212" lon="6.77716">
        <ele>677</ele>
        <time>2026-08-28T06:56:09Z</time>
      </trkpt>
      <trkpt lat="47.12137" lon="6.77733">
        <ele>669</ele>
        <time>2026-08-28T06:56:14Z</time>
      </trkpt>
      <trkpt lat="47.1211" lon="6.77642">
        <ele>672</ele>
        <time>2026-08-28T06:56:30Z</time>
      </trkpt>
      <trkpt lat="47.121" lon="6.77578">
        <ele>676</ele>
        <time>2026-08-28T06:56:40Z</time>
      </trkpt>
      <trkpt lat="47.12104" lon="6.77555">
        <ele>676</ele>
        <time>2026-08-28T06:56:44Z</time>
      </trkpt>
      <trkpt lat="47.12121" lon="6.77603">
        <ele>672</ele>
        <time>2026-08-28T06:56:53Z</time>
      </trkpt>
      <trkpt lat="47.12151" lon="6.77676">
        <ele>649</ele>
        <time>2026-08-28T06:57:06Z</time>
      </trkpt>
      <trkpt lat="47.12185" lon="6.77731">
        <ele>650</ele>
        <time>2026-08-28T06:57:18Z</time>
      </trkpt>
      <trkpt lat="47.1225" lon="6.77804">
        <ele>643</ele>
        <time>2026-08-28T06:57:37Z</time>
      </trkpt>
      <trkpt lat="47.12301" lon="6.7785">
        <ele>650</ele>
        <time>2026-08-28T06:57:51Z</time>
      </trkpt>
      <trkpt lat="47.12317" lon="6.77869">
        <ele>649</ele>
        <time>2026-08-28T06:57:56Z</time>
      </trkpt>
      <trkpt lat="47.12359" lon="6.77939">
        <ele>651</ele>
        <time>2026-08-28T06:58:11Z</time>
      </trkpt>
      <trkpt lat="47.12375" lon="6.78012">
        <ele>655</ele>
        <time>2026-08-28T06:58:23Z</time>
      </trkpt>
      <trkpt lat="47.12416" lon="6.78294">
        <ele>650</ele>
        <time>2026-08-28T06:59:09Z</time>
      </trkpt>
      <trkpt lat="47.12438" lon="6.78371">
        <ele>661</ele>
        <time>2026-08-28T06:59:22Z</time>
      </trkpt>
      <trkpt lat="47.12445" lon="6.78386">
        <ele>661</ele>
        <time>2026-08-28T06:59:25Z</time>
      </trkpt>
      <trkpt lat="47.12485" lon="6.78541">
        <ele>653</ele>
        <time>2026-08-28T06:59:51Z</time>
      </trkpt>
      <trkpt lat="47.12496" lon="6.78567">
        <ele>647</ele>
        <time>2026-08-28T06:59:56Z</time>
      </trkpt>
      <trkpt lat="47.12526" lon="6.78681">
        <ele>658</ele>
        <time>2026-08-28T07:00:15Z</time>
      </trkpt>
      <trkpt lat="47.12547" lon="6.78769">
        <ele>657</ele>
        <time>2026-08-28T07:00:30Z</time>
      </trkpt>
      <trkpt lat="47.12611" lon="6.79051">
        <ele>662</ele>
        <time>2026-08-28T07:01:17Z</time>
      </trkpt>
      <trkpt lat="47.12648" lon="6.7918">
        <ele>646</ele>
        <time>2026-08-28T07:01:40Z</time>
      </trkpt>
      <trkpt lat="47.12659" lon="6.79211">
        <ele>643</ele>
        <time>2026-08-28T07:01:45Z</time>
      </trkpt>
      <trkpt lat="47.12669" lon="6.79239">
        <ele>643</ele>
        <time>2026-08-28T07:01:50Z</time>
      </trkpt>
      <trkpt lat="47.12684" lon="6.7928">
        <ele>651</ele>
        <time>2026-08-28T07:01:58Z</time>
      </trkpt>
      <trkpt lat="47.12724" lon="6.79384">
        <ele>652</ele>
        <time>2026-08-28T07:02:17Z</time>
      </trkpt>
      <trkpt lat="47.12758" lon="6.79466">
        <ele>655</ele>
        <time>2026-08-28T07:02:32Z</time>
      </trkpt>
      <trkpt lat="47.12849" lon="6.79618">
        <ele>650</ele>
        <time>2026-08-28T07:03:04Z</time>
      </trkpt>
      <trkpt lat="47.12886" lon="6.79807">
        <ele>658</ele>
        <time>2026-08-28T07:03:35Z</time>
      </trkpt>
      <trkpt lat="47.12869" lon="6.79845">
        <ele>670</ele>
        <time>2026-08-28T07:03:43Z</time>
      </trkpt>
      <trkpt lat="47.1287" lon="6.79941">
        <ele>670</ele>
        <time>2026-08-28T07:03:58Z</time>
      </trkpt>
      <trkpt lat="47.12886" lon="6.80125">
        <ele>670</ele>
        <time>2026-08-28T07:04:27Z</time>
      </trkpt>
      <trkpt lat="47.12926" lon="6.80253">
        <ele>658</ele>
        <time>2026-08-28T07:04:50Z</time>
      </trkpt>
      <trkpt lat="47.1299" lon="6.80405">
        <ele>649</ele>
        <time>2026-08-28T07:05:18Z</time>
      </trkpt>
      <trkpt lat="47.1302" lon="6.80529">
        <ele>653</ele>
        <time>2026-08-28T07:05:39Z</time>
      </trkpt>
      <trkpt lat="47.13075" lon="6.8066">
        <ele>646</ele>
        <time>2026-08-28T07:06:03Z</time>
      </trkpt>
      <trkpt lat="47.13146" lon="6.8072">
        <ele>646</ele>
        <time>2026-08-28T07:06:23Z</time>
      </trkpt>
      <trkpt lat="47.1332" lon="6.80778">
        <ele>644</ele>
        <time>2026-08-28T07:07:04Z</time>
      </trkpt>
      <trkpt lat="47.13383" lon="6.8078">
        <ele>638</ele>
        <time>2026-08-28T07:07:19Z</time>
      </trkpt>
      <trkpt lat="47.13456" lon="6.80805">
        <ele>634</ele>
        <time>2026-08-28T07:07:36Z</time>
      </trkpt>
      <trkpt lat="47.13499" lon="6.80843">
        <ele>629</ele>
        <time>2026-08-28T07:07:48Z</time>
      </trkpt>
      <trkpt lat="47.13516" lon="6.80927">
        <ele>642</ele>
        <time>2026-08-28T07:08:02Z</time>
      </trkpt>
      <trkpt lat="47.13511" lon="6.81048">
        <ele>650</ele>
        <time>2026-08-28T07:08:21Z</time>
      </trkpt>
      <trkpt lat="47.13497" lon="6.81237">
        <ele>660</ele>
        <time>2026-08-28T07:08:52Z</time>
      </trkpt>
      <trkpt lat="47.13491" lon="6.8128">
        <ele>669</ele>
        <time>2026-08-28T07:08:59Z</time>
      </trkpt>
      <trkpt lat="47.1349" lon="6.81302">
        <ele>671</ele>
        <time>2026-08-28T07:09:02Z</time>
      </trkpt>
      <trkpt lat="47.13496" lon="6.81316">
        <ele>667</ele>
        <time>2026-08-28T07:09:05Z</time>
      </trkpt>
      <trkpt lat="47.13502" lon="6.81338">
        <ele>664</ele>
        <time>2026-08-28T07:09:08Z</time>
      </trkpt>
      <trkpt lat="47.13503" lon="6.81388">
        <ele>665</ele>
        <time>2026-08-28T07:09:16Z</time>
      </trkpt>
      <trkpt lat="47.13509" lon="6.81404">
        <ele>663</ele>
        <time>2026-08-28T07:09:19Z</time>
      </trkpt>
      <trkpt lat="47.13513" lon="6.81417">
        <ele>661</ele>
        <time>2026-08-28T07:09:22Z</time>
      </trkpt>
      <trkpt lat="47.13518" lon="6.81467">
        <ele>659</ele>
        <time>2026-08-28T07:09:30Z</time>
      </trkpt>
      <trkpt lat="47.13521" lon="6.81479">
        <ele>657</ele>
        <time>2026-08-28T07:09:32Z</time>
      </trkpt>
      <trkpt lat="47.13528" lon="6.81492">
        <ele>654</ele>
        <time>2026-08-28T07:09:34Z</time>
      </trkpt>
      <trkpt lat="47.13535" lon="6.81523">
        <ele>652</ele>
        <time>2026-08-28T07:09:39Z</time>
      </trkpt>
      <trkpt lat="47.13538" lon="6.81563">
        <ele>654</ele>
        <time>2026-08-28T07:09:46Z</time>
      </trkpt>
      <trkpt lat="47.13541" lon="6.81576">
        <ele>654</ele>
        <time>2026-08-28T07:09:48Z</time>
      </trkpt>
      <trkpt lat="47.13544" lon="6.81582">
        <ele>653</ele>
        <time>2026-08-28T07:09:49Z</time>
      </trkpt>
      <trkpt lat="47.13554" lon="6.81592">
        <ele>651</ele>
        <time>2026-08-28T07:09:52Z</time>
      </trkpt>
      <trkpt lat="47.13594" lon="6.81625">
        <ele>648</ele>
        <time>2026-08-28T07:10:03Z</time>
      </trkpt>
      <trkpt lat="47.13608" lon="6.81646">
        <ele>651</ele>
        <time>2026-08-28T07:10:07Z</time>
      </trkpt>
      <trkpt lat="47.13622" lon="6.81659">
        <ele>648</ele>
        <time>2026-08-28T07:10:11Z</time>
      </trkpt>
      <trkpt lat="47.13634" lon="6.81664">
        <ele>643</ele>
        <time>2026-08-28T07:10:14Z</time>
      </trkpt>
      <trkpt lat="47.13676" lon="6.81723">
        <ele>651</ele>
        <time>2026-08-28T07:10:28Z</time>
      </trkpt>
      <trkpt lat="47.13685" lon="6.81726">
        <ele>650</ele>
        <time>2026-08-28T07:10:30Z</time>
      </trkpt>
      <trkpt lat="47.13691" lon="6.81735">
        <ele>652</ele>
        <time>2026-08-28T07:10:32Z</time>
      </trkpt>
      <trkpt lat="47.13703" lon="6.81741">
        <ele>650</ele>
        <time>2026-08-28T07:10:35Z</time>
      </trkpt>
      <trkpt lat="47.13708" lon="6.81748">
        <ele>650</ele>
        <time>2026-08-28T07:10:36Z</time>
      </trkpt>
      <trkpt lat="47.13731" lon="6.81772">
        <ele>653</ele>
        <time>2026-08-28T07:10:43Z</time>
      </trkpt>
      <trkpt lat="47.13735" lon="6.81774">
        <ele>652</ele>
        <time>2026-08-28T07:10:44Z</time>
      </trkpt>
      <trkpt lat="47.13748" lon="6.81774">
        <ele>646</ele>
        <time>2026-08-28T07:10:47Z</time>
      </trkpt>
      <trkpt lat="47.13766" lon="6.81784">
        <ele>648</ele>
        <time>2026-08-28T07:10:52Z</time>
      </trkpt>
      <trkpt lat="47.13781" lon="6.81801">
        <ele>651</ele>
        <time>2026-08-28T07:10:56Z</time>
      </trkpt>
      <trkpt lat="47.13797" lon="6.8181">
        <ele>650</ele>
        <time>2026-08-28T07:11:00Z</time>
      </trkpt>
      <trkpt lat="47.13814" lon="6.81827">
        <ele>648</ele>
        <time>2026-08-28T07:11:05Z</time>
      </trkpt>
      <trkpt lat="47.13834" lon="6.81839">
        <ele>644</ele>
        <time>2026-08-28T07:11:10Z</time>
      </trkpt>
      <trkpt lat="47.13845" lon="6.81857">
        <ele>649</ele>
        <time>2026-08-28T07:11:14Z</time>
      </trkpt>
      <trkpt lat="47.13863" lon="6.81868">
        <ele>649</ele>
        <time>2026-08-28T07:11:18Z</time>
      </trkpt>
      <trkpt lat="47.13878" lon="6.81883">
        <ele>650</ele>
        <time>2026-08-28T07:11:22Z</time>
      </trkpt>
      <trkpt lat="47.13891" lon="6.81886">
        <ele>647</ele>
        <time>2026-08-28T07:11:26Z</time>
      </trkpt>
      <trkpt lat="47.139" lon="6.81895">
        <ele>647</ele>
        <time>2026-08-28T07:11:28Z</time>
      </trkpt>
      <trkpt lat="47.13906" lon="6.81908">
        <ele>647</ele>
        <time>2026-08-28T07:11:31Z</time>
      </trkpt>
      <trkpt lat="47.13923" lon="6.8193">
        <ele>649</ele>
        <time>2026-08-28T07:11:36Z</time>
      </trkpt>
      <trkpt lat="47.13949" lon="6.81949">
        <ele>651</ele>
        <time>2026-08-28T07:11:43Z</time>
      </trkpt>
      <trkpt lat="47.13955" lon="6.81965">
        <ele>654</ele>
        <time>2026-08-28T07:11:46Z</time>
      </trkpt>
      <trkpt lat="47.13969" lon="6.81975">
        <ele>652</ele>
        <time>2026-08-28T07:11:49Z</time>
      </trkpt>
      <trkpt lat="47.13976" lon="6.81992">
        <ele>653</ele>
        <time>2026-08-28T07:11:52Z</time>
      </trkpt>
      <trkpt lat="47.13989" lon="6.82017">
        <ele>654</ele>
        <time>2026-08-28T07:11:57Z</time>
      </trkpt>
      <trkpt lat="47.14003" lon="6.82058">
        <ele>658</ele>
        <time>2026-08-28T07:12:05Z</time>
      </trkpt>
      <trkpt lat="47.14025" lon="6.82088">
        <ele>657</ele>
        <time>2026-08-28T07:12:12Z</time>
      </trkpt>
      <trkpt lat="47.14027" lon="6.82103">
        <ele>658</ele>
        <time>2026-08-28T07:12:14Z</time>
      </trkpt>
      <trkpt lat="47.14034" lon="6.82113">
        <ele>657</ele>
        <time>2026-08-28T07:12:16Z</time>
      </trkpt>
      <trkpt lat="47.14037" lon="6.82123">
        <ele>657</ele>
        <time>2026-08-28T07:12:18Z</time>
      </trkpt>
      <trkpt lat="47.14034" lon="6.82142">
        <ele>661</ele>
        <time>2026-08-28T07:12:21Z</time>
      </trkpt>
      <trkpt lat="47.14037" lon="6.82162">
        <ele>661</ele>
        <time>2026-08-28T07:12:24Z</time>
      </trkpt>
      <trkpt lat="47.14041" lon="6.82168">
        <ele>660</ele>
        <time>2026-08-28T07:12:26Z</time>
      </trkpt>
      <trkpt lat="47.1405" lon="6.82181">
        <ele>656</ele>
        <time>2026-08-28T07:12:29Z</time>
      </trkpt>
      <trkpt lat="47.14054" lon="6.82203">
        <ele>657</ele>
        <time>2026-08-28T07:12:32Z</time>
      </trkpt>
      <trkpt lat="47.14061" lon="6.82214">
        <ele>654</ele>
        <time>2026-08-28T07:12:35Z</time>
      </trkpt>
      <trkpt lat="47.14085" lon="6.82298">
        <ele>652</ele>
        <time>2026-08-28T07:12:49Z</time>
      </trkpt>
      <trkpt lat="47.14092" lon="6.82316">
        <ele>654</ele>
        <time>2026-08-28T07:12:53Z</time>
      </trkpt>
      <trkpt lat="47.14093" lon="6.82332">
        <ele>656</ele>
        <time>2026-08-28T07:12:55Z</time>
      </trkpt>
      <trkpt lat="47.14098" lon="6.82341">
        <ele>656</ele>
        <time>2026-08-28T07:12:57Z</time>
      </trkpt>
      <trkpt lat="47.14111" lon="6.82351">
        <ele>654</ele>
        <time>2026-08-28T07:13:00Z</time>
      </trkpt>
      <trkpt lat="47.14128" lon="6.82383">
        <ele>651</ele>
        <time>2026-08-28T07:13:07Z</time>
      </trkpt>
      <trkpt lat="47.14167" lon="6.82465">
        <ele>646</ele>
        <time>2026-08-28T07:13:23Z</time>
      </trkpt>
      <trkpt lat="47.14211" lon="6.82528">
        <ele>649</ele>
        <time>2026-08-28T07:13:37Z</time>
      </trkpt>
      <trkpt lat="47.14247" lon="6.82569">
        <ele>643</ele>
        <time>2026-08-28T07:13:48Z</time>
      </trkpt>
      <trkpt lat="47.14286" lon="6.82603">
        <ele>645</ele>
        <time>2026-08-28T07:13:58Z</time>
      </trkpt>
      <trkpt lat="47.14407" lon="6.82679">
        <ele>640</ele>
        <time>2026-08-28T07:14:29Z</time>
      </trkpt>
      <trkpt lat="47.14545" lon="6.82761">
        <ele>634</ele>
        <time>2026-08-28T07:15:04Z</time>
      </trkpt>
      <trkpt lat="47.14567" lon="6.82819">
        <ele>636</ele>
        <time>2026-08-28T07:15:14Z</time>
      </trkpt>
      <trkpt lat="47.14579" lon="6.83023">
        <ele>655</ele>
        <time>2026-08-28T07:15:47Z</time>
      </trkpt>
      <trkpt lat="47.14588" lon="6.83061">
        <ele>659</ele>
        <time>2026-08-28T07:15:53Z</time>
      </trkpt>
      <trkpt lat="47.1463" lon="6.83133">
        <ele>658</ele>
        <time>2026-08-28T07:16:08Z</time>
      </trkpt>
      <trkpt lat="47.14662" lon="6.83178">
        <ele>648</ele>
        <time>2026-08-28T07:16:19Z</time>
      </trkpt>
      <trkpt lat="47.14712" lon="6.83288">
        <ele>653</ele>
        <time>2026-08-28T07:16:40Z</time>
      </trkpt>
      <trkpt lat="47.14716" lon="6.83309">
        <ele>654</ele>
        <time>2026-08-28T07:16:43Z</time>
      </trkpt>
      <trkpt lat="47.14716" lon="6.83337">
        <ele>658</ele>
        <time>2026-08-28T07:16:48Z</time>
      </trkpt>
      <trkpt lat="47.14721" lon="6.83357">
        <ele>658</ele>
        <time>2026-08-28T07:16:51Z</time>
      </trkpt>
      <trkpt lat="47.14734" lon="6.83395">
        <ele>654</ele>
        <time>2026-08-28T07:16:58Z</time>
      </trkpt>
      <trkpt lat="47.14752" lon="6.83419">
        <ele>646</ele>
        <time>2026-08-28T07:17:03Z</time>
      </trkpt>
      <trkpt lat="47.14765" lon="6.83449">
        <ele>649</ele>
        <time>2026-08-28T07:17:09Z</time>
      </trkpt>
      <trkpt lat="47.14781" lon="6.83475">
        <ele>649</ele>
        <time>2026-08-28T07:17:15Z</time>
      </trkpt>
      <trkpt lat="47.14794" lon="6.83492">
        <ele>647</ele>
        <time>2026-08-28T07:17:19Z</time>
      </trkpt>
      <trkpt lat="47.14802" lon="6.83486">
        <ele>644</ele>
        <time>2026-08-28T07:17:21Z</time>
      </trkpt>
      <trkpt lat="47.14809" lon="6.83487">
        <ele>642</ele>
        <time>2026-08-28T07:17:22Z</time>
      </trkpt>
      <trkpt lat="47.14826" lon="6.83522">
        <ele>638</ele>
        <time>2026-08-28T07:17:29Z</time>
      </trkpt>
      <trkpt lat="47.14852" lon="6.83585">
        <ele>639</ele>
        <time>2026-08-28T07:17:41Z</time>
      </trkpt>
      <trkpt lat="47.14875" lon="6.83669">
        <ele>641</ele>
        <time>2026-08-28T07:17:55Z</time>
      </trkpt>
      <trkpt lat="47.14888" lon="6.83744">
        <ele>638</ele>
        <time>2026-08-28T07:18:08Z</time>
      </trkpt>
      <trkpt lat="47.14906" lon="6.8381">
        <ele>633</ele>
        <time>2026-08-28T07:18:19Z</time>
      </trkpt>
      <trkpt lat="47.14918" lon="6.83905">
        <ele>636</ele>
        <time>2026-08-28T07:18:34Z</time>
      </trkpt>
      <trkpt lat="47.14929" lon="6.83957">
        <ele>640</ele>
        <time>2026-08-28T07:18:43Z</time>
      </trkpt>
      <trkpt lat="47.14937" lon="6.83978">
        <ele>641</ele>
        <time>2026-08-28T07:18:47Z</time>
      </trkpt>
      <trkpt lat="47.14945" lon="6.84009">
        <ele>644</ele>
        <time>2026-08-28T07:18:52Z</time>
      </trkpt>
      <trkpt lat="47.14948" lon="6.84008">
        <ele>643</ele>
        <time>2026-08-28T07:18:53Z</time>
      </trkpt>
      <trkpt lat="47.14952" lon="6.84009">
        <ele>642</ele>
        <time>2026-08-28T07:18:54Z</time>
      </trkpt>
      <trkpt lat="47.14999" lon="6.84032">
        <ele>636</ele>
        <time>2026-08-28T07:19:05Z</time>
      </trkpt>
      <trkpt lat="47.1503" lon="6.84057">
        <ele>642</ele>
        <time>2026-08-28T07:19:13Z</time>
      </trkpt>
      <trkpt lat="47.1506" lon="6.84061">
        <ele>644</ele>
        <time>2026-08-28T07:19:20Z</time>
      </trkpt>
      <trkpt lat="47.15076" lon="6.84071">
        <ele>648</ele>
        <time>2026-08-28T07:19:25Z</time>
      </trkpt>
      <trkpt lat="47.15097" lon="6.84063">
        <ele>649</ele>
        <time>2026-08-28T07:19:30Z</time>
      </trkpt>
      <trkpt lat="47.15121" lon="6.84055">
        <ele>651</ele>
        <time>2026-08-28T07:19:35Z</time>
      </trkpt>
      <trkpt lat="47.15132" lon="6.84058">
        <ele>654</ele>
        <time>2026-08-28T07:19:38Z</time>
      </trkpt>
      <trkpt lat="47.1514" lon="6.84048">
        <ele>652</ele>
        <time>2026-08-28T07:19:40Z</time>
      </trkpt>
      <trkpt lat="47.15146" lon="6.84028">
        <ele>645</ele>
        <time>2026-08-28T07:19:44Z</time>
      </trkpt>
      <trkpt lat="47.15148" lon="6.84044">
        <ele>652</ele>
        <time>2026-08-28T07:19:46Z</time>
      </trkpt>
      <trkpt lat="47.15147" lon="6.84055">
        <ele>656</ele>
        <time>2026-08-28T07:19:48Z</time>
      </trkpt>
      <trkpt lat="47.15154" lon="6.84034">
        <ele>648</ele>
        <time>2026-08-28T07:19:52Z</time>
      </trkpt>
      <trkpt lat="47.15156" lon="6.84052">
        <ele>657</ele>
        <time>2026-08-28T07:19:55Z</time>
      </trkpt>
      <trkpt lat="47.1516" lon="6.84046">
        <ele>655</ele>
        <time>2026-08-28T07:19:56Z</time>
      </trkpt>
      <trkpt lat="47.1516" lon="6.84056">
        <ele>659</ele>
        <time>2026-08-28T07:19:58Z</time>
      </trkpt>
      <trkpt lat="47.15161" lon="6.84055">
        <ele>659</ele>
        <time>2026-08-28T07:19:58Z</time>
      </trkpt>
      <trkpt lat="47.15176" lon="6.84043">
        <ele>654</ele>
        <time>2026-08-28T07:20:02Z</time>
      </trkpt>
      <trkpt lat="47.1519" lon="6.84035">
        <ele>650</ele>
        <time>2026-08-28T07:20:06Z</time>
      </trkpt>
      <trkpt lat="47.15205" lon="6.84029">
        <ele>646</ele>
        <time>2026-08-28T07:20:09Z</time>
      </trkpt>
      <trkpt lat="47.15217" lon="6.84028">
        <ele>645</ele>
        <time>2026-08-28T07:20:12Z</time>
      </trkpt>
      <trkpt lat="47.15227" lon="6.84029">
        <ele>645</ele>
        <time>2026-08-28T07:20:14Z</time>
      </trkpt>
      <trkpt lat="47.15241" lon="6.84034">
        <ele>647</ele>
        <time>2026-08-28T07:20:18Z</time>
      </trkpt>
      <trkpt lat="47.15248" lon="6.84039">
        <ele>649</ele>
        <time>2026-08-28T07:20:20Z</time>
      </trkpt>
      <trkpt lat="47.15256" lon="6.84047">
        <ele>651</ele>
        <time>2026-08-28T07:20:22Z</time>
      </trkpt>
      <trkpt lat="47.15267" lon="6.84059">
        <ele>652</ele>
        <time>2026-08-28T07:20:25Z</time>
      </trkpt>
      <trkpt lat="47.15281" lon="6.84078">
        <ele>654</ele>
        <time>2026-08-28T07:20:29Z</time>
      </trkpt>
      <trkpt lat="47.15334" lon="6.84166">
        <ele>657</ele>
        <time>2026-08-28T07:20:48Z</time>
      </trkpt>
      <trkpt lat="47.15366" lon="6.84225">
        <ele>662</ele>
        <time>2026-08-28T07:21:00Z</time>
      </trkpt>
      <trkpt lat="47.1539" lon="6.84264">
        <ele>658</ele>
        <time>2026-08-28T07:21:08Z</time>
      </trkpt>
      <trkpt lat="47.15404" lon="6.8429">
        <ele>655</ele>
        <time>2026-08-28T07:21:14Z</time>
      </trkpt>
      <trkpt lat="47.15438" lon="6.84364">
        <ele>654</ele>
        <time>2026-08-28T07:21:28Z</time>
      </trkpt>
      <trkpt lat="47.15457" lon="6.84407">
        <ele>652</ele>
        <time>2026-08-28T07:21:36Z</time>
      </trkpt>
      <trkpt lat="47.15467" lon="6.84434">
        <ele>650</ele>
        <time>2026-08-28T07:21:41Z</time>
      </trkpt>
      <trkpt lat="47.15475" lon="6.84465">
        <ele>649</ele>
        <time>2026-08-28T07:21:46Z</time>
      </trkpt>
      <trkpt lat="47.1548" lon="6.84463">
        <ele>645</ele>
        <time>2026-08-28T07:21:47Z</time>
      </trkpt>
      <trkpt lat="47.15484" lon="6.84461">
        <ele>641</ele>
        <time>2026-08-28T07:21:48Z</time>
      </trkpt>
      <trkpt lat="47.15518" lon="6.84433">
        <ele>631</ele>
        <time>2026-08-28T07:21:57Z</time>
      </trkpt>
      <trkpt lat="47.15525" lon="6.84428">
        <ele>633</ele>
        <time>2026-08-28T07:21:59Z</time>
      </trkpt>
      <trkpt lat="47.15532" lon="6.84426">
        <ele>635</ele>
        <time>2026-08-28T07:22:01Z</time>
      </trkpt>
      <trkpt lat="47.1554" lon="6.84426">
        <ele>638</ele>
        <time>2026-08-28T07:22:03Z</time>
      </trkpt>
      <trkpt lat="47.15546" lon="6.84428">
        <ele>640</ele>
        <time>2026-08-28T07:22:04Z</time>
      </trkpt>
      <trkpt lat="47.15553" lon="6.84435">
        <ele>641</ele>
        <time>2026-08-28T07:22:06Z</time>
      </trkpt>
      <trkpt lat="47.15565" lon="6.84449">
        <ele>643</ele>
        <time>2026-08-28T07:22:10Z</time>
      </trkpt>
      <trkpt lat="47.15569" lon="6.84449">
        <ele>644</ele>
        <time>2026-08-28T07:22:11Z</time>
      </trkpt>
      <trkpt lat="47.15575" lon="6.84444">
        <ele>646</ele>
        <time>2026-08-28T07:22:12Z</time>
      </trkpt>
      <trkpt lat="47.15576" lon="6.84438">
        <ele>647</ele>
        <time>2026-08-28T07:22:13Z</time>
      </trkpt>
      <trkpt lat="47.15577" lon="6.84432">
        <ele>648</ele>
        <time>2026-08-28T07:22:14Z</time>
      </trkpt>
      <trkpt lat="47.15574" lon="6.84415">
        <ele>649</ele>
        <time>2026-08-28T07:22:17Z</time>
      </trkpt>
      <trkpt lat="47.15573" lon="6.84405">
        <ele>651</ele>
        <time>2026-08-28T07:22:19Z</time>
      </trkpt>
      <trkpt lat="47.15577" lon="6.84371">
        <ele>658</ele>
        <time>2026-08-28T07:22:24Z</time>
      </trkpt>
      <trkpt lat="47.15575" lon="6.84349">
        <ele>660</ele>
        <time>2026-08-28T07:22:28Z</time>
      </trkpt>
      <trkpt lat="47.15576" lon="6.84345">
        <ele>661</ele>
        <time>2026-08-28T07:22:28Z</time>
      </trkpt>
      <trkpt lat="47.15578" lon="6.84344">
        <ele>663</ele>
        <time>2026-08-28T07:22:29Z</time>
      </trkpt>
      <trkpt lat="47.15581" lon="6.84346">
        <ele>664</ele>
        <time>2026-08-28T07:22:30Z</time>
      </trkpt>
      <trkpt lat="47.15592" lon="6.8437">
        <ele>667</ele>
        <time>2026-08-28T07:22:34Z</time>
      </trkpt>
      <trkpt lat="47.15597" lon="6.84386">
        <ele>667</ele>
        <time>2026-08-28T07:22:37Z</time>
      </trkpt>
      <trkpt lat="47.15602" lon="6.84415">
        <ele>665</ele>
        <time>2026-08-28T07:22:42Z</time>
      </trkpt>
      <trkpt lat="47.15606" lon="6.84425">
        <ele>667</ele>
        <time>2026-08-28T07:22:44Z</time>
      </trkpt>
      <trkpt lat="47.15613" lon="6.84433">
        <ele>671</ele>
        <time>2026-08-28T07:22:46Z</time>
      </trkpt>
      <trkpt lat="47.15615" lon="6.84434">
        <ele>672</ele>
        <time>2026-08-28T07:22:46Z</time>
      </trkpt>
      <trkpt lat="47.15618" lon="6.84434">
        <ele>674</ele>
        <time>2026-08-28T07:22:47Z</time>
      </trkpt>
      <trkpt lat="47.15619" lon="6.8443">
        <ele>675</ele>
        <time>2026-08-28T07:22:48Z</time>
      </trkpt>
      <trkpt lat="47.15619" lon="6.84418">
        <ele>677</ele>
        <time>2026-08-28T07:22:49Z</time>
      </trkpt>
      <trkpt lat="47.15617" lon="6.84396">
        <ele>679</ele>
        <time>2026-08-28T07:22:53Z</time>
      </trkpt>
      <trkpt lat="47.15616" lon="6.84364">
        <ele>685</ele>
        <time>2026-08-28T07:22:58Z</time>
      </trkpt>
      <trkpt lat="47.15612" lon="6.84339">
        <ele>687</ele>
        <time>2026-08-28T07:23:02Z</time>
      </trkpt>
      <trkpt lat="47.15611" lon="6.8433">
        <ele>688</ele>
        <time>2026-08-28T07:23:04Z</time>
      </trkpt>
      <trkpt lat="47.15613" lon="6.84318">
        <ele>692</ele>
        <time>2026-08-28T07:23:06Z</time>
      </trkpt>
      <trkpt lat="47.15619" lon="6.84305">
        <ele>699</ele>
        <time>2026-08-28T07:23:08Z</time>
      </trkpt>
      <trkpt lat="47.1562" lon="6.84297">
        <ele>702</ele>
        <time>2026-08-28T07:23:09Z</time>
      </trkpt>
      <trkpt lat="47.15618" lon="6.8429">
        <ele>702</ele>
        <time>2026-08-28T07:23:11Z</time>
      </trkpt>
      <trkpt lat="47.15612" lon="6.84282">
        <ele>699</ele>
        <time>2026-08-28T07:23:12Z</time>
      </trkpt>
      <trkpt lat="47.15604" lon="6.84267">
        <ele>697</ele>
        <time>2026-08-28T07:23:15Z</time>
      </trkpt>
      <trkpt lat="47.156" lon="6.84256">
        <ele>696</ele>
        <time>2026-08-28T07:23:17Z</time>
      </trkpt>
      <trkpt lat="47.15595" lon="6.84236">
        <ele>698</ele>
        <time>2026-08-28T07:23:21Z</time>
      </trkpt>
      <trkpt lat="47.15595" lon="6.84228">
        <ele>700</ele>
        <time>2026-08-28T07:23:22Z</time>
      </trkpt>
      <trkpt lat="47.15597" lon="6.84214">
        <ele>705</ele>
        <time>2026-08-28T07:23:24Z</time>
      </trkpt>
      <trkpt lat="47.15596" lon="6.84206">
        <ele>707</ele>
        <time>2026-08-28T07:23:26Z</time>
      </trkpt>
      <trkpt lat="47.15581" lon="6.84164">
        <ele>707</ele>
        <time>2026-08-28T07:23:33Z</time>
      </trkpt>
      <trkpt lat="47.15576" lon="6.84148">
        <ele>706</ele>
        <time>2026-08-28T07:23:36Z</time>
      </trkpt>
      <trkpt lat="47.15575" lon="6.84137">
        <ele>707</ele>
        <time>2026-08-28T07:23:38Z</time>
      </trkpt>
      <trkpt lat="47.15572" lon="6.84039">
        <ele>714</ele>
        <time>2026-08-28T07:23:53Z</time>
      </trkpt>
      <trkpt lat="47.15574" lon="6.84002">
        <ele>716</ele>
        <time>2026-08-28T07:23:59Z</time>
      </trkpt>
      <trkpt lat="47.15583" lon="6.83951">
        <ele>731</ele>
        <time>2026-08-28T07:24:08Z</time>
      </trkpt>
      <trkpt lat="47.15592" lon="6.83969">
        <ele>734</ele>
        <time>2026-08-28T07:24:11Z</time>
      </trkpt>
      <trkpt lat="47.156" lon="6.84001">
        <ele>734</ele>
        <time>2026-08-28T07:24:17Z</time>
      </trkpt>
      <trkpt lat="47.15602" lon="6.84039">
        <ele>734</ele>
        <time>2026-08-28T07:24:23Z</time>
      </trkpt>
      <trkpt lat="47.15614" lon="6.84074">
        <ele>741</ele>
        <time>2026-08-28T07:24:29Z</time>
      </trkpt>
      <trkpt lat="47.15628" lon="6.84119">
        <ele>746</ele>
        <time>2026-08-28T07:24:37Z</time>
      </trkpt>
      <trkpt lat="47.15644" lon="6.84145">
        <ele>754</ele>
        <time>2026-08-28T07:24:42Z</time>
      </trkpt>
      <trkpt lat="47.15661" lon="6.84179">
        <ele>760</ele>
        <time>2026-08-28T07:24:49Z</time>
      </trkpt>
      <trkpt lat="47.1569" lon="6.84248">
        <ele>758</ele>
        <time>2026-08-28T07:25:02Z</time>
      </trkpt>
      <trkpt lat="47.15708" lon="6.84287">
        <ele>761</ele>
        <time>2026-08-28T07:25:09Z</time>
      </trkpt>
      <trkpt lat="47.15742" lon="6.84369">
        <ele>769</ele>
        <time>2026-08-28T07:25:25Z</time>
      </trkpt>
      <trkpt lat="47.15735" lon="6.84314">
        <ele>772</ele>
        <time>2026-08-28T07:25:33Z</time>
      </trkpt>
      <trkpt lat="47.15711" lon="6.84194">
        <ele>785</ele>
        <time>2026-08-28T07:25:53Z</time>
      </trkpt>
      <trkpt lat="47.15705" lon="6.84137">
        <ele>792</ele>
        <time>2026-08-28T07:26:03Z</time>
      </trkpt>
      <trkpt lat="47.15692" lon="6.8408">
        <ele>790</ele>
        <time>2026-08-28T07:26:12Z</time>
      </trkpt>
      <trkpt lat="47.15681" lon="6.83983">
        <ele>795</ele>
        <time>2026-08-28T07:26:28Z</time>
      </trkpt>
      <trkpt lat="47.15673" lon="6.83896">
        <ele>803</ele>
        <time>2026-08-28T07:26:42Z</time>
      </trkpt>
      <trkpt lat="47.15665" lon="6.83827">
        <ele>815</ele>
        <time>2026-08-28T07:26:53Z</time>
      </trkpt>
      <trkpt lat="47.15636" lon="6.83713">
        <ele>834</ele>
        <time>2026-08-28T07:27:12Z</time>
      </trkpt>
      <trkpt lat="47.15617" lon="6.83674">
        <ele>837</ele>
        <time>2026-08-28T07:27:20Z</time>
      </trkpt>
      <trkpt lat="47.15596" lon="6.83646">
        <ele>839</ele>
        <time>2026-08-28T07:27:26Z</time>
      </trkpt>
      <trkpt lat="47.15567" lon="6.83585">
        <ele>852</ele>
        <time>2026-08-28T07:27:38Z</time>
      </trkpt>
      <trkpt lat="47.15535" lon="6.83533">
        <ele>856</ele>
        <time>2026-08-28T07:27:49Z</time>
      </trkpt>
      <trkpt lat="47.15509" lon="6.83505">
        <ele>857</ele>
        <time>2026-08-28T07:27:57Z</time>
      </trkpt>
      <trkpt lat="47.15494" lon="6.8347">
        <ele>864</ele>
        <time>2026-08-28T07:28:03Z</time>
      </trkpt>
      <trkpt lat="47.15474" lon="6.83441">
        <ele>869</ele>
        <time>2026-08-28T07:28:10Z</time>
      </trkpt>
      <trkpt lat="47.15445" lon="6.83412">
        <ele>873</ele>
        <time>2026-08-28T07:28:18Z</time>
      </trkpt>
      <trkpt lat="47.15412" lon="6.83399">
        <ele>870</ele>
        <time>2026-08-28T07:28:26Z</time>
      </trkpt>
      <trkpt lat="47.15436" lon="6.83387">
        <ele>876</ele>
        <time>2026-08-28T07:28:32Z</time>
      </trkpt>
      <trkpt lat="47.15466" lon="6.83381">
        <ele>881</ele>
        <time>2026-08-28T07:28:39Z</time>
      </trkpt>
      <trkpt lat="47.15479" lon="6.83389">
        <ele>882</ele>
        <time>2026-08-28T07:28:42Z</time>
      </trkpt>
      <trkpt lat="47.15501" lon="6.83391">
        <ele>885</ele>
        <time>2026-08-28T07:28:48Z</time>
      </trkpt>
      <trkpt lat="47.15518" lon="6.83395">
        <ele>886</ele>
        <time>2026-08-28T07:28:52Z</time>
      </trkpt>
      <trkpt lat="47.15532" lon="6.83404">
        <ele>887</ele>
        <time>2026-08-28T07:28:55Z</time>
      </trkpt>
      <trkpt lat="47.15555" lon="6.83413">
        <ele>889</ele>
        <time>2026-08-28T07:29:01Z</time>
      </trkpt>
      <trkpt lat="47.15576" lon="6.83422">
        <ele>890</ele>
        <time>2026-08-28T07:29:06Z</time>
      </trkpt>
      <trkpt lat="47.15594" lon="6.83423">
        <ele>892</ele>
        <time>2026-08-28T07:29:10Z</time>
      </trkpt>
      <trkpt lat="47.1563" lon="6.83422">
        <ele>893</ele>
        <time>2026-08-28T07:29:18Z</time>
      </trkpt>
      <trkpt lat="47.1564" lon="6.83421">
        <ele>894</ele>
        <time>2026-08-28T07:29:21Z</time>
      </trkpt>
      <trkpt lat="47.15646" lon="6.83417">
        <ele>894</ele>
        <time>2026-08-28T07:29:22Z</time>
      </trkpt>
      <trkpt lat="47.15678" lon="6.83387">
        <ele>896</ele>
        <time>2026-08-28T07:29:31Z</time>
      </trkpt>
      <trkpt lat="47.15704" lon="6.8336">
        <ele>896</ele>
        <time>2026-08-28T07:29:39Z</time>
      </trkpt>
      <trkpt lat="47.15727" lon="6.83322">
        <ele>897</ele>
        <time>2026-08-28T07:29:47Z</time>
      </trkpt>
      <trkpt lat="47.15744" lon="6.83283">
        <ele>899</ele>
        <time>2026-08-28T07:29:54Z</time>
      </trkpt>
      <trkpt lat="47.1576" lon="6.8324">
        <ele>902</ele>
        <time>2026-08-28T07:30:02Z</time>
      </trkpt>
      <trkpt lat="47.15784" lon="6.83185">
        <ele>906</ele>
        <time>2026-08-28T07:30:12Z</time>
      </trkpt>
      <trkpt lat="47.15801" lon="6.83141">
        <ele>909</ele>
        <time>2026-08-28T07:30:20Z</time>
      </trkpt>
      <trkpt lat="47.15827" lon="6.83084">
        <ele>913</ele>
        <time>2026-08-28T07:30:31Z</time>
      </trkpt>
      <trkpt lat="47.15827" lon="6.83084">
        <ele>913</ele>
        <time>2026-08-28T07:30:31Z</time>
      </trkpt>
      <trkpt lat="47.15878" lon="6.83104">
        <ele>912</ele>
        <time>2026-08-28T07:30:43Z</time>
      </trkpt>
      <trkpt lat="47.15889" lon="6.83108">
        <ele>912</ele>
        <time>2026-08-28T07:30:46Z</time>
      </trkpt>
      <trkpt lat="47.15926" lon="6.83116">
        <ele>912</ele>
        <time>2026-08-28T07:30:55Z</time>
      </trkpt>
      <trkpt lat="47.15965" lon="6.83111">
        <ele>912</ele>
        <time>2026-08-28T07:31:04Z</time>
      </trkpt>
      <trkpt lat="47.16" lon="6.83103">
        <ele>913</ele>
        <time>2026-08-28T07:31:12Z</time>
      </trkpt>
      <trkpt lat="47.16043" lon="6.83103">
        <ele>914</ele>
        <time>2026-08-28T07:31:22Z</time>
      </trkpt>
      <trkpt lat="47.16092" lon="6.83107">
        <ele>914</ele>
        <time>2026-08-28T07:31:34Z</time>
      </trkpt>
      <trkpt lat="47.16118" lon="6.83097">
        <ele>915</ele>
        <time>2026-08-28T07:31:40Z</time>
      </trkpt>
      <trkpt lat="47.1615" lon="6.83071">
        <ele>917</ele>
        <time>2026-08-28T07:31:49Z</time>
      </trkpt>
      <trkpt lat="47.1616" lon="6.83062">
        <ele>917</ele>
        <time>2026-08-28T07:31:51Z</time>
      </trkpt>
      <trkpt lat="47.16192" lon="6.83031">
        <ele>916</ele>
        <time>2026-08-28T07:32:00Z</time>
      </trkpt>
      <trkpt lat="47.16224" lon="6.82996">
        <ele>913</ele>
        <time>2026-08-28T07:32:10Z</time>
      </trkpt>
      <trkpt lat="47.16242" lon="6.82958">
        <ele>912</ele>
        <time>2026-08-28T07:32:17Z</time>
      </trkpt>
      <trkpt lat="47.1626" lon="6.82927">
        <ele>910</ele>
        <time>2026-08-28T07:32:23Z</time>
      </trkpt>
      <trkpt lat="47.16295" lon="6.82884">
        <ele>906</ele>
        <time>2026-08-28T07:32:34Z</time>
      </trkpt>
      <trkpt lat="47.16317" lon="6.82857">
        <ele>904</ele>
        <time>2026-08-28T07:32:41Z</time>
      </trkpt>
      <trkpt lat="47.16342" lon="6.82843">
        <ele>903</ele>
        <time>2026-08-28T07:32:47Z</time>
      </trkpt>
      <trkpt lat="47.16354" lon="6.8284">
        <ele>903</ele>
        <time>2026-08-28T07:32:50Z</time>
      </trkpt>
      <trkpt lat="47.16373" lon="6.8284">
        <ele>903</ele>
        <time>2026-08-28T07:32:54Z</time>
      </trkpt>
      <trkpt lat="47.16423" lon="6.8287">
        <ele>903</ele>
        <time>2026-08-28T07:33:07Z</time>
      </trkpt>
      <trkpt lat="47.16434" lon="6.82874">
        <ele>904</ele>
        <time>2026-08-28T07:33:09Z</time>
      </trkpt>
      <trkpt lat="47.16445" lon="6.82875">
        <ele>904</ele>
        <time>2026-08-28T07:33:12Z</time>
      </trkpt>
      <trkpt lat="47.16456" lon="6.82874">
        <ele>905</ele>
        <time>2026-08-28T07:33:15Z</time>
      </trkpt>
      <trkpt lat="47.16472" lon="6.82866">
        <ele>906</ele>
        <time>2026-08-28T07:33:19Z</time>
      </trkpt>
      <trkpt lat="47.16519" lon="6.82835">
        <ele>910</ele>
        <time>2026-08-28T07:33:31Z</time>
      </trkpt>
      <trkpt lat="47.16538" lon="6.82822">
        <ele>911</ele>
        <time>2026-08-28T07:33:35Z</time>
      </trkpt>
      <trkpt lat="47.16559" lon="6.82807">
        <ele>913</ele>
        <time>2026-08-28T07:33:41Z</time>
      </trkpt>
      <trkpt lat="47.16587" lon="6.82787">
        <ele>914</ele>
        <time>2026-08-28T07:33:48Z</time>
      </trkpt>
      <trkpt lat="47.16609" lon="6.82775">
        <ele>915</ele>
        <time>2026-08-28T07:33:54Z</time>
      </trkpt>
      <trkpt lat="47.16625" lon="6.82789">
        <ele>917</ele>
        <time>2026-08-28T07:33:58Z</time>
      </trkpt>
      <trkpt lat="47.16629" lon="6.82793">
        <ele>917</ele>
        <time>2026-08-28T07:33:59Z</time>
      </trkpt>
      <trkpt lat="47.16629" lon="6.82783">
        <ele>917</ele>
        <time>2026-08-28T07:34:01Z</time>
      </trkpt>
      <trkpt lat="47.1663" lon="6.82773">
        <ele>917</ele>
        <time>2026-08-28T07:34:02Z</time>
      </trkpt>
      <trkpt lat="47.16635" lon="6.82763">
        <ele>918</ele>
        <time>2026-08-28T07:34:04Z</time>
      </trkpt>
      <trkpt lat="47.16641" lon="6.82757">
        <ele>918</ele>
        <time>2026-08-28T07:34:06Z</time>
      </trkpt>
      <trkpt lat="47.1665" lon="6.82752">
        <ele>919</ele>
        <time>2026-08-28T07:34:08Z</time>
      </trkpt>
      <trkpt lat="47.16659" lon="6.8275">
        <ele>920</ele>
        <time>2026-08-28T07:34:10Z</time>
      </trkpt>
      <trkpt lat="47.16665" lon="6.82752">
        <ele>921</ele>
        <time>2026-08-28T07:34:12Z</time>
      </trkpt>
      <trkpt lat="47.16672" lon="6.82757">
        <ele>921</ele>
        <time>2026-08-28T07:34:14Z</time>
      </trkpt>
      <trkpt lat="47.16684" lon="6.82769">
        <ele>922</ele>
        <time>2026-08-28T07:34:17Z</time>
      </trkpt>
      <trkpt lat="47.16698" lon="6.82785">
        <ele>923</ele>
        <time>2026-08-28T07:34:21Z</time>
      </trkpt>
      <trkpt lat="47.16739" lon="6.8283">
        <ele>924</ele>
        <time>2026-08-28T07:34:33Z</time>
      </trkpt>
      <trkpt lat="47.16754" lon="6.82845">
        <ele>924</ele>
        <time>2026-08-28T07:34:37Z</time>
      </trkpt>
      <trkpt lat="47.16762" lon="6.82851">
        <ele>924</ele>
        <time>2026-08-28T07:34:39Z</time>
      </trkpt>
      <trkpt lat="47.16769" lon="6.82854">
        <ele>925</ele>
        <time>2026-08-28T07:34:41Z</time>
      </trkpt>
      <trkpt lat="47.16779" lon="6.82856">
        <ele>926</ele>
        <time>2026-08-28T07:34:44Z</time>
      </trkpt>
      <trkpt lat="47.16789" lon="6.82852">
        <ele>928</ele>
        <time>2026-08-28T07:34:46Z</time>
      </trkpt>
      <trkpt lat="47.16798" lon="6.82847">
        <ele>930</ele>
        <time>2026-08-28T07:34:48Z</time>
      </trkpt>
      <trkpt lat="47.16803" lon="6.8284">
        <ele>931</ele>
        <time>2026-08-28T07:34:50Z</time>
      </trkpt>
      <trkpt lat="47.16807" lon="6.82833">
        <ele>933</ele>
        <time>2026-08-28T07:34:51Z</time>
      </trkpt>
      <trkpt lat="47.16813" lon="6.8281">
        <ele>937</ele>
        <time>2026-08-28T07:34:55Z</time>
      </trkpt>
      <trkpt lat="47.16834" lon="6.828">
        <ele>942</ele>
        <time>2026-08-28T07:35:00Z</time>
      </trkpt>
      <trkpt lat="47.16848" lon="6.82789">
        <ele>943</ele>
        <time>2026-08-28T07:35:04Z</time>
      </trkpt>
      <trkpt lat="47.16857" lon="6.82746">
        <ele>950</ele>
        <time>2026-08-28T07:35:11Z</time>
      </trkpt>
      <trkpt lat="47.16858" lon="6.82709">
        <ele>952</ele>
        <time>2026-08-28T07:35:17Z</time>
      </trkpt>
      <trkpt lat="47.16854" lon="6.82681">
        <ele>953</ele>
        <time>2026-08-28T07:35:22Z</time>
      </trkpt>
      <trkpt lat="47.16851" lon="6.82662">
        <ele>953</ele>
        <time>2026-08-28T07:35:25Z</time>
      </trkpt>
      <trkpt lat="47.16855" lon="6.82654">
        <ele>954</ele>
        <time>2026-08-28T07:35:26Z</time>
      </trkpt>
      <trkpt lat="47.16857" lon="6.82643">
        <ele>954</ele>
        <time>2026-08-28T07:35:28Z</time>
      </trkpt>
      <trkpt lat="47.16857" lon="6.8263">
        <ele>954</ele>
        <time>2026-08-28T07:35:30Z</time>
      </trkpt>
      <trkpt lat="47.16851" lon="6.826">
        <ele>953</ele>
        <time>2026-08-28T07:35:35Z</time>
      </trkpt>
      <trkpt lat="47.1685" lon="6.82588">
        <ele>953</ele>
        <time>2026-08-28T07:35:37Z</time>
      </trkpt>
      <trkpt lat="47.16851" lon="6.82569">
        <ele>953</ele>
        <time>2026-08-28T07:35:40Z</time>
      </trkpt>
      <trkpt lat="47.16856" lon="6.82552">
        <ele>954</ele>
        <time>2026-08-28T07:35:43Z</time>
      </trkpt>
      <trkpt lat="47.16862" lon="6.82541">
        <ele>954</ele>
        <time>2026-08-28T07:35:45Z</time>
      </trkpt>
      <trkpt lat="47.16872" lon="6.82527">
        <ele>954</ele>
        <time>2026-08-28T07:35:48Z</time>
      </trkpt>
      <trkpt lat="47.16888" lon="6.82499">
        <ele>954</ele>
        <time>2026-08-28T07:35:54Z</time>
      </trkpt>
      <trkpt lat="47.16894" lon="6.82488">
        <ele>954</ele>
        <time>2026-08-28T07:35:56Z</time>
      </trkpt>
      <trkpt lat="47.169" lon="6.82475">
        <ele>954</ele>
        <time>2026-08-28T07:35:59Z</time>
      </trkpt>
      <trkpt lat="47.16917" lon="6.82439">
        <ele>953</ele>
        <time>2026-08-28T07:36:06Z</time>
      </trkpt>
      <trkpt lat="47.16926" lon="6.82414">
        <ele>955</ele>
        <time>2026-08-28T07:36:10Z</time>
      </trkpt>
      <trkpt lat="47.1693" lon="6.82389">
        <ele>956</ele>
        <time>2026-08-28T07:36:15Z</time>
      </trkpt>
      <trkpt lat="47.16937" lon="6.8229">
        <ele>963</ele>
        <time>2026-08-28T07:36:30Z</time>
      </trkpt>
      <trkpt lat="47.16942" lon="6.82259">
        <ele>964</ele>
        <time>2026-08-28T07:36:35Z</time>
      </trkpt>
      <trkpt lat="47.16948" lon="6.82245">
        <ele>965</ele>
        <time>2026-08-28T07:36:38Z</time>
      </trkpt>
      <trkpt lat="47.16957" lon="6.8223">
        <ele>966</ele>
        <time>2026-08-28T07:36:41Z</time>
      </trkpt>
      <trkpt lat="47.16969" lon="6.8222">
        <ele>966</ele>
        <time>2026-08-28T07:36:44Z</time>
      </trkpt>
      <trkpt lat="47.16978" lon="6.82215">
        <ele>967</ele>
        <time>2026-08-28T07:36:47Z</time>
      </trkpt>
      <trkpt lat="47.17015" lon="6.82206">
        <ele>968</ele>
        <time>2026-08-28T07:36:55Z</time>
      </trkpt>
      <trkpt lat="47.17088" lon="6.82184">
        <ele>966</ele>
        <time>2026-08-28T07:37:13Z</time>
      </trkpt>
      <trkpt lat="47.17092" lon="6.82188">
        <ele>966</ele>
        <time>2026-08-28T07:37:14Z</time>
      </trkpt>
      <trkpt lat="47.17098" lon="6.8219">
        <ele>966</ele>
        <time>2026-08-28T07:37:15Z</time>
      </trkpt>
      <trkpt lat="47.17153" lon="6.82182">
        <ele>963</ele>
        <time>2026-08-28T07:37:28Z</time>
      </trkpt>
      <trkpt lat="47.17168" lon="6.82183">
        <ele>963</ele>
        <time>2026-08-28T07:37:32Z</time>
      </trkpt>
      <trkpt lat="47.17181" lon="6.82188">
        <ele>962</ele>
        <time>2026-08-28T07:37:35Z</time>
      </trkpt>
      <trkpt lat="47.17195" lon="6.82202">
        <ele>962</ele>
        <time>2026-08-28T07:37:39Z</time>
      </trkpt>
      <trkpt lat="47.17226" lon="6.82243">
        <ele>962</ele>
        <time>2026-08-28T07:37:49Z</time>
      </trkpt>
      <trkpt lat="47.17267" lon="6.82287">
        <ele>961</ele>
        <time>2026-08-28T07:38:00Z</time>
      </trkpt>
      <trkpt lat="47.17293" lon="6.82311">
        <ele>960</ele>
        <time>2026-08-28T07:38:08Z</time>
      </trkpt>
      <trkpt lat="47.1733" lon="6.82346">
        <ele>960</ele>
        <time>2026-08-28T07:38:18Z</time>
      </trkpt>
      <trkpt lat="47.17354" lon="6.82365">
        <ele>959</ele>
        <time>2026-08-28T07:38:24Z</time>
      </trkpt>
      <trkpt lat="47.17395" lon="6.82365">
        <ele>956</ele>
        <time>2026-08-28T07:38:34Z</time>
      </trkpt>
      <trkpt lat="47.17413" lon="6.8237">
        <ele>955</ele>
        <time>2026-08-28T07:38:38Z</time>
      </trkpt>
      <trkpt lat="47.1746" lon="6.82396">
        <ele>952</ele>
        <time>2026-08-28T07:38:50Z</time>
      </trkpt>
      <trkpt lat="47.17482" lon="6.82401">
        <ele>951</ele>
        <time>2026-08-28T07:38:55Z</time>
      </trkpt>
      <trkpt lat="47.17505" lon="6.82398">
        <ele>949</ele>
        <time>2026-08-28T07:39:00Z</time>
      </trkpt>
      <trkpt lat="47.17543" lon="6.82387">
        <ele>946</ele>
        <time>2026-08-28T07:39:09Z</time>
      </trkpt>
      <trkpt lat="47.17569" lon="6.82383">
        <ele>945</ele>
        <time>2026-08-28T07:39:16Z</time>
      </trkpt>
      <trkpt lat="47.17607" lon="6.82391">
        <ele>942</ele>
        <time>2026-08-28T07:39:25Z</time>
      </trkpt>
      <trkpt lat="47.17642" lon="6.82392">
        <ele>938</ele>
        <time>2026-08-28T07:39:33Z</time>
      </trkpt>
      <trkpt lat="47.17656" lon="6.82396">
        <ele>936</ele>
        <time>2026-08-28T07:39:36Z</time>
      </trkpt>
      <trkpt lat="47.17665" lon="6.82401">
        <ele>936</ele>
        <time>2026-08-28T07:39:38Z</time>
      </trkpt>
      <trkpt lat="47.17675" lon="6.82409">
        <ele>935</ele>
        <time>2026-08-28T07:39:41Z</time>
      </trkpt>
      <trkpt lat="47.17708" lon="6.82443">
        <ele>932</ele>
        <time>2026-08-28T07:39:50Z</time>
      </trkpt>
      <trkpt lat="47.17723" lon="6.82455">
        <ele>931</ele>
        <time>2026-08-28T07:39:54Z</time>
      </trkpt>
      <trkpt lat="47.17737" lon="6.8246">
        <ele>929</ele>
        <time>2026-08-28T07:39:58Z</time>
      </trkpt>
      <trkpt lat="47.17746" lon="6.8246">
        <ele>928</ele>
        <time>2026-08-28T07:40:00Z</time>
      </trkpt>
      <trkpt lat="47.17759" lon="6.82458">
        <ele>928</ele>
        <time>2026-08-28T07:40:03Z</time>
      </trkpt>
      <trkpt lat="47.17815" lon="6.82432">
        <ele>923</ele>
        <time>2026-08-28T07:40:17Z</time>
      </trkpt>
      <trkpt lat="47.17844" lon="6.82411">
        <ele>919</ele>
        <time>2026-08-28T07:40:24Z</time>
      </trkpt>
      <trkpt lat="47.17881" lon="6.82391">
        <ele>918</ele>
        <time>2026-08-28T07:40:33Z</time>
      </trkpt>
      <trkpt lat="47.17874" lon="6.82391">
        <ele>918</ele>
        <time>2026-08-28T07:40:35Z</time>
      </trkpt>
      <trkpt lat="47.17881" lon="6.82391">
        <ele>918</ele>
        <time>2026-08-28T07:40:37Z</time>
      </trkpt>
      <trkpt lat="47.17897" lon="6.82392">
        <ele>918</ele>
        <time>2026-08-28T07:40:40Z</time>
      </trkpt>
      <trkpt lat="47.17911" lon="6.82371">
        <ele>917</ele>
        <time>2026-08-28T07:40:45Z</time>
      </trkpt>
      <trkpt lat="47.17934" lon="6.82359">
        <ele>915</ele>
        <time>2026-08-28T07:40:51Z</time>
      </trkpt>
      <trkpt lat="47.17941" lon="6.82357">
        <ele>915</ele>
        <time>2026-08-28T07:40:52Z</time>
      </trkpt>
      <trkpt lat="47.17955" lon="6.82357">
        <ele>914</ele>
        <time>2026-08-28T07:40:56Z</time>
      </trkpt>
      <trkpt lat="47.17988" lon="6.82361">
        <ele>911</ele>
        <time>2026-08-28T07:41:03Z</time>
      </trkpt>
      <trkpt lat="47.18007" lon="6.82365">
        <ele>909</ele>
        <time>2026-08-28T07:41:08Z</time>
      </trkpt>
      <trkpt lat="47.18022" lon="6.82363">
        <ele>906</ele>
        <time>2026-08-28T07:41:11Z</time>
      </trkpt>
      <trkpt lat="47.1806" lon="6.82341">
        <ele>896</ele>
        <time>2026-08-28T07:41:21Z</time>
      </trkpt>
      <trkpt lat="47.18082" lon="6.82334">
        <ele>891</ele>
        <time>2026-08-28T07:41:26Z</time>
      </trkpt>
      <trkpt lat="47.18123" lon="6.82326">
        <ele>887</ele>
        <time>2026-08-28T07:41:36Z</time>
      </trkpt>
      <trkpt lat="47.18149" lon="6.82317">
        <ele>885</ele>
        <time>2026-08-28T07:41:42Z</time>
      </trkpt>
      <trkpt lat="47.18191" lon="6.82291">
        <ele>882</ele>
        <time>2026-08-28T07:41:53Z</time>
      </trkpt>
      <trkpt lat="47.18205" lon="6.82276">
        <ele>882</ele>
        <time>2026-08-28T07:41:57Z</time>
      </trkpt>
      <trkpt lat="47.18227" lon="6.82255">
        <ele>880</ele>
        <time>2026-08-28T07:42:03Z</time>
      </trkpt>
      <trkpt lat="47.18263" lon="6.8223">
        <ele>878</ele>
        <time>2026-08-28T07:42:12Z</time>
      </trkpt>
      <trkpt lat="47.1829" lon="6.8219">
        <ele>877</ele>
        <time>2026-08-28T07:42:21Z</time>
      </trkpt>
      <trkpt lat="47.18333" lon="6.8214">
        <ele>877</ele>
        <time>2026-08-28T07:42:34Z</time>
      </trkpt>
      <trkpt lat="47.18346" lon="6.82122">
        <ele>877</ele>
        <time>2026-08-28T07:42:38Z</time>
      </trkpt>
      <trkpt lat="47.18363" lon="6.82104">
        <ele>878</ele>
        <time>2026-08-28T07:42:43Z</time>
      </trkpt>
      <trkpt lat="47.18391" lon="6.82085">
        <ele>878</ele>
        <time>2026-08-28T07:42:50Z</time>
      </trkpt>
      <trkpt lat="47.18398" lon="6.82043">
        <ele>877</ele>
        <time>2026-08-28T07:42:57Z</time>
      </trkpt>
      <trkpt lat="47.18403" lon="6.8198">
        <ele>876</ele>
        <time>2026-08-28T07:43:07Z</time>
      </trkpt>
      <trkpt lat="47.18416" lon="6.81921">
        <ele>874</ele>
        <time>2026-08-28T07:43:17Z</time>
      </trkpt>
      <trkpt lat="47.18436" lon="6.81863">
        <ele>872</ele>
        <time>2026-08-28T07:43:27Z</time>
      </trkpt>
      <trkpt lat="47.1845" lon="6.81837">
        <ele>871</ele>
        <time>2026-08-28T07:43:33Z</time>
      </trkpt>
      <trkpt lat="47.18522" lon="6.81761">
        <ele>871</ele>
        <time>2026-08-28T07:43:53Z</time>
      </trkpt>
      <trkpt lat="47.18547" lon="6.81736">
        <ele>873</ele>
        <time>2026-08-28T07:44:00Z</time>
      </trkpt>
      <trkpt lat="47.18558" lon="6.81717">
        <ele>873</ele>
        <time>2026-08-28T07:44:04Z</time>
      </trkpt>
      <trkpt lat="47.18571" lon="6.8169">
        <ele>874</ele>
        <time>2026-08-28T07:44:10Z</time>
      </trkpt>
      <trkpt lat="47.18604" lon="6.81628">
        <ele>873</ele>
        <time>2026-08-28T07:44:22Z</time>
      </trkpt>
      <trkpt lat="47.18605" lon="6.81606">
        <ele>873</ele>
        <time>2026-08-28T07:44:26Z</time>
      </trkpt>
      <trkpt lat="47.18594" lon="6.81573">
        <ele>873</ele>
        <time>2026-08-28T07:44:31Z</time>
      </trkpt>
      <trkpt lat="47.18577" lon="6.81524">
        <ele>872</ele>
        <time>2026-08-28T07:44:40Z</time>
      </trkpt>
      <trkpt lat="47.1855" lon="6.81438">
        <ele>871</ele>
        <time>2026-08-28T07:44:55Z</time>
      </trkpt>
      <trkpt lat="47.18526" lon="6.81346">
        <ele>868</ele>
        <time>2026-08-28T07:45:11Z</time>
      </trkpt>
      <trkpt lat="47.18525" lon="6.81323">
        <ele>868</ele>
        <time>2026-08-28T07:45:14Z</time>
      </trkpt>
      <trkpt lat="47.18537" lon="6.81313">
        <ele>868</ele>
        <time>2026-08-28T07:45:18Z</time>
      </trkpt>
      <trkpt lat="47.18562" lon="6.81303">
        <ele>868</ele>
        <time>2026-08-28T07:45:24Z</time>
      </trkpt>
      <trkpt lat="47.18657" lon="6.8128">
        <ele>868</ele>
        <time>2026-08-28T07:45:46Z</time>
      </trkpt>
      <trkpt lat="47.18671" lon="6.8127">
        <ele>868</ele>
        <time>2026-08-28T07:45:50Z</time>
      </trkpt>
      <trkpt lat="47.18674" lon="6.81263">
        <ele>869</ele>
        <time>2026-08-28T07:45:51Z</time>
      </trkpt>
      <trkpt lat="47.18677" lon="6.81253">
        <ele>869</ele>
        <time>2026-08-28T07:45:53Z</time>
      </trkpt>
      <trkpt lat="47.18678" lon="6.81224">
        <ele>870</ele>
        <time>2026-08-28T07:45:57Z</time>
      </trkpt>
      <trkpt lat="47.18682" lon="6.81182">
        <ele>872</ele>
        <time>2026-08-28T07:46:04Z</time>
      </trkpt>
      <trkpt lat="47.1869" lon="6.8115">
        <ele>874</ele>
        <time>2026-08-28T07:46:10Z</time>
      </trkpt>
      <trkpt lat="47.1871" lon="6.8111">
        <ele>876</ele>
        <time>2026-08-28T07:46:17Z</time>
      </trkpt>
      <trkpt lat="47.18726" lon="6.81082">
        <ele>877</ele>
        <time>2026-08-28T07:46:23Z</time>
      </trkpt>
      <trkpt lat="47.18743" lon="6.81061">
        <ele>878</ele>
        <time>2026-08-28T07:46:28Z</time>
      </trkpt>
      <trkpt lat="47.18759" lon="6.81043">
        <ele>879</ele>
        <time>2026-08-28T07:46:33Z</time>
      </trkpt>
      <trkpt lat="47.18789" lon="6.80992">
        <ele>877</ele>
        <time>2026-08-28T07:46:44Z</time>
      </trkpt>
      <trkpt lat="47.18801" lon="6.80966">
        <ele>876</ele>
        <time>2026-08-28T07:46:49Z</time>
      </trkpt>
      <trkpt lat="47.18816" lon="6.80941">
        <ele>875</ele>
        <time>2026-08-28T07:46:54Z</time>
      </trkpt>
      <trkpt lat="47.1885" lon="6.80883">
        <ele>873</ele>
        <time>2026-08-28T07:47:06Z</time>
      </trkpt>
      <trkpt lat="47.18869" lon="6.80822">
        <ele>873</ele>
        <time>2026-08-28T07:47:17Z</time>
      </trkpt>
      <trkpt lat="47.1887" lon="6.8073">
        <ele>871</ele>
        <time>2026-08-28T07:47:32Z</time>
      </trkpt>
      <trkpt lat="47.18864" lon="6.8066">
        <ele>871</ele>
        <time>2026-08-28T07:47:43Z</time>
      </trkpt>
      <trkpt lat="47.18869" lon="6.80621">
        <ele>871</ele>
        <time>2026-08-28T07:47:49Z</time>
      </trkpt>
      <trkpt lat="47.18898" lon="6.80564">
        <ele>873</ele>
        <time>2026-08-28T07:48:00Z</time>
      </trkpt>
      <trkpt lat="47.18922" lon="6.80528">
        <ele>875</ele>
        <time>2026-08-28T07:48:08Z</time>
      </trkpt>
      <trkpt lat="47.18959" lon="6.80497">
        <ele>879</ele>
        <time>2026-08-28T07:48:18Z</time>
      </trkpt>
      <trkpt lat="47.18967" lon="6.80481">
        <ele>879</ele>
        <time>2026-08-28T07:48:21Z</time>
      </trkpt>
      <trkpt lat="47.18967" lon="6.80461">
        <ele>879</ele>
        <time>2026-08-28T07:48:25Z</time>
      </trkpt>
      <trkpt lat="47.18953" lon="6.80397">
        <ele>878</ele>
        <time>2026-08-28T07:48:35Z</time>
      </trkpt>
      <trkpt lat="47.18944" lon="6.80309">
        <ele>880</ele>
        <time>2026-08-28T07:48:49Z</time>
      </trkpt>
      <trkpt lat="47.18931" lon="6.80266">
        <ele>881</ele>
        <time>2026-08-28T07:48:57Z</time>
      </trkpt>
      <trkpt lat="47.18875" lon="6.80182">
        <ele>883</ele>
        <time>2026-08-28T07:49:16Z</time>
      </trkpt>
      <trkpt lat="47.18845" lon="6.80134">
        <ele>883</ele>
        <time>2026-08-28T07:49:26Z</time>
      </trkpt>
      <trkpt lat="47.18819" lon="6.80079">
        <ele>883</ele>
        <time>2026-08-28T07:49:37Z</time>
      </trkpt>
      <trkpt lat="47.18803" lon="6.80031">
        <ele>882</ele>
        <time>2026-08-28T07:49:45Z</time>
      </trkpt>
      <trkpt lat="47.18783" lon="6.79987">
        <ele>881</ele>
        <time>2026-08-28T07:49:53Z</time>
      </trkpt>
      <trkpt lat="47.18774" lon="6.79946">
        <ele>881</ele>
        <time>2026-08-28T07:50:00Z</time>
      </trkpt>
      <trkpt lat="47.18771" lon="6.79916">
        <ele>881</ele>
        <time>2026-08-28T07:50:05Z</time>
      </trkpt>
      <trkpt lat="47.18781" lon="6.79903">
        <ele>881</ele>
        <time>2026-08-28T07:50:08Z</time>
      </trkpt>
      <trkpt lat="47.18789" lon="6.799">
        <ele>880</ele>
        <time>2026-08-28T07:50:10Z</time>
      </trkpt>
      <trkpt lat="47.18803" lon="6.79906">
        <ele>880</ele>
        <time>2026-08-28T07:50:14Z</time>
      </trkpt>
      <trkpt lat="47.18834" lon="6.79926">
        <ele>880</ele>
        <time>2026-08-28T07:50:21Z</time>
      </trkpt>
      <trkpt lat="47.18854" lon="6.79914">
        <ele>879</ele>
        <time>2026-08-28T07:50:27Z</time>
      </trkpt>
      <trkpt lat="47.18877" lon="6.79853">
        <ele>877</ele>
        <time>2026-08-28T07:50:38Z</time>
      </trkpt>
      <trkpt lat="47.18912" lon="6.797">
        <ele>878</ele>
        <time>2026-08-28T07:51:03Z</time>
      </trkpt>
      <trkpt lat="47.18955" lon="6.79635">
        <ele>880</ele>
        <time>2026-08-28T07:51:18Z</time>
      </trkpt>
      <trkpt lat="47.18987" lon="6.79617">
        <ele>881</ele>
        <time>2026-08-28T07:51:26Z</time>
      </trkpt>
      <trkpt lat="47.18976" lon="6.79518">
        <ele>884</ele>
        <time>2026-08-28T07:51:42Z</time>
      </trkpt>
      <trkpt lat="47.18983" lon="6.79463">
        <ele>885</ele>
        <time>2026-08-28T07:51:50Z</time>
      </trkpt>
      <trkpt lat="47.19008" lon="6.79394">
        <ele>885</ele>
        <time>2026-08-28T07:52:03Z</time>
      </trkpt>
      <trkpt lat="47.19034" lon="6.79328">
        <ele>887</ele>
        <time>2026-08-28T07:52:15Z</time>
      </trkpt>
      <trkpt lat="47.19057" lon="6.79283">
        <ele>890</ele>
        <time>2026-08-28T07:52:24Z</time>
      </trkpt>
      <trkpt lat="47.19095" lon="6.79251">
        <ele>895</ele>
        <time>2026-08-28T07:52:34Z</time>
      </trkpt>
      <trkpt lat="47.19116" lon="6.7924">
        <ele>896</ele>
        <time>2026-08-28T07:52:39Z</time>
      </trkpt>
      <trkpt lat="47.19115" lon="6.79206">
        <ele>897</ele>
        <time>2026-08-28T07:52:45Z</time>
      </trkpt>
      <trkpt lat="47.19105" lon="6.79162">
        <ele>897</ele>
        <time>2026-08-28T07:52:52Z</time>
      </trkpt>
      <trkpt lat="47.19122" lon="6.79113">
        <ele>901</ele>
        <time>2026-08-28T07:53:01Z</time>
      </trkpt>
      <trkpt lat="47.19161" lon="6.7905">
        <ele>908</ele>
        <time>2026-08-28T07:53:14Z</time>
      </trkpt>
      <trkpt lat="47.19186" lon="6.79008">
        <ele>910</ele>
        <time>2026-08-28T07:53:23Z</time>
      </trkpt>
      <trkpt lat="47.19224" lon="6.78984">
        <ele>912</ele>
        <time>2026-08-28T07:53:33Z</time>
      </trkpt>
      <trkpt lat="47.19248" lon="6.78947">
        <ele>912</ele>
        <time>2026-08-28T07:53:41Z</time>
      </trkpt>
      <trkpt lat="47.19281" lon="6.78911">
        <ele>913</ele>
        <time>2026-08-28T07:53:51Z</time>
      </trkpt>
      <trkpt lat="47.1932" lon="6.78861">
        <ele>913</ele>
        <time>2026-08-28T07:54:03Z</time>
      </trkpt>
      <trkpt lat="47.19354" lon="6.78821">
        <ele>912</ele>
        <time>2026-08-28T07:54:13Z</time>
      </trkpt>
      <trkpt lat="47.19385" lon="6.78792">
        <ele>909</ele>
        <time>2026-08-28T07:54:21Z</time>
      </trkpt>
      <trkpt lat="47.19425" lon="6.78755">
        <ele>904</ele>
        <time>2026-08-28T07:54:32Z</time>
      </trkpt>
      <trkpt lat="47.19464" lon="6.78899">
        <ele>902</ele>
        <time>2026-08-28T07:54:57Z</time>
      </trkpt>
      <trkpt lat="47.19517" lon="6.78844">
        <ele>896</ele>
        <time>2026-08-28T07:55:12Z</time>
      </trkpt>
      <trkpt lat="47.19579" lon="6.7878">
        <ele>903</ele>
        <time>2026-08-28T07:55:30Z</time>
      </trkpt>
      <trkpt lat="47.19648" lon="6.78671">
        <ele>903</ele>
        <time>2026-08-28T07:55:53Z</time>
      </trkpt>
      <trkpt lat="47.19747" lon="6.78739">
        <ele>902</ele>
        <time>2026-08-28T07:56:19Z</time>
      </trkpt>
      <trkpt lat="47.19819" lon="6.78727">
        <ele>905</ele>
        <time>2026-08-28T07:56:36Z</time>
      </trkpt>
      <trkpt lat="47.19878" lon="6.78686">
        <ele>909</ele>
        <time>2026-08-28T07:56:51Z</time>
      </trkpt>
      <trkpt lat="47.19909" lon="6.78629">
        <ele>917</ele>
        <time>2026-08-28T07:57:03Z</time>
      </trkpt>
      <trkpt lat="47.19946" lon="6.78582">
        <ele>922</ele>
        <time>2026-08-28T07:57:14Z</time>
      </trkpt>
      <trkpt lat="47.19994" lon="6.78604">
        <ele>922</ele>
        <time>2026-08-28T07:57:26Z</time>
      </trkpt>
      <trkpt lat="47.2006" lon="6.78656">
        <ele>927</ele>
        <time>2026-08-28T07:57:43Z</time>
      </trkpt>
      <trkpt lat="47.20129" lon="6.78678">
        <ele>927</ele>
        <time>2026-08-28T07:58:00Z</time>
      </trkpt>
      <trkpt lat="47.20191" lon="6.78677">
        <ele>924</ele>
        <time>2026-08-28T07:58:14Z</time>
      </trkpt>
      <trkpt lat="47.2028" lon="6.78734">
        <ele>927</ele>
        <time>2026-08-28T07:58:37Z</time>
      </trkpt>
      <trkpt lat="47.20337" lon="6.78815">
        <ele>932</ele>
        <time>2026-08-28T07:58:55Z</time>
      </trkpt>
      <trkpt lat="47.20417" lon="6.78909">
        <ele>935</ele>
        <time>2026-08-28T07:59:19Z</time>
      </trkpt>
      <trkpt lat="47.20479" lon="6.78971">
        <ele>932</ele>
        <time>2026-08-28T07:59:37Z</time>
      </trkpt>
      <trkpt lat="47.20519" lon="6.79036">
        <ele>932</ele>
        <time>2026-08-28T07:59:51Z</time>
      </trkpt>
      <trkpt lat="47.20594" lon="6.79125">
        <ele>929</ele>
        <time>2026-08-28T08:00:13Z</time>
      </trkpt>
      <trkpt lat="47.20633" lon="6.79203">
        <ele>929</ele>
        <time>2026-08-28T08:00:29Z</time>
      </trkpt>
      <trkpt lat="47.207" lon="6.79308">
        <ele>922</ele>
        <time>2026-08-28T08:00:52Z</time>
      </trkpt>
      <trkpt lat="47.20718" lon="6.79379">
        <ele>916</ele>
        <time>2026-08-28T08:01:04Z</time>
      </trkpt>
      <trkpt lat="47.20789" lon="6.79416">
        <ele>906</ele>
        <time>2026-08-28T08:01:21Z</time>
      </trkpt>
      <trkpt lat="47.20858" lon="6.79404">
        <ele>898</ele>
        <time>2026-08-28T08:01:37Z</time>
      </trkpt>
      <trkpt lat="47.21016" lon="6.79435">
        <ele>894</ele>
        <time>2026-08-28T08:02:15Z</time>
      </trkpt>
      <trkpt lat="47.2114" lon="6.79472">
        <ele>883</ele>
        <time>2026-08-28T08:02:44Z</time>
      </trkpt>
      <trkpt lat="47.21231" lon="6.79472">
        <ele>876</ele>
        <time>2026-08-28T08:03:05Z</time>
      </trkpt>
      <trkpt lat="47.2133" lon="6.79471">
        <ele>875</ele>
        <time>2026-08-28T08:03:28Z</time>
      </trkpt>
      <trkpt lat="47.21332" lon="6.79453">
        <ele>874</ele>
        <time>2026-08-28T08:03:31Z</time>
      </trkpt>
    </trkseg>
  </trk>
</gpx>